<?xml version="1.0" encoding="UTF-8" standalone="no" ?>
<gpx xmlns="http://www.topografix.com/GPX/1/1" xmlns:xsi="http://www.w3.org/2001/XMLSchema-instance" xsi:schemaLocation="http://www.topografix.com/GPX/1/1 http://www.topografix.com/GPX/1/1/gpx.xsd" version="1.1" creator="VisuGPX - https://www.visugpx.com">
  <metadata>
    <name>Courances / Moigny  Boucle 20 km</name>
    <desc><![CDATA[Randonnée effectuée en décembre 2017 avec le Rando Club Yerrois
Animateur Jean T
Relive [url]youtu.be/_en0Cm8KofE[/url]]]></desc>
  </metadata>
  <trk>
    <name><![CDATA[Courances / Moigny  Boucle 20 km_1]]></name>
    <trkseg>
      <trkpt lat="48.44079" lon="2.47351">
        <ele>63.1</ele>
        <time>2017-11-29T08:49:16Z</time>
      </trkpt>
      <trkpt lat="48.44079" lon="2.47351">
        <ele>120.424</ele>
        <time>2017-11-29T08:49:17Z</time>
      </trkpt>
      <trkpt lat="48.44065" lon="2.47371">
        <ele>104.054</ele>
        <time>2017-11-29T08:55:59Z</time>
      </trkpt>
      <trkpt lat="48.44059" lon="2.4739">
        <ele>101.65</ele>
        <time>2017-11-29T08:56:17Z</time>
      </trkpt>
      <trkpt lat="48.44053" lon="2.47405">
        <ele>100.882</ele>
        <time>2017-11-29T08:56:26Z</time>
      </trkpt>
      <trkpt lat="48.44046" lon="2.4742">
        <ele>100.341</ele>
        <time>2017-11-29T08:56:36Z</time>
      </trkpt>
      <trkpt lat="48.44032" lon="2.47443">
        <ele>100.77</ele>
        <time>2017-11-29T08:56:49Z</time>
      </trkpt>
      <trkpt lat="48.44025" lon="2.47473">
        <ele>101.722</ele>
        <time>2017-11-29T08:57:05Z</time>
      </trkpt>
      <trkpt lat="48.44017" lon="2.47489">
        <ele>102.197</ele>
        <time>2017-11-29T08:57:15Z</time>
      </trkpt>
      <trkpt lat="48.44008" lon="2.47506">
        <ele>102.575</ele>
        <time>2017-11-29T08:57:26Z</time>
      </trkpt>
      <trkpt lat="48.43997" lon="2.47519">
        <ele>103.016</ele>
        <time>2017-11-29T08:57:35Z</time>
      </trkpt>
      <trkpt lat="48.43988" lon="2.47542">
        <ele>103.704</ele>
        <time>2017-11-29T08:57:48Z</time>
      </trkpt>
      <trkpt lat="48.43984" lon="2.47558">
        <ele>104.285</ele>
        <time>2017-11-29T08:58:00Z</time>
      </trkpt>
      <trkpt lat="48.43967" lon="2.47579">
        <ele>104.929</ele>
        <time>2017-11-29T08:58:17Z</time>
      </trkpt>
      <trkpt lat="48.43951" lon="2.47605">
        <ele>105.493</ele>
        <time>2017-11-29T08:58:33Z</time>
      </trkpt>
      <trkpt lat="48.43935" lon="2.47622">
        <ele>105.875</ele>
        <time>2017-11-29T08:58:47Z</time>
      </trkpt>
      <trkpt lat="48.43927" lon="2.47633">
        <ele>106.05</ele>
        <time>2017-11-29T08:58:56Z</time>
      </trkpt>
      <trkpt lat="48.4391" lon="2.47645">
        <ele>106.229</ele>
        <time>2017-11-29T08:59:10Z</time>
      </trkpt>
      <trkpt lat="48.4389" lon="2.47657">
        <ele>106.345</ele>
        <time>2017-11-29T08:59:26Z</time>
      </trkpt>
      <trkpt lat="48.4388" lon="2.47662">
        <ele>106.399</ele>
        <time>2017-11-29T08:59:32Z</time>
      </trkpt>
      <trkpt lat="48.4387" lon="2.47673">
        <ele>106.509</ele>
        <time>2017-11-29T08:59:43Z</time>
      </trkpt>
      <trkpt lat="48.43856" lon="2.47686">
        <ele>106.621</ele>
        <time>2017-11-29T08:59:56Z</time>
      </trkpt>
      <trkpt lat="48.43842" lon="2.47712">
        <ele>106.805</ele>
        <time>2017-11-29T09:00:11Z</time>
      </trkpt>
      <trkpt lat="48.43827" lon="2.47738">
        <ele>107.193</ele>
        <time>2017-11-29T09:00:27Z</time>
      </trkpt>
      <trkpt lat="48.43812" lon="2.47761">
        <ele>107.633</ele>
        <time>2017-11-29T09:00:41Z</time>
      </trkpt>
      <trkpt lat="48.43802" lon="2.47775">
        <ele>108.02</ele>
        <time>2017-11-29T09:00:52Z</time>
      </trkpt>
      <trkpt lat="48.43785" lon="2.47798">
        <ele>108.599</ele>
        <time>2017-11-29T09:01:11Z</time>
      </trkpt>
      <trkpt lat="48.43767" lon="2.47819">
        <ele>108.989</ele>
        <time>2017-11-29T09:01:27Z</time>
      </trkpt>
      <trkpt lat="48.43754" lon="2.47832">
        <ele>109.261</ele>
        <time>2017-11-29T09:01:41Z</time>
      </trkpt>
      <trkpt lat="48.43737" lon="2.47855">
        <ele>109.494</ele>
        <time>2017-11-29T09:01:55Z</time>
      </trkpt>
      <trkpt lat="48.4373" lon="2.4787">
        <ele>109.625</ele>
        <time>2017-11-29T09:02:03Z</time>
      </trkpt>
      <trkpt lat="48.43726" lon="2.47884">
        <ele>109.732</ele>
        <time>2017-11-29T09:02:10Z</time>
      </trkpt>
      <trkpt lat="48.4373" lon="2.47913">
        <ele>109.976</ele>
        <time>2017-11-29T09:02:28Z</time>
      </trkpt>
      <trkpt lat="48.43738" lon="2.4792">
        <ele>110.102</ele>
        <time>2017-11-29T09:02:38Z</time>
      </trkpt>
      <trkpt lat="48.43738" lon="2.4792">
        <ele>73</ele>
        <time>2017-11-29T09:02:46Z</time>
      </trkpt>
      <trkpt lat="48.43738" lon="2.4792">
        <ele>73</ele>
        <time>2017-11-29T09:03:13Z</time>
      </trkpt>
      <trkpt lat="48.43731" lon="2.47936">
        <ele>110.321</ele>
        <time>2017-11-29T09:03:13Z</time>
      </trkpt>
      <trkpt lat="48.43712" lon="2.47934">
        <ele>110.436</ele>
        <time>2017-11-29T09:03:29Z</time>
      </trkpt>
      <trkpt lat="48.437" lon="2.47938">
        <ele>110.502</ele>
        <time>2017-11-29T09:03:40Z</time>
      </trkpt>
      <trkpt lat="48.43679" lon="2.47943">
        <ele>110.591</ele>
        <time>2017-11-29T09:03:55Z</time>
      </trkpt>
      <trkpt lat="48.4366" lon="2.47943">
        <ele>110.716</ele>
        <time>2017-11-29T09:04:08Z</time>
      </trkpt>
      <trkpt lat="48.43645" lon="2.47947">
        <ele>110.84</ele>
        <time>2017-11-29T09:04:19Z</time>
      </trkpt>
      <trkpt lat="48.43625" lon="2.47962">
        <ele>110.971</ele>
        <time>2017-11-29T09:04:36Z</time>
      </trkpt>
      <trkpt lat="48.43615" lon="2.47978">
        <ele>111</ele>
        <time>2017-11-29T09:04:46Z</time>
      </trkpt>
      <trkpt lat="48.43603" lon="2.47997">
        <ele>111.004</ele>
        <time>2017-11-29T09:04:59Z</time>
      </trkpt>
      <trkpt lat="48.43589" lon="2.48015">
        <ele>110.999</ele>
        <time>2017-11-29T09:05:13Z</time>
      </trkpt>
      <trkpt lat="48.43571" lon="2.48037">
        <ele>110.975</ele>
        <time>2017-11-29T09:05:28Z</time>
      </trkpt>
      <trkpt lat="48.43559" lon="2.48052">
        <ele>110.938</ele>
        <time>2017-11-29T09:05:40Z</time>
      </trkpt>
      <trkpt lat="48.43544" lon="2.48072">
        <ele>110.872</ele>
        <time>2017-11-29T09:05:54Z</time>
      </trkpt>
      <trkpt lat="48.4353" lon="2.48092">
        <ele>110.811</ele>
        <time>2017-11-29T09:06:09Z</time>
      </trkpt>
      <trkpt lat="48.43517" lon="2.48113">
        <ele>110.754</ele>
        <time>2017-11-29T09:06:24Z</time>
      </trkpt>
      <trkpt lat="48.43504" lon="2.48131">
        <ele>110.701</ele>
        <time>2017-11-29T09:06:37Z</time>
      </trkpt>
      <trkpt lat="48.43487" lon="2.48148">
        <ele>110.662</ele>
        <time>2017-11-29T09:06:53Z</time>
      </trkpt>
      <trkpt lat="48.4347" lon="2.48174">
        <ele>110.683</ele>
        <time>2017-11-29T09:07:11Z</time>
      </trkpt>
      <trkpt lat="48.43462" lon="2.48186">
        <ele>110.725</ele>
        <time>2017-11-29T09:07:19Z</time>
      </trkpt>
      <trkpt lat="48.43452" lon="2.48206">
        <ele>110.822</ele>
        <time>2017-11-29T09:07:31Z</time>
      </trkpt>
      <trkpt lat="48.43437" lon="2.48237">
        <ele>110.972</ele>
        <time>2017-11-29T09:07:47Z</time>
      </trkpt>
      <trkpt lat="48.43429" lon="2.48258">
        <ele>111.11</ele>
        <time>2017-11-29T09:08:00Z</time>
      </trkpt>
      <trkpt lat="48.43423" lon="2.4827">
        <ele>111.191</ele>
        <time>2017-11-29T09:08:07Z</time>
      </trkpt>
      <trkpt lat="48.43412" lon="2.48295">
        <ele>111.351</ele>
        <time>2017-11-29T09:08:20Z</time>
      </trkpt>
      <trkpt lat="48.43401" lon="2.4832">
        <ele>111.522</ele>
        <time>2017-11-29T09:08:35Z</time>
      </trkpt>
      <trkpt lat="48.43389" lon="2.4835">
        <ele>111.688</ele>
        <time>2017-11-29T09:08:51Z</time>
      </trkpt>
      <trkpt lat="48.43385" lon="2.4836">
        <ele>111.742</ele>
        <time>2017-11-29T09:08:57Z</time>
      </trkpt>
      <trkpt lat="48.43375" lon="2.48379">
        <ele>111.845</ele>
        <time>2017-11-29T09:09:10Z</time>
      </trkpt>
      <trkpt lat="48.43362" lon="2.48409">
        <ele>111.98</ele>
        <time>2017-11-29T09:09:26Z</time>
      </trkpt>
      <trkpt lat="48.43351" lon="2.48413">
        <ele>112.09</ele>
        <time>2017-11-29T09:09:41Z</time>
      </trkpt>
      <trkpt lat="48.43329" lon="2.48403">
        <ele>112.167</ele>
        <time>2017-11-29T09:09:58Z</time>
      </trkpt>
      <trkpt lat="48.43319" lon="2.48395">
        <ele>112.193</ele>
        <time>2017-11-29T09:10:08Z</time>
      </trkpt>
      <trkpt lat="48.43302" lon="2.48384">
        <ele>112.242</ele>
        <time>2017-11-29T09:10:21Z</time>
      </trkpt>
      <trkpt lat="48.43282" lon="2.4837">
        <ele>112.289</ele>
        <time>2017-11-29T09:10:36Z</time>
      </trkpt>
      <trkpt lat="48.43265" lon="2.48357">
        <ele>112.331</ele>
        <time>2017-11-29T09:10:50Z</time>
      </trkpt>
      <trkpt lat="48.43242" lon="2.48335">
        <ele>112.391</ele>
        <time>2017-11-29T09:11:10Z</time>
      </trkpt>
      <trkpt lat="48.43227" lon="2.48321">
        <ele>112.436</ele>
        <time>2017-11-29T09:11:24Z</time>
      </trkpt>
      <trkpt lat="48.43211" lon="2.48307">
        <ele>112.464</ele>
        <time>2017-11-29T09:11:40Z</time>
      </trkpt>
      <trkpt lat="48.43193" lon="2.48287">
        <ele>112.473</ele>
        <time>2017-11-29T09:11:56Z</time>
      </trkpt>
      <trkpt lat="48.43178" lon="2.48274">
        <ele>112.492</ele>
        <time>2017-11-29T09:12:09Z</time>
      </trkpt>
      <trkpt lat="48.4316" lon="2.48256">
        <ele>112.539</ele>
        <time>2017-11-29T09:12:26Z</time>
      </trkpt>
      <trkpt lat="48.43146" lon="2.48245">
        <ele>112.591</ele>
        <time>2017-11-29T09:12:40Z</time>
      </trkpt>
      <trkpt lat="48.43134" lon="2.48232">
        <ele>112.645</ele>
        <time>2017-11-29T09:12:53Z</time>
      </trkpt>
      <trkpt lat="48.43121" lon="2.48217">
        <ele>112.698</ele>
        <time>2017-11-29T09:13:08Z</time>
      </trkpt>
      <trkpt lat="48.43103" lon="2.48197">
        <ele>112.741</ele>
        <time>2017-11-29T09:13:25Z</time>
      </trkpt>
      <trkpt lat="48.43081" lon="2.4818">
        <ele>112.764</ele>
        <time>2017-11-29T09:13:41Z</time>
      </trkpt>
      <trkpt lat="48.43064" lon="2.48168">
        <ele>112.774</ele>
        <time>2017-11-29T09:13:53Z</time>
      </trkpt>
      <trkpt lat="48.43058" lon="2.48166">
        <ele>112.789</ele>
        <time>2017-11-29T09:13:56Z</time>
      </trkpt>
      <trkpt lat="48.43058" lon="2.48166">
        <ele>71.1</ele>
        <time>2017-11-29T09:14:02Z</time>
      </trkpt>
      <trkpt lat="48.43058" lon="2.48166">
        <ele>71.1</ele>
        <time>2017-11-29T09:19:31Z</time>
      </trkpt>
      <trkpt lat="48.43028" lon="2.48137">
        <ele>112.408</ele>
        <time>2017-11-29T09:19:31Z</time>
      </trkpt>
      <trkpt lat="48.43014" lon="2.4813">
        <ele>112.401</ele>
        <time>2017-11-29T09:19:43Z</time>
      </trkpt>
      <trkpt lat="48.42999" lon="2.48118">
        <ele>112.425</ele>
        <time>2017-11-29T09:19:57Z</time>
      </trkpt>
      <trkpt lat="48.42987" lon="2.48105">
        <ele>112.469</ele>
        <time>2017-11-29T09:20:12Z</time>
      </trkpt>
      <trkpt lat="48.42964" lon="2.48086">
        <ele>112.555</ele>
        <time>2017-11-29T09:20:32Z</time>
      </trkpt>
      <trkpt lat="48.42946" lon="2.48071">
        <ele>112.655</ele>
        <time>2017-11-29T09:20:50Z</time>
      </trkpt>
      <trkpt lat="48.42933" lon="2.48056">
        <ele>112.731</ele>
        <time>2017-11-29T09:21:01Z</time>
      </trkpt>
      <trkpt lat="48.42923" lon="2.48044">
        <ele>112.847</ele>
        <time>2017-11-29T09:21:15Z</time>
      </trkpt>
      <trkpt lat="48.42904" lon="2.4803">
        <ele>113.012</ele>
        <time>2017-11-29T09:21:31Z</time>
      </trkpt>
      <trkpt lat="48.42887" lon="2.48014">
        <ele>113.22</ele>
        <time>2017-11-29T09:21:47Z</time>
      </trkpt>
      <trkpt lat="48.42867" lon="2.47989">
        <ele>113.42</ele>
        <time>2017-11-29T09:22:03Z</time>
      </trkpt>
      <trkpt lat="48.42852" lon="2.47983">
        <ele>113.519</ele>
        <time>2017-11-29T09:22:14Z</time>
      </trkpt>
      <trkpt lat="48.42837" lon="2.4797">
        <ele>113.655</ele>
        <time>2017-11-29T09:22:29Z</time>
      </trkpt>
      <trkpt lat="48.42824" lon="2.47961">
        <ele>113.801</ele>
        <time>2017-11-29T09:22:43Z</time>
      </trkpt>
      <trkpt lat="48.42807" lon="2.47947">
        <ele>113.947</ele>
        <time>2017-11-29T09:22:56Z</time>
      </trkpt>
      <trkpt lat="48.42795" lon="2.47936">
        <ele>114.121</ele>
        <time>2017-11-29T09:23:08Z</time>
      </trkpt>
      <trkpt lat="48.42777" lon="2.47918">
        <ele>114.316</ele>
        <time>2017-11-29T09:23:23Z</time>
      </trkpt>
      <trkpt lat="48.42764" lon="2.47921">
        <ele>114.458</ele>
        <time>2017-11-29T09:23:36Z</time>
      </trkpt>
      <trkpt lat="48.42755" lon="2.47946">
        <ele>114.545</ele>
        <time>2017-11-29T09:23:49Z</time>
      </trkpt>
      <trkpt lat="48.42749" lon="2.47967">
        <ele>114.587</ele>
        <time>2017-11-29T09:23:59Z</time>
      </trkpt>
      <trkpt lat="48.42741" lon="2.47991">
        <ele>114.613</ele>
        <time>2017-11-29T09:24:13Z</time>
      </trkpt>
      <trkpt lat="48.42733" lon="2.48009">
        <ele>114.616</ele>
        <time>2017-11-29T09:24:24Z</time>
      </trkpt>
      <trkpt lat="48.42725" lon="2.48019">
        <ele>114.605</ele>
        <time>2017-11-29T09:24:34Z</time>
      </trkpt>
      <trkpt lat="48.42713" lon="2.4804">
        <ele>114.58</ele>
        <time>2017-11-29T09:24:49Z</time>
      </trkpt>
      <trkpt lat="48.42702" lon="2.48062">
        <ele>114.566</ele>
        <time>2017-11-29T09:25:01Z</time>
      </trkpt>
      <trkpt lat="48.42693" lon="2.48085">
        <ele>114.559</ele>
        <time>2017-11-29T09:25:14Z</time>
      </trkpt>
      <trkpt lat="48.42688" lon="2.48114">
        <ele>114.541</ele>
        <time>2017-11-29T09:25:27Z</time>
      </trkpt>
      <trkpt lat="48.42681" lon="2.48138">
        <ele>114.54</ele>
        <time>2017-11-29T09:25:38Z</time>
      </trkpt>
      <trkpt lat="48.42678" lon="2.48149">
        <ele>114.546</ele>
        <time>2017-11-29T09:25:45Z</time>
      </trkpt>
      <trkpt lat="48.42673" lon="2.48175">
        <ele>114.554</ele>
        <time>2017-11-29T09:25:57Z</time>
      </trkpt>
      <trkpt lat="48.4267" lon="2.48193">
        <ele>114.558</ele>
        <time>2017-11-29T09:26:09Z</time>
      </trkpt>
      <trkpt lat="48.42663" lon="2.48224">
        <ele>114.573</ele>
        <time>2017-11-29T09:26:24Z</time>
      </trkpt>
      <trkpt lat="48.42659" lon="2.48244">
        <ele>114.601</ele>
        <time>2017-11-29T09:26:35Z</time>
      </trkpt>
      <trkpt lat="48.42651" lon="2.48277">
        <ele>114.674</ele>
        <time>2017-11-29T09:26:52Z</time>
      </trkpt>
      <trkpt lat="48.42648" lon="2.48303">
        <ele>114.757</ele>
        <time>2017-11-29T09:27:10Z</time>
      </trkpt>
      <trkpt lat="48.42644" lon="2.4833">
        <ele>114.775</ele>
        <time>2017-11-29T09:27:21Z</time>
      </trkpt>
      <trkpt lat="48.42641" lon="2.48345">
        <ele>114.777</ele>
        <time>2017-11-29T09:27:28Z</time>
      </trkpt>
      <trkpt lat="48.42638" lon="2.4837">
        <ele>114.778</ele>
        <time>2017-11-29T09:27:40Z</time>
      </trkpt>
      <trkpt lat="48.42638" lon="2.48378">
        <ele>114.778</ele>
        <time>2017-11-29T09:27:47Z</time>
      </trkpt>
      <trkpt lat="48.42634" lon="2.48395">
        <ele>114.783</ele>
        <time>2017-11-29T09:27:57Z</time>
      </trkpt>
      <trkpt lat="48.42631" lon="2.48432">
        <ele>114.8</ele>
        <time>2017-11-29T09:28:12Z</time>
      </trkpt>
      <trkpt lat="48.42632" lon="2.48449">
        <ele>114.804</ele>
        <time>2017-11-29T09:28:22Z</time>
      </trkpt>
      <trkpt lat="48.42629" lon="2.48471">
        <ele>114.793</ele>
        <time>2017-11-29T09:28:39Z</time>
      </trkpt>
      <trkpt lat="48.42627" lon="2.48475">
        <ele>114.788</ele>
        <time>2017-11-29T09:28:43Z</time>
      </trkpt>
      <trkpt lat="48.42627" lon="2.48475">
        <ele>74</ele>
        <time>2017-11-29T09:28:50Z</time>
      </trkpt>
      <trkpt lat="48.42627" lon="2.48475">
        <ele>74</ele>
        <time>2017-11-29T09:29:11Z</time>
      </trkpt>
      <trkpt lat="48.42621" lon="2.48508">
        <ele>114.733</ele>
        <time>2017-11-29T09:29:11Z</time>
      </trkpt>
      <trkpt lat="48.42614" lon="2.4853">
        <ele>114.677</ele>
        <time>2017-11-29T09:29:24Z</time>
      </trkpt>
      <trkpt lat="48.42605" lon="2.48555">
        <ele>114.629</ele>
        <time>2017-11-29T09:29:32Z</time>
      </trkpt>
      <trkpt lat="48.42595" lon="2.48574">
        <ele>114.57</ele>
        <time>2017-11-29T09:29:43Z</time>
      </trkpt>
      <trkpt lat="48.42586" lon="2.48591">
        <ele>114.572</ele>
        <time>2017-11-29T09:30:00Z</time>
      </trkpt>
      <trkpt lat="48.42595" lon="2.48611">
        <ele>114.593</ele>
        <time>2017-11-29T09:30:14Z</time>
      </trkpt>
      <trkpt lat="48.42594" lon="2.48645">
        <ele>114.623</ele>
        <time>2017-11-29T09:30:29Z</time>
      </trkpt>
      <trkpt lat="48.42592" lon="2.48659">
        <ele>114.651</ele>
        <time>2017-11-29T09:30:36Z</time>
      </trkpt>
      <trkpt lat="48.42589" lon="2.48692">
        <ele>114.714</ele>
        <time>2017-11-29T09:30:54Z</time>
      </trkpt>
      <trkpt lat="48.42586" lon="2.48736">
        <ele>114.783</ele>
        <time>2017-11-29T09:31:13Z</time>
      </trkpt>
      <trkpt lat="48.42585" lon="2.48756">
        <ele>114.822</ele>
        <time>2017-11-29T09:31:25Z</time>
      </trkpt>
      <trkpt lat="48.42589" lon="2.48781">
        <ele>114.845</ele>
        <time>2017-11-29T09:31:40Z</time>
      </trkpt>
      <trkpt lat="48.42583" lon="2.48816">
        <ele>114.857</ele>
        <time>2017-11-29T09:31:53Z</time>
      </trkpt>
      <trkpt lat="48.42585" lon="2.4883">
        <ele>114.871</ele>
        <time>2017-11-29T09:31:59Z</time>
      </trkpt>
      <trkpt lat="48.42585" lon="2.48842">
        <ele>114.887</ele>
        <time>2017-11-29T09:32:05Z</time>
      </trkpt>
      <trkpt lat="48.42583" lon="2.48862">
        <ele>114.917</ele>
        <time>2017-11-29T09:32:18Z</time>
      </trkpt>
      <trkpt lat="48.42583" lon="2.48874">
        <ele>114.926</ele>
        <time>2017-11-29T09:32:25Z</time>
      </trkpt>
      <trkpt lat="48.42585" lon="2.48906">
        <ele>114.936</ele>
        <time>2017-11-29T09:32:38Z</time>
      </trkpt>
      <trkpt lat="48.42585" lon="2.48911">
        <ele>114.94</ele>
        <time>2017-11-29T09:32:41Z</time>
      </trkpt>
      <trkpt lat="48.42585" lon="2.48911">
        <ele>74</ele>
        <time>2017-11-29T09:32:48Z</time>
      </trkpt>
      <trkpt lat="48.42585" lon="2.48911">
        <ele>74</ele>
        <time>2017-11-29T09:32:52Z</time>
      </trkpt>
      <trkpt lat="48.42585" lon="2.48929">
        <ele>114.949</ele>
        <time>2017-11-29T09:32:52Z</time>
      </trkpt>
      <trkpt lat="48.42583" lon="2.4895">
        <ele>114.959</ele>
        <time>2017-11-29T09:32:59Z</time>
      </trkpt>
      <trkpt lat="48.4258" lon="2.4897">
        <ele>115.005</ele>
        <time>2017-11-29T09:33:08Z</time>
      </trkpt>
      <trkpt lat="48.42579" lon="2.48994">
        <ele>115.071</ele>
        <time>2017-11-29T09:33:20Z</time>
      </trkpt>
      <trkpt lat="48.42576" lon="2.4903">
        <ele>115.196</ele>
        <time>2017-11-29T09:33:36Z</time>
      </trkpt>
      <trkpt lat="48.42573" lon="2.49051">
        <ele>115.297</ele>
        <time>2017-11-29T09:33:48Z</time>
      </trkpt>
      <trkpt lat="48.42571" lon="2.49079">
        <ele>115.412</ele>
        <time>2017-11-29T09:34:04Z</time>
      </trkpt>
      <trkpt lat="48.42569" lon="2.49103">
        <ele>115.498</ele>
        <time>2017-11-29T09:34:15Z</time>
      </trkpt>
      <trkpt lat="48.42569" lon="2.49125">
        <ele>115.531</ele>
        <time>2017-11-29T09:34:30Z</time>
      </trkpt>
      <trkpt lat="48.42562" lon="2.4917">
        <ele>115.515</ele>
        <time>2017-11-29T09:34:49Z</time>
      </trkpt>
      <trkpt lat="48.42557" lon="2.49188">
        <ele>115.537</ele>
        <time>2017-11-29T09:35:03Z</time>
      </trkpt>
      <trkpt lat="48.42556" lon="2.49229">
        <ele>115.613</ele>
        <time>2017-11-29T09:35:35Z</time>
      </trkpt>
      <trkpt lat="48.42555" lon="2.49241">
        <ele>115.651</ele>
        <time>2017-11-29T09:35:41Z</time>
      </trkpt>
      <trkpt lat="48.42549" lon="2.49263">
        <ele>115.823</ele>
        <time>2017-11-29T09:35:58Z</time>
      </trkpt>
      <trkpt lat="48.42546" lon="2.49286">
        <ele>115.956</ele>
        <time>2017-11-29T09:36:06Z</time>
      </trkpt>
      <trkpt lat="48.42539" lon="2.49325">
        <ele>116.352</ele>
        <time>2017-11-29T09:36:32Z</time>
      </trkpt>
      <trkpt lat="48.42536" lon="2.49339">
        <ele>116.545</ele>
        <time>2017-11-29T09:36:42Z</time>
      </trkpt>
      <trkpt lat="48.42533" lon="2.49368">
        <ele>116.677</ele>
        <time>2017-11-29T09:36:51Z</time>
      </trkpt>
      <trkpt lat="48.42533" lon="2.49368">
        <ele>73</ele>
        <time>2017-11-29T09:36:58Z</time>
      </trkpt>
      <trkpt lat="48.42533" lon="2.49368">
        <ele>73</ele>
        <time>2017-11-29T09:37:02Z</time>
      </trkpt>
      <trkpt lat="48.42529" lon="2.49383">
        <ele>116.862</ele>
        <time>2017-11-29T09:37:02Z</time>
      </trkpt>
      <trkpt lat="48.42526" lon="2.49396">
        <ele>117.064</ele>
        <time>2017-11-29T09:37:14Z</time>
      </trkpt>
      <trkpt lat="48.42517" lon="2.49433">
        <ele>117.354</ele>
        <time>2017-11-29T09:37:32Z</time>
      </trkpt>
      <trkpt lat="48.42517" lon="2.49433">
        <ele>117.354</ele>
        <time>2017-11-29T09:37:38Z</time>
      </trkpt>
      <trkpt lat="48.42517" lon="2.49433">
        <ele>73</ele>
        <time>2017-11-29T09:37:38Z</time>
      </trkpt>
      <trkpt lat="48.42517" lon="2.49433">
        <ele>73</ele>
        <time>2017-11-29T09:37:45Z</time>
      </trkpt>
      <trkpt lat="48.4251" lon="2.49468">
        <ele>117.435</ele>
        <time>2017-11-29T09:37:45Z</time>
      </trkpt>
      <trkpt lat="48.42505" lon="2.49495">
        <ele>117.612</ele>
        <time>2017-11-29T09:37:59Z</time>
      </trkpt>
      <trkpt lat="48.425" lon="2.49519">
        <ele>117.818</ele>
        <time>2017-11-29T09:38:16Z</time>
      </trkpt>
      <trkpt lat="48.42499" lon="2.49534">
        <ele>117.907</ele>
        <time>2017-11-29T09:38:23Z</time>
      </trkpt>
      <trkpt lat="48.42492" lon="2.49561">
        <ele>118.104</ele>
        <time>2017-11-29T09:38:38Z</time>
      </trkpt>
      <trkpt lat="48.42489" lon="2.49582">
        <ele>118.253</ele>
        <time>2017-11-29T09:38:48Z</time>
      </trkpt>
      <trkpt lat="48.42485" lon="2.49606">
        <ele>118.442</ele>
        <time>2017-11-29T09:39:00Z</time>
      </trkpt>
      <trkpt lat="48.42484" lon="2.49625">
        <ele>118.616</ele>
        <time>2017-11-29T09:39:09Z</time>
      </trkpt>
      <trkpt lat="48.42483" lon="2.49635">
        <ele>118.715</ele>
        <time>2017-11-29T09:39:15Z</time>
      </trkpt>
      <trkpt lat="48.42483" lon="2.49635">
        <ele>74</ele>
        <time>2017-11-29T09:39:20Z</time>
      </trkpt>
      <trkpt lat="48.42483" lon="2.49635">
        <ele>74</ele>
        <time>2017-11-29T09:39:24Z</time>
      </trkpt>
      <trkpt lat="48.4248" lon="2.49647">
        <ele>118.829</ele>
        <time>2017-11-29T09:39:24Z</time>
      </trkpt>
      <trkpt lat="48.42477" lon="2.49674">
        <ele>119.022</ele>
        <time>2017-11-29T09:39:39Z</time>
      </trkpt>
      <trkpt lat="48.42473" lon="2.49697">
        <ele>119.198</ele>
        <time>2017-11-29T09:39:50Z</time>
      </trkpt>
      <trkpt lat="48.4247" lon="2.49706">
        <ele>119.236</ele>
        <time>2017-11-29T09:39:52Z</time>
      </trkpt>
      <trkpt lat="48.4247" lon="2.49706">
        <ele>75.1</ele>
        <time>2017-11-29T09:39:58Z</time>
      </trkpt>
      <trkpt lat="48.4247" lon="2.49706">
        <ele>75.1</ele>
        <time>2017-11-29T09:40:01Z</time>
      </trkpt>
      <trkpt lat="48.42469" lon="2.49719">
        <ele>119.409</ele>
        <time>2017-11-29T09:40:01Z</time>
      </trkpt>
      <trkpt lat="48.42462" lon="2.4975">
        <ele>119.618</ele>
        <time>2017-11-29T09:40:15Z</time>
      </trkpt>
      <trkpt lat="48.42459" lon="2.49766">
        <ele>119.791</ele>
        <time>2017-11-29T09:40:24Z</time>
      </trkpt>
      <trkpt lat="48.42452" lon="2.49803">
        <ele>120.025</ele>
        <time>2017-11-29T09:40:44Z</time>
      </trkpt>
      <trkpt lat="48.42449" lon="2.49819">
        <ele>120.126</ele>
        <time>2017-11-29T09:40:53Z</time>
      </trkpt>
      <trkpt lat="48.42445" lon="2.49833">
        <ele>120.212</ele>
        <time>2017-11-29T09:41:00Z</time>
      </trkpt>
      <trkpt lat="48.4244" lon="2.49859">
        <ele>120.419</ele>
        <time>2017-11-29T09:41:16Z</time>
      </trkpt>
      <trkpt lat="48.42429" lon="2.49883">
        <ele>120.601</ele>
        <time>2017-11-29T09:41:30Z</time>
      </trkpt>
      <trkpt lat="48.42419" lon="2.49911">
        <ele>120.778</ele>
        <time>2017-11-29T09:41:45Z</time>
      </trkpt>
      <trkpt lat="48.42419" lon="2.49911">
        <ele>120.778</ele>
        <time>2017-11-29T09:41:51Z</time>
      </trkpt>
      <trkpt lat="48.42419" lon="2.49911">
        <ele>77.9</ele>
        <time>2017-11-29T09:41:51Z</time>
      </trkpt>
      <trkpt lat="48.42419" lon="2.49911">
        <ele>77.9</ele>
        <time>2017-11-29T09:41:58Z</time>
      </trkpt>
      <trkpt lat="48.42414" lon="2.49929">
        <ele>120.914</ele>
        <time>2017-11-29T09:41:58Z</time>
      </trkpt>
      <trkpt lat="48.42409" lon="2.49939">
        <ele>120.99</ele>
        <time>2017-11-29T09:42:04Z</time>
      </trkpt>
      <trkpt lat="48.42404" lon="2.49966">
        <ele>121.174</ele>
        <time>2017-11-29T09:42:18Z</time>
      </trkpt>
      <trkpt lat="48.42406" lon="2.49994">
        <ele>121.374</ele>
        <time>2017-11-29T09:42:34Z</time>
      </trkpt>
      <trkpt lat="48.424" lon="2.50022">
        <ele>121.545</ele>
        <time>2017-11-29T09:42:49Z</time>
      </trkpt>
      <trkpt lat="48.42397" lon="2.50046">
        <ele>121.682</ele>
        <time>2017-11-29T09:43:01Z</time>
      </trkpt>
      <trkpt lat="48.42396" lon="2.50054">
        <ele>121.728</ele>
        <time>2017-11-29T09:43:04Z</time>
      </trkpt>
      <trkpt lat="48.42396" lon="2.50054">
        <ele>79.9</ele>
        <time>2017-11-29T09:43:12Z</time>
      </trkpt>
      <trkpt lat="48.42396" lon="2.50054">
        <ele>79.9</ele>
        <time>2017-11-29T09:43:20Z</time>
      </trkpt>
      <trkpt lat="48.42388" lon="2.5006">
        <ele>121.871</ele>
        <time>2017-11-29T09:43:20Z</time>
      </trkpt>
      <trkpt lat="48.42376" lon="2.50097">
        <ele>122.278</ele>
        <time>2017-11-29T09:43:54Z</time>
      </trkpt>
      <trkpt lat="48.42372" lon="2.50114">
        <ele>122.44</ele>
        <time>2017-11-29T09:44:02Z</time>
      </trkpt>
      <trkpt lat="48.42367" lon="2.50124">
        <ele>122.549</ele>
        <time>2017-11-29T09:44:08Z</time>
      </trkpt>
      <trkpt lat="48.42367" lon="2.50124">
        <ele>80.8</ele>
        <time>2017-11-29T09:44:13Z</time>
      </trkpt>
      <trkpt lat="48.42367" lon="2.50124">
        <ele>80.8</ele>
        <time>2017-11-29T09:44:18Z</time>
      </trkpt>
      <trkpt lat="48.42362" lon="2.50136">
        <ele>122.709</ele>
        <time>2017-11-29T09:44:18Z</time>
      </trkpt>
      <trkpt lat="48.42352" lon="2.50181">
        <ele>122.945</ele>
        <time>2017-11-29T09:44:35Z</time>
      </trkpt>
      <trkpt lat="48.42344" lon="2.50203">
        <ele>123.154</ele>
        <time>2017-11-29T09:44:49Z</time>
      </trkpt>
      <trkpt lat="48.42335" lon="2.50228">
        <ele>123.334</ele>
        <time>2017-11-29T09:45:03Z</time>
      </trkpt>
      <trkpt lat="48.42326" lon="2.5025">
        <ele>123.491</ele>
        <time>2017-11-29T09:45:16Z</time>
      </trkpt>
      <trkpt lat="48.42326" lon="2.5025">
        <ele>123.491</ele>
        <time>2017-11-29T09:45:24Z</time>
      </trkpt>
      <trkpt lat="48.42326" lon="2.5025">
        <ele>83.5</ele>
        <time>2017-11-29T09:45:24Z</time>
      </trkpt>
      <trkpt lat="48.42326" lon="2.5025">
        <ele>83.5</ele>
        <time>2017-11-29T09:45:35Z</time>
      </trkpt>
      <trkpt lat="48.42322" lon="2.50276">
        <ele>123.725</ele>
        <time>2017-11-29T09:45:35Z</time>
      </trkpt>
      <trkpt lat="48.42315" lon="2.50299">
        <ele>123.866</ele>
        <time>2017-11-29T09:45:46Z</time>
      </trkpt>
      <trkpt lat="48.42312" lon="2.50315">
        <ele>124.006</ele>
        <time>2017-11-29T09:45:58Z</time>
      </trkpt>
      <trkpt lat="48.42309" lon="2.50337">
        <ele>124.136</ele>
        <time>2017-11-29T09:46:11Z</time>
      </trkpt>
      <trkpt lat="48.42306" lon="2.50362">
        <ele>124.258</ele>
        <time>2017-11-29T09:46:22Z</time>
      </trkpt>
      <trkpt lat="48.42303" lon="2.50381">
        <ele>124.415</ele>
        <time>2017-11-29T09:46:36Z</time>
      </trkpt>
      <trkpt lat="48.42303" lon="2.50381">
        <ele>84.3</ele>
        <time>2017-11-29T09:46:43Z</time>
      </trkpt>
      <trkpt lat="48.42303" lon="2.50381">
        <ele>84.3</ele>
        <time>2017-11-29T09:47:05Z</time>
      </trkpt>
      <trkpt lat="48.42304" lon="2.50412">
        <ele>124.684</ele>
        <time>2017-11-29T09:47:05Z</time>
      </trkpt>
      <trkpt lat="48.42304" lon="2.50412">
        <ele>124.684</ele>
        <time>2017-11-29T09:47:10Z</time>
      </trkpt>
      <trkpt lat="48.42304" lon="2.50412">
        <ele>83.3</ele>
        <time>2017-11-29T09:47:10Z</time>
      </trkpt>
      <trkpt lat="48.42304" lon="2.50412">
        <ele>83.3</ele>
        <time>2017-11-29T09:47:14Z</time>
      </trkpt>
      <trkpt lat="48.42302" lon="2.50431">
        <ele>124.777</ele>
        <time>2017-11-29T09:47:14Z</time>
      </trkpt>
      <trkpt lat="48.42304" lon="2.50448">
        <ele>124.844</ele>
        <time>2017-11-29T09:47:22Z</time>
      </trkpt>
      <trkpt lat="48.42295" lon="2.50474">
        <ele>124.945</ele>
        <time>2017-11-29T09:47:34Z</time>
      </trkpt>
      <trkpt lat="48.42292" lon="2.50499">
        <ele>125.005</ele>
        <time>2017-11-29T09:47:42Z</time>
      </trkpt>
      <trkpt lat="48.42282" lon="2.5052">
        <ele>125.08</ele>
        <time>2017-11-29T09:47:54Z</time>
      </trkpt>
      <trkpt lat="48.42276" lon="2.50555">
        <ele>125.132</ele>
        <time>2017-11-29T09:48:02Z</time>
      </trkpt>
      <trkpt lat="48.42272" lon="2.50581">
        <ele>125.222</ele>
        <time>2017-11-29T09:48:13Z</time>
      </trkpt>
      <trkpt lat="48.42272" lon="2.50581">
        <ele>125.222</ele>
        <time>2017-11-29T09:48:21Z</time>
      </trkpt>
      <trkpt lat="48.42272" lon="2.50581">
        <ele>85.5</ele>
        <time>2017-11-29T09:48:21Z</time>
      </trkpt>
      <trkpt lat="48.42272" lon="2.50581">
        <ele>85.5</ele>
        <time>2017-11-29T09:48:30Z</time>
      </trkpt>
      <trkpt lat="48.42279" lon="2.5056">
        <ele>125.289</ele>
        <time>2017-11-29T09:48:30Z</time>
      </trkpt>
      <trkpt lat="48.42296" lon="2.50537">
        <ele>125.295</ele>
        <time>2017-11-29T09:48:44Z</time>
      </trkpt>
      <trkpt lat="48.42305" lon="2.50526">
        <ele>125.277</ele>
        <time>2017-11-29T09:48:55Z</time>
      </trkpt>
      <trkpt lat="48.42318" lon="2.50523">
        <ele>125.257</ele>
        <time>2017-11-29T09:49:04Z</time>
      </trkpt>
      <trkpt lat="48.42333" lon="2.50539">
        <ele>125.217</ele>
        <time>2017-11-29T09:49:19Z</time>
      </trkpt>
      <trkpt lat="48.42334" lon="2.50545">
        <ele>125.212</ele>
        <time>2017-11-29T09:49:26Z</time>
      </trkpt>
      <trkpt lat="48.42334" lon="2.50545">
        <ele>82.3</ele>
        <time>2017-11-29T09:49:33Z</time>
      </trkpt>
      <trkpt lat="48.42334" lon="2.50545">
        <ele>82.3</ele>
        <time>2017-11-29T09:49:39Z</time>
      </trkpt>
      <trkpt lat="48.42341" lon="2.50552">
        <ele>125.22</ele>
        <time>2017-11-29T09:49:39Z</time>
      </trkpt>
      <trkpt lat="48.4235" lon="2.50559">
        <ele>125.234</ele>
        <time>2017-11-29T09:49:48Z</time>
      </trkpt>
      <trkpt lat="48.4235" lon="2.50559">
        <ele>80.8</ele>
        <time>2017-11-29T09:49:56Z</time>
      </trkpt>
      <trkpt lat="48.4235" lon="2.50559">
        <ele>80.8</ele>
        <time>2017-11-29T09:50:02Z</time>
      </trkpt>
      <trkpt lat="48.42356" lon="2.50562">
        <ele>125.244</ele>
        <time>2017-11-29T09:50:02Z</time>
      </trkpt>
      <trkpt lat="48.4237" lon="2.50577">
        <ele>125.234</ele>
        <time>2017-11-29T09:50:16Z</time>
      </trkpt>
      <trkpt lat="48.42389" lon="2.50584">
        <ele>125.202</ele>
        <time>2017-11-29T09:50:33Z</time>
      </trkpt>
      <trkpt lat="48.42412" lon="2.50586">
        <ele>125.109</ele>
        <time>2017-11-29T09:50:49Z</time>
      </trkpt>
      <trkpt lat="48.42426" lon="2.5058">
        <ele>125.005</ele>
        <time>2017-11-29T09:50:59Z</time>
      </trkpt>
      <trkpt lat="48.42441" lon="2.50572">
        <ele>124.884</ele>
        <time>2017-11-29T09:51:11Z</time>
      </trkpt>
      <trkpt lat="48.42453" lon="2.50556">
        <ele>124.785</ele>
        <time>2017-11-29T09:51:24Z</time>
      </trkpt>
      <trkpt lat="48.42481" lon="2.50565">
        <ele>124.607</ele>
        <time>2017-11-29T09:51:40Z</time>
      </trkpt>
      <trkpt lat="48.42492" lon="2.50591">
        <ele>124.462</ele>
        <time>2017-11-29T09:51:53Z</time>
      </trkpt>
      <trkpt lat="48.425" lon="2.506">
        <ele>124.378</ele>
        <time>2017-11-29T09:52:02Z</time>
      </trkpt>
      <trkpt lat="48.4251" lon="2.50629">
        <ele>124.24</ele>
        <time>2017-11-29T09:52:19Z</time>
      </trkpt>
      <trkpt lat="48.42513" lon="2.50643">
        <ele>124.203</ele>
        <time>2017-11-29T09:52:27Z</time>
      </trkpt>
      <trkpt lat="48.42519" lon="2.50671">
        <ele>124.202</ele>
        <time>2017-11-29T09:52:42Z</time>
      </trkpt>
      <trkpt lat="48.42526" lon="2.50701">
        <ele>124.311</ele>
        <time>2017-11-29T09:52:59Z</time>
      </trkpt>
      <trkpt lat="48.42531" lon="2.50739">
        <ele>124.434</ele>
        <time>2017-11-29T09:53:16Z</time>
      </trkpt>
      <trkpt lat="48.42541" lon="2.50754">
        <ele>124.507</ele>
        <time>2017-11-29T09:53:26Z</time>
      </trkpt>
      <trkpt lat="48.42545" lon="2.50763">
        <ele>124.542</ele>
        <time>2017-11-29T09:53:32Z</time>
      </trkpt>
      <trkpt lat="48.42558" lon="2.50784">
        <ele>124.613</ele>
        <time>2017-11-29T09:53:45Z</time>
      </trkpt>
      <trkpt lat="48.42565" lon="2.50796">
        <ele>124.662</ele>
        <time>2017-11-29T09:53:58Z</time>
      </trkpt>
      <trkpt lat="48.42565" lon="2.50796">
        <ele>71</ele>
        <time>2017-11-29T09:54:06Z</time>
      </trkpt>
      <trkpt lat="48.42565" lon="2.50796">
        <ele>71</ele>
        <time>2017-11-29T09:54:12Z</time>
      </trkpt>
      <trkpt lat="48.42571" lon="2.50805">
        <ele>124.641</ele>
        <time>2017-11-29T09:54:12Z</time>
      </trkpt>
      <trkpt lat="48.42591" lon="2.50838">
        <ele>124.526</ele>
        <time>2017-11-29T09:54:31Z</time>
      </trkpt>
      <trkpt lat="48.42594" lon="2.50865">
        <ele>124.466</ele>
        <time>2017-11-29T09:54:50Z</time>
      </trkpt>
      <trkpt lat="48.42593" lon="2.50876">
        <ele>124.448</ele>
        <time>2017-11-29T09:54:55Z</time>
      </trkpt>
      <trkpt lat="48.42593" lon="2.50895">
        <ele>124.427</ele>
        <time>2017-11-29T09:55:06Z</time>
      </trkpt>
      <trkpt lat="48.42585" lon="2.50921">
        <ele>124.419</ele>
        <time>2017-11-29T09:55:13Z</time>
      </trkpt>
      <trkpt lat="48.42585" lon="2.50936">
        <ele>124.415</ele>
        <time>2017-11-29T09:55:18Z</time>
      </trkpt>
      <trkpt lat="48.42585" lon="2.50967">
        <ele>124.414</ele>
        <time>2017-11-29T09:55:32Z</time>
      </trkpt>
      <trkpt lat="48.42588" lon="2.51001">
        <ele>124.405</ele>
        <time>2017-11-29T09:55:49Z</time>
      </trkpt>
      <trkpt lat="48.42597" lon="2.51024">
        <ele>124.399</ele>
        <time>2017-11-29T09:56:05Z</time>
      </trkpt>
      <trkpt lat="48.42609" lon="2.51061">
        <ele>124.4</ele>
        <time>2017-11-29T09:56:24Z</time>
      </trkpt>
      <trkpt lat="48.42614" lon="2.51091">
        <ele>124.416</ele>
        <time>2017-11-29T09:56:38Z</time>
      </trkpt>
      <trkpt lat="48.4262" lon="2.5112">
        <ele>124.467</ele>
        <time>2017-11-29T09:56:55Z</time>
      </trkpt>
      <trkpt lat="48.42643" lon="2.51132">
        <ele>124.473</ele>
        <time>2017-11-29T09:57:14Z</time>
      </trkpt>
      <trkpt lat="48.42661" lon="2.51141">
        <ele>124.421</ele>
        <time>2017-11-29T09:57:31Z</time>
      </trkpt>
      <trkpt lat="48.4267" lon="2.51158">
        <ele>124.391</ele>
        <time>2017-11-29T09:57:40Z</time>
      </trkpt>
      <trkpt lat="48.42678" lon="2.51173">
        <ele>124.362</ele>
        <time>2017-11-29T09:57:49Z</time>
      </trkpt>
      <trkpt lat="48.42693" lon="2.51184">
        <ele>124.32</ele>
        <time>2017-11-29T09:58:01Z</time>
      </trkpt>
      <trkpt lat="48.42702" lon="2.51182">
        <ele>124.295</ele>
        <time>2017-11-29T09:58:09Z</time>
      </trkpt>
      <trkpt lat="48.42723" lon="2.51182">
        <ele>124.202</ele>
        <time>2017-11-29T09:58:27Z</time>
      </trkpt>
      <trkpt lat="48.42741" lon="2.51186">
        <ele>124.135</ele>
        <time>2017-11-29T09:58:37Z</time>
      </trkpt>
      <trkpt lat="48.42756" lon="2.51189">
        <ele>124.039</ele>
        <time>2017-11-29T09:58:49Z</time>
      </trkpt>
      <trkpt lat="48.42781" lon="2.5119">
        <ele>123.79</ele>
        <time>2017-11-29T09:59:08Z</time>
      </trkpt>
      <trkpt lat="48.42804" lon="2.51193">
        <ele>123.533</ele>
        <time>2017-11-29T09:59:26Z</time>
      </trkpt>
      <trkpt lat="48.42826" lon="2.51191">
        <ele>123.404</ele>
        <time>2017-11-29T09:59:40Z</time>
      </trkpt>
      <trkpt lat="48.42841" lon="2.51196">
        <ele>123.243</ele>
        <time>2017-11-29T09:59:54Z</time>
      </trkpt>
      <trkpt lat="48.42842" lon="2.51223">
        <ele>123.129</ele>
        <time>2017-11-29T10:00:10Z</time>
      </trkpt>
      <trkpt lat="48.42836" lon="2.51235">
        <ele>123.088</ele>
        <time>2017-11-29T10:00:18Z</time>
      </trkpt>
      <trkpt lat="48.42836" lon="2.51235">
        <ele>71</ele>
        <time>2017-11-29T10:00:26Z</time>
      </trkpt>
      <trkpt lat="48.42836" lon="2.51235">
        <ele>71</ele>
        <time>2017-11-29T10:14:33Z</time>
      </trkpt>
      <trkpt lat="48.42836" lon="2.51235">
        <ele>71</ele>
        <time>2017-11-29T10:14:35Z</time>
      </trkpt>
      <trkpt lat="48.42836" lon="2.51235">
        <ele>71</ele>
        <time>2017-11-29T10:14:36Z</time>
      </trkpt>
      <trkpt lat="48.42827" lon="2.5127">
        <ele>122.6</ele>
        <time>2017-11-29T10:14:37Z</time>
      </trkpt>
      <trkpt lat="48.4282" lon="2.51305">
        <ele>122.452</ele>
        <time>2017-11-29T10:15:02Z</time>
      </trkpt>
      <trkpt lat="48.42814" lon="2.51329">
        <ele>122.399</ele>
        <time>2017-11-29T10:15:12Z</time>
      </trkpt>
      <trkpt lat="48.42811" lon="2.51349">
        <ele>122.337</ele>
        <time>2017-11-29T10:15:22Z</time>
      </trkpt>
      <trkpt lat="48.4281" lon="2.51376">
        <ele>122.273</ele>
        <time>2017-11-29T10:15:32Z</time>
      </trkpt>
      <trkpt lat="48.42807" lon="2.51395">
        <ele>122.225</ele>
        <time>2017-11-29T10:15:44Z</time>
      </trkpt>
      <trkpt lat="48.42802" lon="2.51423">
        <ele>122.182</ele>
        <time>2017-11-29T10:15:57Z</time>
      </trkpt>
      <trkpt lat="48.42799" lon="2.51454">
        <ele>122.113</ele>
        <time>2017-11-29T10:16:14Z</time>
      </trkpt>
      <trkpt lat="48.42795" lon="2.51487">
        <ele>122.037</ele>
        <time>2017-11-29T10:16:30Z</time>
      </trkpt>
      <trkpt lat="48.42792" lon="2.51518">
        <ele>121.967</ele>
        <time>2017-11-29T10:16:47Z</time>
      </trkpt>
      <trkpt lat="48.42788" lon="2.51539">
        <ele>121.908</ele>
        <time>2017-11-29T10:16:58Z</time>
      </trkpt>
      <trkpt lat="48.42784" lon="2.51572">
        <ele>121.779</ele>
        <time>2017-11-29T10:17:15Z</time>
      </trkpt>
      <trkpt lat="48.42785" lon="2.51605">
        <ele>121.644</ele>
        <time>2017-11-29T10:17:30Z</time>
      </trkpt>
      <trkpt lat="48.42783" lon="2.51626">
        <ele>121.574</ele>
        <time>2017-11-29T10:17:41Z</time>
      </trkpt>
      <trkpt lat="48.42776" lon="2.51659">
        <ele>121.494</ele>
        <time>2017-11-29T10:17:56Z</time>
      </trkpt>
      <trkpt lat="48.42769" lon="2.51663">
        <ele>121.448</ele>
        <time>2017-11-29T10:18:08Z</time>
      </trkpt>
      <trkpt lat="48.42769" lon="2.51663">
        <ele>70</ele>
        <time>2017-11-29T10:18:16Z</time>
      </trkpt>
      <trkpt lat="48.42769" lon="2.51663">
        <ele>70</ele>
        <time>2017-11-29T10:18:21Z</time>
      </trkpt>
      <trkpt lat="48.42762" lon="2.51651">
        <ele>121.41</ele>
        <time>2017-11-29T10:18:21Z</time>
      </trkpt>
      <trkpt lat="48.42755" lon="2.51628">
        <ele>121.387</ele>
        <time>2017-11-29T10:18:33Z</time>
      </trkpt>
      <trkpt lat="48.42738" lon="2.51643">
        <ele>121.344</ele>
        <time>2017-11-29T10:18:48Z</time>
      </trkpt>
      <trkpt lat="48.42725" lon="2.51651">
        <ele>121.294</ele>
        <time>2017-11-29T10:18:59Z</time>
      </trkpt>
      <trkpt lat="48.42707" lon="2.51667">
        <ele>121.232</ele>
        <time>2017-11-29T10:19:13Z</time>
      </trkpt>
      <trkpt lat="48.42694" lon="2.51684">
        <ele>121.205</ele>
        <time>2017-11-29T10:19:26Z</time>
      </trkpt>
      <trkpt lat="48.42683" lon="2.51694">
        <ele>121.191</ele>
        <time>2017-11-29T10:19:37Z</time>
      </trkpt>
      <trkpt lat="48.42663" lon="2.51698">
        <ele>121.175</ele>
        <time>2017-11-29T10:19:51Z</time>
      </trkpt>
      <trkpt lat="48.42646" lon="2.51688">
        <ele>121.192</ele>
        <time>2017-11-29T10:20:05Z</time>
      </trkpt>
      <trkpt lat="48.42629" lon="2.5168">
        <ele>121.254</ele>
        <time>2017-11-29T10:20:20Z</time>
      </trkpt>
      <trkpt lat="48.42607" lon="2.51676">
        <ele>121.34</ele>
        <time>2017-11-29T10:20:38Z</time>
      </trkpt>
      <trkpt lat="48.4259" lon="2.51665">
        <ele>121.415</ele>
        <time>2017-11-29T10:20:54Z</time>
      </trkpt>
      <trkpt lat="48.42572" lon="2.51646">
        <ele>121.471</ele>
        <time>2017-11-29T10:21:12Z</time>
      </trkpt>
      <trkpt lat="48.42553" lon="2.51622">
        <ele>121.523</ele>
        <time>2017-11-29T10:21:27Z</time>
      </trkpt>
      <trkpt lat="48.42543" lon="2.51606">
        <ele>121.579</ele>
        <time>2017-11-29T10:21:41Z</time>
      </trkpt>
      <trkpt lat="48.42526" lon="2.51585">
        <ele>121.641</ele>
        <time>2017-11-29T10:21:59Z</time>
      </trkpt>
      <trkpt lat="48.42511" lon="2.51565">
        <ele>121.677</ele>
        <time>2017-11-29T10:22:12Z</time>
      </trkpt>
      <trkpt lat="48.42496" lon="2.51555">
        <ele>121.697</ele>
        <time>2017-11-29T10:22:23Z</time>
      </trkpt>
      <trkpt lat="48.42484" lon="2.51551">
        <ele>121.718</ele>
        <time>2017-11-29T10:22:33Z</time>
      </trkpt>
      <trkpt lat="48.42465" lon="2.51539">
        <ele>121.777</ele>
        <time>2017-11-29T10:22:51Z</time>
      </trkpt>
      <trkpt lat="48.42446" lon="2.51526">
        <ele>121.841</ele>
        <time>2017-11-29T10:23:07Z</time>
      </trkpt>
      <trkpt lat="48.42427" lon="2.51517">
        <ele>121.908</ele>
        <time>2017-11-29T10:23:20Z</time>
      </trkpt>
      <trkpt lat="48.42408" lon="2.51514">
        <ele>122.025</ele>
        <time>2017-11-29T10:23:34Z</time>
      </trkpt>
      <trkpt lat="48.424" lon="2.51508">
        <ele>122.092</ele>
        <time>2017-11-29T10:23:42Z</time>
      </trkpt>
      <trkpt lat="48.42387" lon="2.51505">
        <ele>122.175</ele>
        <time>2017-11-29T10:23:52Z</time>
      </trkpt>
      <trkpt lat="48.42371" lon="2.51492">
        <ele>122.286</ele>
        <time>2017-11-29T10:24:05Z</time>
      </trkpt>
      <trkpt lat="48.42353" lon="2.51482">
        <ele>122.429</ele>
        <time>2017-11-29T10:24:19Z</time>
      </trkpt>
      <trkpt lat="48.42343" lon="2.51483">
        <ele>122.513</ele>
        <time>2017-11-29T10:24:27Z</time>
      </trkpt>
      <trkpt lat="48.42329" lon="2.51492">
        <ele>122.642</ele>
        <time>2017-11-29T10:24:41Z</time>
      </trkpt>
      <trkpt lat="48.42322" lon="2.51508">
        <ele>122.722</ele>
        <time>2017-11-29T10:24:54Z</time>
      </trkpt>
      <trkpt lat="48.4231" lon="2.51533">
        <ele>122.795</ele>
        <time>2017-11-29T10:25:10Z</time>
      </trkpt>
      <trkpt lat="48.42305" lon="2.51549">
        <ele>122.842</ele>
        <time>2017-11-29T10:25:20Z</time>
      </trkpt>
      <trkpt lat="48.42296" lon="2.51569">
        <ele>122.909</ele>
        <time>2017-11-29T10:25:32Z</time>
      </trkpt>
      <trkpt lat="48.42288" lon="2.51588">
        <ele>122.982</ele>
        <time>2017-11-29T10:25:41Z</time>
      </trkpt>
      <trkpt lat="48.42285" lon="2.51609">
        <ele>123.068</ele>
        <time>2017-11-29T10:25:52Z</time>
      </trkpt>
      <trkpt lat="48.42276" lon="2.5164">
        <ele>123.234</ele>
        <time>2017-11-29T10:26:10Z</time>
      </trkpt>
      <trkpt lat="48.42258" lon="2.51661">
        <ele>123.416</ele>
        <time>2017-11-29T10:26:31Z</time>
      </trkpt>
      <trkpt lat="48.42249" lon="2.5167">
        <ele>123.508</ele>
        <time>2017-11-29T10:26:41Z</time>
      </trkpt>
      <trkpt lat="48.42249" lon="2.5167">
        <ele>71.1</ele>
        <time>2017-11-29T10:26:48Z</time>
      </trkpt>
      <trkpt lat="48.42249" lon="2.5167">
        <ele>71.1</ele>
        <time>2017-11-29T10:26:54Z</time>
      </trkpt>
      <trkpt lat="48.42242" lon="2.5168">
        <ele>123.626</ele>
        <time>2017-11-29T10:26:54Z</time>
      </trkpt>
      <trkpt lat="48.42235" lon="2.51706">
        <ele>123.792</ele>
        <time>2017-11-29T10:27:09Z</time>
      </trkpt>
      <trkpt lat="48.42229" lon="2.51728">
        <ele>123.942</ele>
        <time>2017-11-29T10:27:25Z</time>
      </trkpt>
      <trkpt lat="48.42221" lon="2.5175">
        <ele>124.017</ele>
        <time>2017-11-29T10:27:37Z</time>
      </trkpt>
      <trkpt lat="48.42218" lon="2.5177">
        <ele>124.055</ele>
        <time>2017-11-29T10:27:48Z</time>
      </trkpt>
      <trkpt lat="48.42216" lon="2.51788">
        <ele>124.101</ele>
        <time>2017-11-29T10:28:00Z</time>
      </trkpt>
      <trkpt lat="48.42215" lon="2.51823">
        <ele>124.098</ele>
        <time>2017-11-29T10:28:17Z</time>
      </trkpt>
      <trkpt lat="48.4221" lon="2.51838">
        <ele>124.094</ele>
        <time>2017-11-29T10:28:23Z</time>
      </trkpt>
      <trkpt lat="48.42203" lon="2.51857">
        <ele>124.074</ele>
        <time>2017-11-29T10:28:37Z</time>
      </trkpt>
      <trkpt lat="48.42195" lon="2.51872">
        <ele>124.045</ele>
        <time>2017-11-29T10:28:49Z</time>
      </trkpt>
      <trkpt lat="48.42185" lon="2.51896">
        <ele>124.02</ele>
        <time>2017-11-29T10:29:02Z</time>
      </trkpt>
      <trkpt lat="48.42178" lon="2.51912">
        <ele>124.01</ele>
        <time>2017-11-29T10:29:10Z</time>
      </trkpt>
      <trkpt lat="48.42174" lon="2.51917">
        <ele>124.006</ele>
        <time>2017-11-29T10:29:15Z</time>
      </trkpt>
      <trkpt lat="48.42174" lon="2.51917">
        <ele>72.7</ele>
        <time>2017-11-29T10:29:20Z</time>
      </trkpt>
      <trkpt lat="48.42174" lon="2.51917">
        <ele>72.7</ele>
        <time>2017-11-29T10:29:25Z</time>
      </trkpt>
      <trkpt lat="48.42166" lon="2.51934">
        <ele>123.986</ele>
        <time>2017-11-29T10:29:25Z</time>
      </trkpt>
      <trkpt lat="48.4216" lon="2.51947">
        <ele>123.94</ele>
        <time>2017-11-29T10:29:38Z</time>
      </trkpt>
      <trkpt lat="48.4216" lon="2.51947">
        <ele>123.94</ele>
        <time>2017-11-29T10:29:45Z</time>
      </trkpt>
      <trkpt lat="48.4216" lon="2.51947">
        <ele>71.9</ele>
        <time>2017-11-29T10:29:45Z</time>
      </trkpt>
      <trkpt lat="48.4216" lon="2.51947">
        <ele>71.9</ele>
        <time>2017-11-29T10:30:32Z</time>
      </trkpt>
      <trkpt lat="48.42179" lon="2.51977">
        <ele>123.675</ele>
        <time>2017-11-29T10:30:32Z</time>
      </trkpt>
      <trkpt lat="48.42195" lon="2.51988">
        <ele>123.471</ele>
        <time>2017-11-29T10:30:48Z</time>
      </trkpt>
      <trkpt lat="48.42207" lon="2.52003">
        <ele>123.364</ele>
        <time>2017-11-29T10:31:00Z</time>
      </trkpt>
      <trkpt lat="48.42217" lon="2.52015">
        <ele>123.287</ele>
        <time>2017-11-29T10:31:12Z</time>
      </trkpt>
      <trkpt lat="48.42239" lon="2.5203">
        <ele>123.237</ele>
        <time>2017-11-29T10:31:23Z</time>
      </trkpt>
      <trkpt lat="48.42247" lon="2.5204">
        <ele>123.225</ele>
        <time>2017-11-29T10:31:34Z</time>
      </trkpt>
      <trkpt lat="48.42265" lon="2.5206">
        <ele>123.334</ele>
        <time>2017-11-29T10:31:50Z</time>
      </trkpt>
      <trkpt lat="48.4228" lon="2.52075">
        <ele>123.566</ele>
        <time>2017-11-29T10:32:07Z</time>
      </trkpt>
      <trkpt lat="48.42284" lon="2.52084">
        <ele>123.629</ele>
        <time>2017-11-29T10:32:12Z</time>
      </trkpt>
      <trkpt lat="48.42284" lon="2.52084">
        <ele>70</ele>
        <time>2017-11-29T10:32:20Z</time>
      </trkpt>
      <trkpt lat="48.42284" lon="2.52084">
        <ele>70</ele>
        <time>2017-11-29T10:32:24Z</time>
      </trkpt>
      <trkpt lat="48.42293" lon="2.52092">
        <ele>123.795</ele>
        <time>2017-11-29T10:32:24Z</time>
      </trkpt>
      <trkpt lat="48.42309" lon="2.52102">
        <ele>123.947</ele>
        <time>2017-11-29T10:32:33Z</time>
      </trkpt>
      <trkpt lat="48.42313" lon="2.52116">
        <ele>124.125</ele>
        <time>2017-11-29T10:32:45Z</time>
      </trkpt>
      <trkpt lat="48.42308" lon="2.52132">
        <ele>124.22</ele>
        <time>2017-11-29T10:32:53Z</time>
      </trkpt>
      <trkpt lat="48.42302" lon="2.52163">
        <ele>124.351</ele>
        <time>2017-11-29T10:33:06Z</time>
      </trkpt>
      <trkpt lat="48.42292" lon="2.52188">
        <ele>124.566</ele>
        <time>2017-11-29T10:33:22Z</time>
      </trkpt>
      <trkpt lat="48.42285" lon="2.52212">
        <ele>124.742</ele>
        <time>2017-11-29T10:33:36Z</time>
      </trkpt>
      <trkpt lat="48.4228" lon="2.52233">
        <ele>124.906</ele>
        <time>2017-11-29T10:33:50Z</time>
      </trkpt>
      <trkpt lat="48.42276" lon="2.52264">
        <ele>125.036</ele>
        <time>2017-11-29T10:34:06Z</time>
      </trkpt>
      <trkpt lat="48.42266" lon="2.52284">
        <ele>125.083</ele>
        <time>2017-11-29T10:34:18Z</time>
      </trkpt>
      <trkpt lat="48.42262" lon="2.52312">
        <ele>125.119</ele>
        <time>2017-11-29T10:34:30Z</time>
      </trkpt>
      <trkpt lat="48.42257" lon="2.52327">
        <ele>125.137</ele>
        <time>2017-11-29T10:34:41Z</time>
      </trkpt>
      <trkpt lat="48.42246" lon="2.52359">
        <ele>125.143</ele>
        <time>2017-11-29T10:35:01Z</time>
      </trkpt>
      <trkpt lat="48.42237" lon="2.5239">
        <ele>125.152</ele>
        <time>2017-11-29T10:35:20Z</time>
      </trkpt>
      <trkpt lat="48.42229" lon="2.52423">
        <ele>125.143</ele>
        <time>2017-11-29T10:35:36Z</time>
      </trkpt>
      <trkpt lat="48.42226" lon="2.52433">
        <ele>125.138</ele>
        <time>2017-11-29T10:35:42Z</time>
      </trkpt>
      <trkpt lat="48.42221" lon="2.52451">
        <ele>125.136</ele>
        <time>2017-11-29T10:35:54Z</time>
      </trkpt>
      <trkpt lat="48.42214" lon="2.52481">
        <ele>125.101</ele>
        <time>2017-11-29T10:36:10Z</time>
      </trkpt>
      <trkpt lat="48.42211" lon="2.525">
        <ele>125.059</ele>
        <time>2017-11-29T10:36:20Z</time>
      </trkpt>
      <trkpt lat="48.42203" lon="2.52532">
        <ele>125.013</ele>
        <time>2017-11-29T10:36:36Z</time>
      </trkpt>
      <trkpt lat="48.422" lon="2.52546">
        <ele>125.007</ele>
        <time>2017-11-29T10:36:43Z</time>
      </trkpt>
      <trkpt lat="48.42186" lon="2.52578">
        <ele>124.969</ele>
        <time>2017-11-29T10:37:04Z</time>
      </trkpt>
      <trkpt lat="48.42174" lon="2.5258">
        <ele>124.947</ele>
        <time>2017-11-29T10:37:18Z</time>
      </trkpt>
      <trkpt lat="48.42164" lon="2.52565">
        <ele>124.958</ele>
        <time>2017-11-29T10:37:30Z</time>
      </trkpt>
      <trkpt lat="48.42144" lon="2.52534">
        <ele>125.034</ele>
        <time>2017-11-29T10:37:46Z</time>
      </trkpt>
      <trkpt lat="48.42135" lon="2.52517">
        <ele>125.1</ele>
        <time>2017-11-29T10:38:00Z</time>
      </trkpt>
      <trkpt lat="48.42128" lon="2.52504">
        <ele>125.142</ele>
        <time>2017-11-29T10:38:08Z</time>
      </trkpt>
      <trkpt lat="48.42118" lon="2.52486">
        <ele>125.248</ele>
        <time>2017-11-29T10:38:21Z</time>
      </trkpt>
      <trkpt lat="48.4211" lon="2.5247">
        <ele>125.363</ele>
        <time>2017-11-29T10:38:33Z</time>
      </trkpt>
      <trkpt lat="48.42097" lon="2.52451">
        <ele>125.524</ele>
        <time>2017-11-29T10:38:46Z</time>
      </trkpt>
      <trkpt lat="48.42092" lon="2.52438">
        <ele>125.661</ele>
        <time>2017-11-29T10:38:55Z</time>
      </trkpt>
      <trkpt lat="48.42079" lon="2.52414">
        <ele>125.91</ele>
        <time>2017-11-29T10:39:13Z</time>
      </trkpt>
      <trkpt lat="48.42061" lon="2.52401">
        <ele>126.091</ele>
        <time>2017-11-29T10:39:27Z</time>
      </trkpt>
      <trkpt lat="48.42047" lon="2.52388">
        <ele>126.213</ele>
        <time>2017-11-29T10:39:40Z</time>
      </trkpt>
      <trkpt lat="48.42032" lon="2.52377">
        <ele>126.321</ele>
        <time>2017-11-29T10:39:55Z</time>
      </trkpt>
      <trkpt lat="48.42015" lon="2.52375">
        <ele>126.407</ele>
        <time>2017-11-29T10:40:10Z</time>
      </trkpt>
      <trkpt lat="48.41997" lon="2.52368">
        <ele>126.475</ele>
        <time>2017-11-29T10:40:25Z</time>
      </trkpt>
      <trkpt lat="48.41979" lon="2.52363">
        <ele>126.519</ele>
        <time>2017-11-29T10:40:40Z</time>
      </trkpt>
      <trkpt lat="48.41979" lon="2.52363">
        <ele>126.519</ele>
        <time>2017-11-29T10:40:47Z</time>
      </trkpt>
      <trkpt lat="48.41979" lon="2.52363">
        <ele>73.8</ele>
        <time>2017-11-29T10:40:47Z</time>
      </trkpt>
      <trkpt lat="48.41979" lon="2.52363">
        <ele>73.8</ele>
        <time>2017-11-29T10:41:12Z</time>
      </trkpt>
      <trkpt lat="48.41963" lon="2.5234">
        <ele>126.494</ele>
        <time>2017-11-29T10:41:12Z</time>
      </trkpt>
      <trkpt lat="48.41955" lon="2.52337">
        <ele>126.494</ele>
        <time>2017-11-29T10:41:18Z</time>
      </trkpt>
      <trkpt lat="48.4194" lon="2.52334">
        <ele>126.505</ele>
        <time>2017-11-29T10:41:30Z</time>
      </trkpt>
      <trkpt lat="48.41922" lon="2.52327">
        <ele>126.479</ele>
        <time>2017-11-29T10:41:49Z</time>
      </trkpt>
      <trkpt lat="48.41911" lon="2.5232">
        <ele>126.48</ele>
        <time>2017-11-29T10:41:59Z</time>
      </trkpt>
      <trkpt lat="48.41898" lon="2.52319">
        <ele>126.5</ele>
        <time>2017-11-29T10:42:11Z</time>
      </trkpt>
      <trkpt lat="48.41882" lon="2.5232">
        <ele>126.507</ele>
        <time>2017-11-29T10:42:25Z</time>
      </trkpt>
      <trkpt lat="48.41863" lon="2.52319">
        <ele>126.485</ele>
        <time>2017-11-29T10:42:45Z</time>
      </trkpt>
      <trkpt lat="48.41845" lon="2.52321">
        <ele>126.426</ele>
        <time>2017-11-29T10:43:03Z</time>
      </trkpt>
      <trkpt lat="48.41836" lon="2.52326">
        <ele>126.403</ele>
        <time>2017-11-29T10:43:14Z</time>
      </trkpt>
      <trkpt lat="48.41836" lon="2.52326">
        <ele>89.4</ele>
        <time>2017-11-29T10:43:21Z</time>
      </trkpt>
      <trkpt lat="48.41836" lon="2.52326">
        <ele>89.4</ele>
        <time>2017-11-29T10:43:29Z</time>
      </trkpt>
      <trkpt lat="48.41833" lon="2.5234">
        <ele>126.405</ele>
        <time>2017-11-29T10:43:29Z</time>
      </trkpt>
      <trkpt lat="48.41833" lon="2.5234">
        <ele>126.405</ele>
        <time>2017-11-29T10:47:28Z</time>
      </trkpt>
      <trkpt lat="48.41851" lon="2.52324">
        <ele>127.273</ele>
        <time>2017-11-29T10:48:40Z</time>
      </trkpt>
      <trkpt lat="48.41878" lon="2.52338">
        <ele>127.616</ele>
        <time>2017-11-29T10:49:31Z</time>
      </trkpt>
      <trkpt lat="48.41892" lon="2.52339">
        <ele>127.641</ele>
        <time>2017-11-29T10:49:38Z</time>
      </trkpt>
      <trkpt lat="48.41903" lon="2.52338">
        <ele>127.665</ele>
        <time>2017-11-29T10:49:44Z</time>
      </trkpt>
      <trkpt lat="48.41922" lon="2.52337">
        <ele>127.708</ele>
        <time>2017-11-29T10:49:56Z</time>
      </trkpt>
      <trkpt lat="48.41938" lon="2.52344">
        <ele>127.73</ele>
        <time>2017-11-29T10:50:13Z</time>
      </trkpt>
      <trkpt lat="48.41948" lon="2.52349">
        <ele>127.724</ele>
        <time>2017-11-29T10:50:22Z</time>
      </trkpt>
      <trkpt lat="48.41968" lon="2.52361">
        <ele>127.663</ele>
        <time>2017-11-29T10:50:41Z</time>
      </trkpt>
      <trkpt lat="48.41968" lon="2.52361">
        <ele>127.663</ele>
        <time>2017-11-29T10:50:48Z</time>
      </trkpt>
      <trkpt lat="48.41968" lon="2.52361">
        <ele>74.4</ele>
        <time>2017-11-29T10:50:48Z</time>
      </trkpt>
      <trkpt lat="48.41968" lon="2.52361">
        <ele>74.4</ele>
        <time>2017-11-29T10:52:08Z</time>
      </trkpt>
      <trkpt lat="48.41973" lon="2.52386">
        <ele>127.325</ele>
        <time>2017-11-29T10:52:08Z</time>
      </trkpt>
      <trkpt lat="48.41965" lon="2.52413">
        <ele>127.076</ele>
        <time>2017-11-29T10:52:28Z</time>
      </trkpt>
      <trkpt lat="48.41956" lon="2.52437">
        <ele>126.964</ele>
        <time>2017-11-29T10:52:41Z</time>
      </trkpt>
      <trkpt lat="48.4195" lon="2.52458">
        <ele>126.913</ele>
        <time>2017-11-29T10:52:55Z</time>
      </trkpt>
      <trkpt lat="48.41951" lon="2.52477">
        <ele>126.931</ele>
        <time>2017-11-29T10:53:06Z</time>
      </trkpt>
      <trkpt lat="48.41952" lon="2.52502">
        <ele>127.011</ele>
        <time>2017-11-29T10:53:20Z</time>
      </trkpt>
      <trkpt lat="48.41957" lon="2.52525">
        <ele>127.113</ele>
        <time>2017-11-29T10:53:38Z</time>
      </trkpt>
      <trkpt lat="48.41956" lon="2.52547">
        <ele>127.122</ele>
        <time>2017-11-29T10:53:51Z</time>
      </trkpt>
      <trkpt lat="48.41946" lon="2.52571">
        <ele>127.086</ele>
        <time>2017-11-29T10:54:01Z</time>
      </trkpt>
      <trkpt lat="48.41942" lon="2.52581">
        <ele>127.055</ele>
        <time>2017-11-29T10:54:07Z</time>
      </trkpt>
      <trkpt lat="48.41939" lon="2.52592">
        <ele>127.014</ele>
        <time>2017-11-29T10:54:15Z</time>
      </trkpt>
      <trkpt lat="48.41933" lon="2.52609">
        <ele>126.989</ele>
        <time>2017-11-29T10:54:24Z</time>
      </trkpt>
      <trkpt lat="48.41927" lon="2.52629">
        <ele>126.968</ele>
        <time>2017-11-29T10:54:35Z</time>
      </trkpt>
      <trkpt lat="48.41916" lon="2.52656">
        <ele>126.945</ele>
        <time>2017-11-29T10:54:49Z</time>
      </trkpt>
      <trkpt lat="48.41909" lon="2.52681">
        <ele>126.966</ele>
        <time>2017-11-29T10:55:07Z</time>
      </trkpt>
      <trkpt lat="48.41904" lon="2.52705">
        <ele>126.951</ele>
        <time>2017-11-29T10:55:21Z</time>
      </trkpt>
      <trkpt lat="48.41898" lon="2.52722">
        <ele>126.914</ele>
        <time>2017-11-29T10:55:30Z</time>
      </trkpt>
      <trkpt lat="48.41892" lon="2.52735">
        <ele>126.881</ele>
        <time>2017-11-29T10:55:37Z</time>
      </trkpt>
      <trkpt lat="48.41883" lon="2.52759">
        <ele>126.838</ele>
        <time>2017-11-29T10:55:52Z</time>
      </trkpt>
      <trkpt lat="48.4188" lon="2.52788">
        <ele>126.814</ele>
        <time>2017-11-29T10:56:08Z</time>
      </trkpt>
      <trkpt lat="48.41872" lon="2.5281">
        <ele>126.805</ele>
        <time>2017-11-29T10:56:21Z</time>
      </trkpt>
      <trkpt lat="48.41856" lon="2.52827">
        <ele>126.733</ele>
        <time>2017-11-29T10:56:38Z</time>
      </trkpt>
      <trkpt lat="48.41848" lon="2.52854">
        <ele>126.639</ele>
        <time>2017-11-29T10:56:53Z</time>
      </trkpt>
      <trkpt lat="48.41846" lon="2.5288">
        <ele>126.594</ele>
        <time>2017-11-29T10:57:04Z</time>
      </trkpt>
      <trkpt lat="48.41845" lon="2.52904">
        <ele>126.548</ele>
        <time>2017-11-29T10:57:19Z</time>
      </trkpt>
      <trkpt lat="48.41842" lon="2.5292">
        <ele>126.495</ele>
        <time>2017-11-29T10:57:27Z</time>
      </trkpt>
      <trkpt lat="48.41835" lon="2.5295">
        <ele>126.353</ele>
        <time>2017-11-29T10:57:42Z</time>
      </trkpt>
      <trkpt lat="48.41832" lon="2.52985">
        <ele>126.237</ele>
        <time>2017-11-29T10:57:59Z</time>
      </trkpt>
      <trkpt lat="48.41826" lon="2.53024">
        <ele>126.14</ele>
        <time>2017-11-29T10:58:18Z</time>
      </trkpt>
      <trkpt lat="48.41825" lon="2.53046">
        <ele>126.061</ele>
        <time>2017-11-29T10:58:31Z</time>
      </trkpt>
      <trkpt lat="48.41822" lon="2.5306">
        <ele>126.017</ele>
        <time>2017-11-29T10:58:39Z</time>
      </trkpt>
      <trkpt lat="48.41822" lon="2.5306">
        <ele>71.8</ele>
        <time>2017-11-29T10:58:47Z</time>
      </trkpt>
      <trkpt lat="48.41822" lon="2.5306">
        <ele>71.8</ele>
        <time>2017-11-29T10:59:02Z</time>
      </trkpt>
      <trkpt lat="48.41811" lon="2.53027">
        <ele>125.953</ele>
        <time>2017-11-29T10:59:02Z</time>
      </trkpt>
      <trkpt lat="48.41808" lon="2.53017">
        <ele>125.949</ele>
        <time>2017-11-29T10:59:08Z</time>
      </trkpt>
      <trkpt lat="48.41794" lon="2.5299">
        <ele>125.9</ele>
        <time>2017-11-29T10:59:25Z</time>
      </trkpt>
      <trkpt lat="48.41777" lon="2.52973">
        <ele>125.808</ele>
        <time>2017-11-29T10:59:39Z</time>
      </trkpt>
      <trkpt lat="48.41764" lon="2.52962">
        <ele>125.704</ele>
        <time>2017-11-29T10:59:49Z</time>
      </trkpt>
      <trkpt lat="48.41751" lon="2.52953">
        <ele>125.572</ele>
        <time>2017-11-29T11:00:04Z</time>
      </trkpt>
      <trkpt lat="48.41739" lon="2.52943">
        <ele>125.425</ele>
        <time>2017-11-29T11:00:19Z</time>
      </trkpt>
      <trkpt lat="48.41726" lon="2.52933">
        <ele>125.225</ele>
        <time>2017-11-29T11:00:38Z</time>
      </trkpt>
      <trkpt lat="48.41708" lon="2.52931">
        <ele>125.116</ele>
        <time>2017-11-29T11:00:56Z</time>
      </trkpt>
      <trkpt lat="48.41694" lon="2.52929">
        <ele>125.088</ele>
        <time>2017-11-29T11:01:12Z</time>
      </trkpt>
      <trkpt lat="48.4168" lon="2.52925">
        <ele>125.115</ele>
        <time>2017-11-29T11:01:29Z</time>
      </trkpt>
      <trkpt lat="48.41669" lon="2.52908">
        <ele>125.205</ele>
        <time>2017-11-29T11:01:50Z</time>
      </trkpt>
      <trkpt lat="48.41666" lon="2.52889">
        <ele>125.324</ele>
        <time>2017-11-29T11:02:04Z</time>
      </trkpt>
      <trkpt lat="48.41657" lon="2.52873">
        <ele>125.446</ele>
        <time>2017-11-29T11:02:15Z</time>
      </trkpt>
      <trkpt lat="48.41657" lon="2.52873">
        <ele>125.446</ele>
        <time>2017-11-29T11:02:22Z</time>
      </trkpt>
      <trkpt lat="48.41657" lon="2.52873">
        <ele>101.7</ele>
        <time>2017-11-29T11:02:22Z</time>
      </trkpt>
      <trkpt lat="48.41657" lon="2.52873">
        <ele>101.7</ele>
        <time>2017-11-29T11:02:29Z</time>
      </trkpt>
      <trkpt lat="48.41658" lon="2.52858">
        <ele>125.599</ele>
        <time>2017-11-29T11:02:29Z</time>
      </trkpt>
      <trkpt lat="48.41659" lon="2.52832">
        <ele>125.851</ele>
        <time>2017-11-29T11:02:47Z</time>
      </trkpt>
      <trkpt lat="48.41655" lon="2.52807">
        <ele>126.232</ele>
        <time>2017-11-29T11:03:06Z</time>
      </trkpt>
      <trkpt lat="48.41647" lon="2.5278">
        <ele>126.715</ele>
        <time>2017-11-29T11:03:20Z</time>
      </trkpt>
      <trkpt lat="48.41632" lon="2.52759">
        <ele>127.424</ele>
        <time>2017-11-29T11:03:36Z</time>
      </trkpt>
      <trkpt lat="48.41623" lon="2.52738">
        <ele>128.202</ele>
        <time>2017-11-29T11:03:51Z</time>
      </trkpt>
      <trkpt lat="48.41617" lon="2.52707">
        <ele>129.256</ele>
        <time>2017-11-29T11:04:12Z</time>
      </trkpt>
      <trkpt lat="48.41608" lon="2.52683">
        <ele>130.362</ele>
        <time>2017-11-29T11:04:32Z</time>
      </trkpt>
      <trkpt lat="48.41596" lon="2.52668">
        <ele>131.176</ele>
        <time>2017-11-29T11:04:47Z</time>
      </trkpt>
      <trkpt lat="48.4158" lon="2.52652">
        <ele>132.089</ele>
        <time>2017-11-29T11:05:03Z</time>
      </trkpt>
      <trkpt lat="48.41581" lon="2.52635">
        <ele>132.874</ele>
        <time>2017-11-29T11:05:16Z</time>
      </trkpt>
      <trkpt lat="48.41586" lon="2.52609">
        <ele>134.04</ele>
        <time>2017-11-29T11:05:34Z</time>
      </trkpt>
      <trkpt lat="48.41588" lon="2.5259">
        <ele>134.952</ele>
        <time>2017-11-29T11:05:46Z</time>
      </trkpt>
      <trkpt lat="48.41589" lon="2.52569">
        <ele>135.901</ele>
        <time>2017-11-29T11:05:58Z</time>
      </trkpt>
      <trkpt lat="48.41592" lon="2.52558">
        <ele>136.747</ele>
        <time>2017-11-29T11:06:09Z</time>
      </trkpt>
      <trkpt lat="48.416" lon="2.52543">
        <ele>137.328</ele>
        <time>2017-11-29T11:06:17Z</time>
      </trkpt>
      <trkpt lat="48.41606" lon="2.52528">
        <ele>138.06</ele>
        <time>2017-11-29T11:06:27Z</time>
      </trkpt>
      <trkpt lat="48.41615" lon="2.52506">
        <ele>139.106</ele>
        <time>2017-11-29T11:06:41Z</time>
      </trkpt>
      <trkpt lat="48.41611" lon="2.52485">
        <ele>140.375</ele>
        <time>2017-11-29T11:06:57Z</time>
      </trkpt>
      <trkpt lat="48.41612" lon="2.52452">
        <ele>141.762</ele>
        <time>2017-11-29T11:07:15Z</time>
      </trkpt>
      <trkpt lat="48.41624" lon="2.52434">
        <ele>142.556</ele>
        <time>2017-11-29T11:07:26Z</time>
      </trkpt>
      <trkpt lat="48.4163" lon="2.52417">
        <ele>143.376</ele>
        <time>2017-11-29T11:07:38Z</time>
      </trkpt>
      <trkpt lat="48.41631" lon="2.52414">
        <ele>143.565</ele>
        <time>2017-11-29T11:07:41Z</time>
      </trkpt>
      <trkpt lat="48.41631" lon="2.52414">
        <ele>120</ele>
        <time>2017-11-29T11:07:48Z</time>
      </trkpt>
      <trkpt lat="48.41631" lon="2.52414">
        <ele>120</ele>
        <time>2017-11-29T11:07:57Z</time>
      </trkpt>
      <trkpt lat="48.41633" lon="2.52408">
        <ele>144.143</ele>
        <time>2017-11-29T11:07:57Z</time>
      </trkpt>
      <trkpt lat="48.41639" lon="2.52391">
        <ele>144.683</ele>
        <time>2017-11-29T11:08:07Z</time>
      </trkpt>
      <trkpt lat="48.41645" lon="2.52368">
        <ele>145.393</ele>
        <time>2017-11-29T11:08:21Z</time>
      </trkpt>
      <trkpt lat="48.41653" lon="2.52341">
        <ele>146.142</ele>
        <time>2017-11-29T11:08:37Z</time>
      </trkpt>
      <trkpt lat="48.41659" lon="2.52323">
        <ele>146.612</ele>
        <time>2017-11-29T11:08:48Z</time>
      </trkpt>
      <trkpt lat="48.41665" lon="2.52295">
        <ele>147.291</ele>
        <time>2017-11-29T11:09:04Z</time>
      </trkpt>
      <trkpt lat="48.41679" lon="2.52264">
        <ele>148.031</ele>
        <time>2017-11-29T11:09:22Z</time>
      </trkpt>
      <trkpt lat="48.41685" lon="2.52244">
        <ele>148.52</ele>
        <time>2017-11-29T11:09:34Z</time>
      </trkpt>
      <trkpt lat="48.4169" lon="2.52221">
        <ele>149.06</ele>
        <time>2017-11-29T11:09:48Z</time>
      </trkpt>
      <trkpt lat="48.41693" lon="2.52214">
        <ele>149.285</ele>
        <time>2017-11-29T11:09:54Z</time>
      </trkpt>
      <trkpt lat="48.41693" lon="2.52214">
        <ele>118.8</ele>
        <time>2017-11-29T11:10:01Z</time>
      </trkpt>
      <trkpt lat="48.41693" lon="2.52214">
        <ele>118.8</ele>
        <time>2017-11-29T11:10:08Z</time>
      </trkpt>
      <trkpt lat="48.41683" lon="2.52205">
        <ele>149.778</ele>
        <time>2017-11-29T11:10:08Z</time>
      </trkpt>
      <trkpt lat="48.41661" lon="2.52199">
        <ele>150.414</ele>
        <time>2017-11-29T11:10:28Z</time>
      </trkpt>
      <trkpt lat="48.41641" lon="2.52204">
        <ele>150.933</ele>
        <time>2017-11-29T11:10:45Z</time>
      </trkpt>
      <trkpt lat="48.41625" lon="2.52214">
        <ele>151.49</ele>
        <time>2017-11-29T11:11:02Z</time>
      </trkpt>
      <trkpt lat="48.41611" lon="2.52232">
        <ele>151.958</ele>
        <time>2017-11-29T11:11:17Z</time>
      </trkpt>
      <trkpt lat="48.41602" lon="2.52251">
        <ele>152.432</ele>
        <time>2017-11-29T11:11:32Z</time>
      </trkpt>
      <trkpt lat="48.41587" lon="2.52266">
        <ele>153.011</ele>
        <time>2017-11-29T11:11:50Z</time>
      </trkpt>
      <trkpt lat="48.41572" lon="2.52269">
        <ele>153.447</ele>
        <time>2017-11-29T11:12:04Z</time>
      </trkpt>
      <trkpt lat="48.41572" lon="2.52269">
        <ele>122</ele>
        <time>2017-11-29T11:12:11Z</time>
      </trkpt>
      <trkpt lat="48.41572" lon="2.52269">
        <ele>122</ele>
        <time>2017-11-29T11:12:53Z</time>
      </trkpt>
      <trkpt lat="48.41543" lon="2.52284">
        <ele>154.614</ele>
        <time>2017-11-29T11:12:53Z</time>
      </trkpt>
      <trkpt lat="48.41533" lon="2.52299">
        <ele>154.965</ele>
        <time>2017-11-29T11:13:08Z</time>
      </trkpt>
      <trkpt lat="48.41512" lon="2.52292">
        <ele>155.338</ele>
        <time>2017-11-29T11:13:25Z</time>
      </trkpt>
      <trkpt lat="48.41507" lon="2.5229">
        <ele>155.422</ele>
        <time>2017-11-29T11:13:29Z</time>
      </trkpt>
      <trkpt lat="48.41507" lon="2.5229">
        <ele>122</ele>
        <time>2017-11-29T11:13:36Z</time>
      </trkpt>
      <trkpt lat="48.41507" lon="2.5229">
        <ele>122</ele>
        <time>2017-11-29T11:13:44Z</time>
      </trkpt>
      <trkpt lat="48.41503" lon="2.52289">
        <ele>155.683</ele>
        <time>2017-11-29T11:13:44Z</time>
      </trkpt>
      <trkpt lat="48.41489" lon="2.52287">
        <ele>155.895</ele>
        <time>2017-11-29T11:13:57Z</time>
      </trkpt>
      <trkpt lat="48.41477" lon="2.52287">
        <ele>156.013</ele>
        <time>2017-11-29T11:14:05Z</time>
      </trkpt>
      <trkpt lat="48.4146" lon="2.52278">
        <ele>156.227</ele>
        <time>2017-11-29T11:14:21Z</time>
      </trkpt>
      <trkpt lat="48.41449" lon="2.52268">
        <ele>156.411</ele>
        <time>2017-11-29T11:14:36Z</time>
      </trkpt>
      <trkpt lat="48.41443" lon="2.52261">
        <ele>156.505</ele>
        <time>2017-11-29T11:14:45Z</time>
      </trkpt>
      <trkpt lat="48.41443" lon="2.52261">
        <ele>121</ele>
        <time>2017-11-29T11:14:52Z</time>
      </trkpt>
      <trkpt lat="48.41443" lon="2.52261">
        <ele>121</ele>
        <time>2017-11-29T11:15:29Z</time>
      </trkpt>
      <trkpt lat="48.4144" lon="2.52214">
        <ele>157.039</ele>
        <time>2017-11-29T11:15:29Z</time>
      </trkpt>
      <trkpt lat="48.41436" lon="2.52193">
        <ele>157.243</ele>
        <time>2017-11-29T11:15:42Z</time>
      </trkpt>
      <trkpt lat="48.41421" lon="2.52169">
        <ele>157.457</ele>
        <time>2017-11-29T11:15:59Z</time>
      </trkpt>
      <trkpt lat="48.4141" lon="2.52154">
        <ele>157.564</ele>
        <time>2017-11-29T11:16:14Z</time>
      </trkpt>
      <trkpt lat="48.4141" lon="2.52154">
        <ele>157.564</ele>
        <time>2017-11-29T11:16:21Z</time>
      </trkpt>
      <trkpt lat="48.4141" lon="2.52154">
        <ele>121.4</ele>
        <time>2017-11-29T11:16:21Z</time>
      </trkpt>
      <trkpt lat="48.4141" lon="2.52154">
        <ele>121.4</ele>
        <time>2017-11-29T11:17:04Z</time>
      </trkpt>
      <trkpt lat="48.4141" lon="2.52108">
        <ele>157.615</ele>
        <time>2017-11-29T11:17:04Z</time>
      </trkpt>
      <trkpt lat="48.41413" lon="2.52083">
        <ele>157.587</ele>
        <time>2017-11-29T11:17:20Z</time>
      </trkpt>
      <trkpt lat="48.41418" lon="2.5205">
        <ele>157.544</ele>
        <time>2017-11-29T11:17:38Z</time>
      </trkpt>
      <trkpt lat="48.41417" lon="2.52033">
        <ele>157.521</ele>
        <time>2017-11-29T11:17:51Z</time>
      </trkpt>
      <trkpt lat="48.41408" lon="2.52016">
        <ele>157.517</ele>
        <time>2017-11-29T11:18:07Z</time>
      </trkpt>
      <trkpt lat="48.41411" lon="2.52005">
        <ele>157.509</ele>
        <time>2017-11-29T11:18:13Z</time>
      </trkpt>
      <trkpt lat="48.41411" lon="2.52005">
        <ele>112.4</ele>
        <time>2017-11-29T11:18:21Z</time>
      </trkpt>
      <trkpt lat="48.41411" lon="2.52005">
        <ele>112.4</ele>
        <time>2017-11-29T11:18:55Z</time>
      </trkpt>
      <trkpt lat="48.41406" lon="2.51958">
        <ele>157.217</ele>
        <time>2017-11-29T11:18:55Z</time>
      </trkpt>
      <trkpt lat="48.41402" lon="2.51936">
        <ele>156.987</ele>
        <time>2017-11-29T11:19:09Z</time>
      </trkpt>
      <trkpt lat="48.41388" lon="2.51915">
        <ele>156.609</ele>
        <time>2017-11-29T11:19:28Z</time>
      </trkpt>
      <trkpt lat="48.41382" lon="2.51902">
        <ele>156.357</ele>
        <time>2017-11-29T11:19:38Z</time>
      </trkpt>
      <trkpt lat="48.4137" lon="2.51895">
        <ele>156.083</ele>
        <time>2017-11-29T11:19:48Z</time>
      </trkpt>
      <trkpt lat="48.4137" lon="2.51895">
        <ele>100.8</ele>
        <time>2017-11-29T11:19:55Z</time>
      </trkpt>
      <trkpt lat="48.4137" lon="2.51895">
        <ele>100.8</ele>
        <time>2017-11-29T11:20:00Z</time>
      </trkpt>
      <trkpt lat="48.41362" lon="2.51889">
        <ele>155.812</ele>
        <time>2017-11-29T11:20:00Z</time>
      </trkpt>
      <trkpt lat="48.41347" lon="2.51866">
        <ele>155.371</ele>
        <time>2017-11-29T11:20:15Z</time>
      </trkpt>
      <trkpt lat="48.41352" lon="2.51847">
        <ele>154.884</ele>
        <time>2017-11-29T11:20:31Z</time>
      </trkpt>
      <trkpt lat="48.41357" lon="2.51826">
        <ele>154.46</ele>
        <time>2017-11-29T11:20:45Z</time>
      </trkpt>
      <trkpt lat="48.41344" lon="2.51806">
        <ele>154.026</ele>
        <time>2017-11-29T11:20:59Z</time>
      </trkpt>
      <trkpt lat="48.41335" lon="2.51801">
        <ele>153.736</ele>
        <time>2017-11-29T11:21:08Z</time>
      </trkpt>
      <trkpt lat="48.41323" lon="2.51783">
        <ele>153.15</ele>
        <time>2017-11-29T11:21:27Z</time>
      </trkpt>
      <trkpt lat="48.41307" lon="2.51766">
        <ele>152.712</ele>
        <time>2017-11-29T11:21:42Z</time>
      </trkpt>
      <trkpt lat="48.41294" lon="2.51752">
        <ele>152.223</ele>
        <time>2017-11-29T11:21:58Z</time>
      </trkpt>
      <trkpt lat="48.41284" lon="2.51729">
        <ele>151.741</ele>
        <time>2017-11-29T11:22:14Z</time>
      </trkpt>
      <trkpt lat="48.41273" lon="2.51705">
        <ele>151.195</ele>
        <time>2017-11-29T11:22:31Z</time>
      </trkpt>
      <trkpt lat="48.41258" lon="2.51698">
        <ele>150.886</ele>
        <time>2017-11-29T11:22:40Z</time>
      </trkpt>
      <trkpt lat="48.41258" lon="2.51698">
        <ele>91</ele>
        <time>2017-11-29T11:22:48Z</time>
      </trkpt>
      <trkpt lat="48.41258" lon="2.51698">
        <ele>91</ele>
        <time>2017-11-29T11:22:53Z</time>
      </trkpt>
      <trkpt lat="48.41252" lon="2.51696">
        <ele>150.512</ele>
        <time>2017-11-29T11:22:53Z</time>
      </trkpt>
      <trkpt lat="48.41236" lon="2.51695">
        <ele>150.053</ele>
        <time>2017-11-29T11:23:05Z</time>
      </trkpt>
      <trkpt lat="48.41236" lon="2.51695">
        <ele>150.053</ele>
        <time>2017-11-29T11:23:13Z</time>
      </trkpt>
      <trkpt lat="48.41236" lon="2.51695">
        <ele>89</ele>
        <time>2017-11-29T11:23:13Z</time>
      </trkpt>
      <trkpt lat="48.41236" lon="2.51695">
        <ele>89</ele>
        <time>2017-11-29T11:42:07Z</time>
      </trkpt>
      <trkpt lat="48.41248" lon="2.51663">
        <ele>142.202</ele>
        <time>2017-11-29T11:42:07Z</time>
      </trkpt>
      <trkpt lat="48.41256" lon="2.51637">
        <ele>141.878</ele>
        <time>2017-11-29T11:42:21Z</time>
      </trkpt>
      <trkpt lat="48.4126" lon="2.5162">
        <ele>141.691</ele>
        <time>2017-11-29T11:42:32Z</time>
      </trkpt>
      <trkpt lat="48.4126" lon="2.5162">
        <ele>141.691</ele>
        <time>2017-11-29T11:42:40Z</time>
      </trkpt>
      <trkpt lat="48.4126" lon="2.5162">
        <ele>95.2</ele>
        <time>2017-11-29T11:42:40Z</time>
      </trkpt>
      <trkpt lat="48.4126" lon="2.5162">
        <ele>95.2</ele>
        <time>2017-11-29T11:43:38Z</time>
      </trkpt>
      <trkpt lat="48.41254" lon="2.51641">
        <ele>141.011</ele>
        <time>2017-11-29T11:43:38Z</time>
      </trkpt>
      <trkpt lat="48.41251" lon="2.51651">
        <ele>140.908</ele>
        <time>2017-11-29T11:43:43Z</time>
      </trkpt>
      <trkpt lat="48.41251" lon="2.51651">
        <ele>92.3</ele>
        <time>2017-11-29T11:43:51Z</time>
      </trkpt>
      <trkpt lat="48.41251" lon="2.51651">
        <ele>92.3</ele>
        <time>2017-11-29T11:43:57Z</time>
      </trkpt>
      <trkpt lat="48.41253" lon="2.51662">
        <ele>140.685</ele>
        <time>2017-11-29T11:43:57Z</time>
      </trkpt>
      <trkpt lat="48.41242" lon="2.51674">
        <ele>140.472</ele>
        <time>2017-11-29T11:44:09Z</time>
      </trkpt>
      <trkpt lat="48.41233" lon="2.51688">
        <ele>140.196</ele>
        <time>2017-11-29T11:44:25Z</time>
      </trkpt>
      <trkpt lat="48.41228" lon="2.51706">
        <ele>139.896</ele>
        <time>2017-11-29T11:44:39Z</time>
      </trkpt>
      <trkpt lat="48.41228" lon="2.51706">
        <ele>139.896</ele>
        <time>2017-11-29T11:44:47Z</time>
      </trkpt>
      <trkpt lat="48.41228" lon="2.51706">
        <ele>88.8</ele>
        <time>2017-11-29T11:44:47Z</time>
      </trkpt>
      <trkpt lat="48.41228" lon="2.51706">
        <ele>88.8</ele>
        <time>2017-11-29T11:51:36Z</time>
      </trkpt>
      <trkpt lat="48.41201" lon="2.5171">
        <ele>137.255</ele>
        <time>2017-11-29T11:56:09Z</time>
      </trkpt>
      <trkpt lat="48.41197" lon="2.51713">
        <ele>137.193</ele>
        <time>2017-11-29T11:56:13Z</time>
      </trkpt>
      <trkpt lat="48.41197" lon="2.51713">
        <ele>87.1</ele>
        <time>2017-11-29T11:56:19Z</time>
      </trkpt>
      <trkpt lat="48.41197" lon="2.51713">
        <ele>87.1</ele>
        <time>2017-11-29T11:56:45Z</time>
      </trkpt>
      <trkpt lat="48.41166" lon="2.51726">
        <ele>136.654</ele>
        <time>2017-11-29T11:56:45Z</time>
      </trkpt>
      <trkpt lat="48.41166" lon="2.51726">
        <ele>136.654</ele>
        <time>2017-11-29T11:56:50Z</time>
      </trkpt>
      <trkpt lat="48.41166" lon="2.51726">
        <ele>85</ele>
        <time>2017-11-29T11:56:50Z</time>
      </trkpt>
      <trkpt lat="48.41166" lon="2.51726">
        <ele>85</ele>
        <time>2017-11-29T11:57:01Z</time>
      </trkpt>
      <trkpt lat="48.41152" lon="2.51732">
        <ele>136.3</ele>
        <time>2017-11-29T11:57:01Z</time>
      </trkpt>
      <trkpt lat="48.41133" lon="2.51741">
        <ele>136.076</ele>
        <time>2017-11-29T11:57:13Z</time>
      </trkpt>
      <trkpt lat="48.41133" lon="2.51741">
        <ele>82.1</ele>
        <time>2017-11-29T11:57:21Z</time>
      </trkpt>
      <trkpt lat="48.41133" lon="2.51741">
        <ele>82.1</ele>
        <time>2017-11-29T11:57:28Z</time>
      </trkpt>
      <trkpt lat="48.41123" lon="2.51748">
        <ele>135.753</ele>
        <time>2017-11-29T11:57:28Z</time>
      </trkpt>
      <trkpt lat="48.41098" lon="2.51765">
        <ele>135.451</ele>
        <time>2017-11-29T11:57:43Z</time>
      </trkpt>
      <trkpt lat="48.41098" lon="2.51765">
        <ele>80.5</ele>
        <time>2017-11-29T11:57:50Z</time>
      </trkpt>
      <trkpt lat="48.41098" lon="2.51765">
        <ele>80.5</ele>
        <time>2017-11-29T11:57:58Z</time>
      </trkpt>
      <trkpt lat="48.41087" lon="2.51767">
        <ele>135.156</ele>
        <time>2017-11-29T11:57:58Z</time>
      </trkpt>
      <trkpt lat="48.41072" lon="2.51793">
        <ele>134.739</ele>
        <time>2017-11-29T11:58:23Z</time>
      </trkpt>
      <trkpt lat="48.41064" lon="2.51805">
        <ele>134.65</ele>
        <time>2017-11-29T11:58:29Z</time>
      </trkpt>
      <trkpt lat="48.41064" lon="2.51805">
        <ele>79.3</ele>
        <time>2017-11-29T11:58:34Z</time>
      </trkpt>
      <trkpt lat="48.41064" lon="2.51805">
        <ele>79.3</ele>
        <time>2017-11-29T11:58:48Z</time>
      </trkpt>
      <trkpt lat="48.41053" lon="2.51821">
        <ele>134.415</ele>
        <time>2017-11-29T11:58:48Z</time>
      </trkpt>
      <trkpt lat="48.41048" lon="2.51844">
        <ele>134.25</ele>
        <time>2017-11-29T11:59:01Z</time>
      </trkpt>
      <trkpt lat="48.41048" lon="2.51858">
        <ele>134.129</ele>
        <time>2017-11-29T11:59:12Z</time>
      </trkpt>
      <trkpt lat="48.41037" lon="2.51876">
        <ele>134.038</ele>
        <time>2017-11-29T11:59:22Z</time>
      </trkpt>
      <trkpt lat="48.41033" lon="2.519">
        <ele>133.955</ele>
        <time>2017-11-29T11:59:33Z</time>
      </trkpt>
      <trkpt lat="48.41028" lon="2.51928">
        <ele>133.874</ele>
        <time>2017-11-29T11:59:47Z</time>
      </trkpt>
      <trkpt lat="48.41014" lon="2.51939">
        <ele>133.837</ele>
        <time>2017-11-29T11:59:58Z</time>
      </trkpt>
      <trkpt lat="48.40996" lon="2.51939">
        <ele>133.801</ele>
        <time>2017-11-29T12:00:07Z</time>
      </trkpt>
      <trkpt lat="48.40981" lon="2.51933">
        <ele>133.683</ele>
        <time>2017-11-29T12:00:25Z</time>
      </trkpt>
      <trkpt lat="48.40977" lon="2.51928">
        <ele>133.653</ele>
        <time>2017-11-29T12:00:29Z</time>
      </trkpt>
      <trkpt lat="48.40977" lon="2.51928">
        <ele>82.7</ele>
        <time>2017-11-29T12:00:37Z</time>
      </trkpt>
      <trkpt lat="48.40977" lon="2.51928">
        <ele>82.7</ele>
        <time>2017-11-29T12:00:43Z</time>
      </trkpt>
      <trkpt lat="48.40971" lon="2.51918">
        <ele>133.559</ele>
        <time>2017-11-29T12:00:43Z</time>
      </trkpt>
      <trkpt lat="48.40971" lon="2.51918">
        <ele>133.559</ele>
        <time>2017-11-29T12:00:50Z</time>
      </trkpt>
      <trkpt lat="48.40971" lon="2.51918">
        <ele>84.3</ele>
        <time>2017-11-29T12:00:50Z</time>
      </trkpt>
      <trkpt lat="48.40971" lon="2.51918">
        <ele>84.3</ele>
        <time>2017-11-29T12:00:59Z</time>
      </trkpt>
      <trkpt lat="48.40964" lon="2.51909">
        <ele>133.454</ele>
        <time>2017-11-29T12:00:59Z</time>
      </trkpt>
      <trkpt lat="48.40942" lon="2.51882">
        <ele>133.471</ele>
        <time>2017-11-29T12:01:31Z</time>
      </trkpt>
      <trkpt lat="48.40943" lon="2.51869">
        <ele>133.607</ele>
        <time>2017-11-29T12:01:44Z</time>
      </trkpt>
      <trkpt lat="48.40944" lon="2.51866">
        <ele>133.64</ele>
        <time>2017-11-29T12:01:47Z</time>
      </trkpt>
      <trkpt lat="48.40944" lon="2.51866">
        <ele>92.7</ele>
        <time>2017-11-29T12:01:54Z</time>
      </trkpt>
      <trkpt lat="48.40944" lon="2.51866">
        <ele>92.7</ele>
        <time>2017-11-29T12:02:09Z</time>
      </trkpt>
      <trkpt lat="48.40925" lon="2.51864">
        <ele>133.944</ele>
        <time>2017-11-29T12:02:09Z</time>
      </trkpt>
      <trkpt lat="48.40907" lon="2.51859">
        <ele>134.345</ele>
        <time>2017-11-29T12:02:28Z</time>
      </trkpt>
      <trkpt lat="48.40907" lon="2.51859">
        <ele>134.345</ele>
        <time>2017-11-29T12:02:37Z</time>
      </trkpt>
      <trkpt lat="48.40907" lon="2.51859">
        <ele>99.4</ele>
        <time>2017-11-29T12:02:37Z</time>
      </trkpt>
      <trkpt lat="48.40907" lon="2.51859">
        <ele>99.4</ele>
        <time>2017-11-29T12:03:28Z</time>
      </trkpt>
      <trkpt lat="48.4088" lon="2.51859">
        <ele>135.67</ele>
        <time>2017-11-29T12:03:28Z</time>
      </trkpt>
      <trkpt lat="48.4088" lon="2.51859">
        <ele>135.67</ele>
        <time>2017-11-29T12:03:35Z</time>
      </trkpt>
      <trkpt lat="48.4088" lon="2.51859">
        <ele>102</ele>
        <time>2017-11-29T12:03:35Z</time>
      </trkpt>
      <trkpt lat="48.4088" lon="2.51859">
        <ele>102</ele>
        <time>2017-11-29T12:04:19Z</time>
      </trkpt>
      <trkpt lat="48.40876" lon="2.51834">
        <ele>136.878</ele>
        <time>2017-11-29T12:04:19Z</time>
      </trkpt>
      <trkpt lat="48.40852" lon="2.51856">
        <ele>138.383</ele>
        <time>2017-11-29T12:05:14Z</time>
      </trkpt>
      <trkpt lat="48.40826" lon="2.51894">
        <ele>138.824</ele>
        <time>2017-11-29T12:05:42Z</time>
      </trkpt>
      <trkpt lat="48.40822" lon="2.51897">
        <ele>138.84</ele>
        <time>2017-11-29T12:05:43Z</time>
      </trkpt>
      <trkpt lat="48.40822" lon="2.51897">
        <ele>93.8</ele>
        <time>2017-11-29T12:05:48Z</time>
      </trkpt>
      <trkpt lat="48.40822" lon="2.51897">
        <ele>93.8</ele>
        <time>2017-11-29T12:05:54Z</time>
      </trkpt>
      <trkpt lat="48.40817" lon="2.51899">
        <ele>139.001</ele>
        <time>2017-11-29T12:05:54Z</time>
      </trkpt>
      <trkpt lat="48.40815" lon="2.51914">
        <ele>139.117</ele>
        <time>2017-11-29T12:06:05Z</time>
      </trkpt>
      <trkpt lat="48.40815" lon="2.51914">
        <ele>93.3</ele>
        <time>2017-11-29T12:06:12Z</time>
      </trkpt>
      <trkpt lat="48.40815" lon="2.51914">
        <ele>93.3</ele>
        <time>2017-11-29T12:07:23Z</time>
      </trkpt>
      <trkpt lat="48.40786" lon="2.51936">
        <ele>139.108</ele>
        <time>2017-11-29T12:07:23Z</time>
      </trkpt>
      <trkpt lat="48.40772" lon="2.51932">
        <ele>139.041</ele>
        <time>2017-11-29T12:07:34Z</time>
      </trkpt>
      <trkpt lat="48.40742" lon="2.51922">
        <ele>138.906</ele>
        <time>2017-11-29T12:07:51Z</time>
      </trkpt>
      <trkpt lat="48.40728" lon="2.51912">
        <ele>138.811</ele>
        <time>2017-11-29T12:08:02Z</time>
      </trkpt>
      <trkpt lat="48.40716" lon="2.51898">
        <ele>138.694</ele>
        <time>2017-11-29T12:08:16Z</time>
      </trkpt>
      <trkpt lat="48.40703" lon="2.51895">
        <ele>138.609</ele>
        <time>2017-11-29T12:08:27Z</time>
      </trkpt>
      <trkpt lat="48.40684" lon="2.51884">
        <ele>138.467</ele>
        <time>2017-11-29T12:08:41Z</time>
      </trkpt>
      <trkpt lat="48.4067" lon="2.51865">
        <ele>138.364</ele>
        <time>2017-11-29T12:08:56Z</time>
      </trkpt>
      <trkpt lat="48.40655" lon="2.51844">
        <ele>138.308</ele>
        <time>2017-11-29T12:09:10Z</time>
      </trkpt>
      <trkpt lat="48.40644" lon="2.51836">
        <ele>138.206</ele>
        <time>2017-11-29T12:09:21Z</time>
      </trkpt>
      <trkpt lat="48.40621" lon="2.51845">
        <ele>138.003</ele>
        <time>2017-11-29T12:09:38Z</time>
      </trkpt>
      <trkpt lat="48.40613" lon="2.51826">
        <ele>137.855</ele>
        <time>2017-11-29T12:09:49Z</time>
      </trkpt>
      <trkpt lat="48.40618" lon="2.51797">
        <ele>137.712</ele>
        <time>2017-11-29T12:10:02Z</time>
      </trkpt>
      <trkpt lat="48.40622" lon="2.51776">
        <ele>137.658</ele>
        <time>2017-11-29T12:10:14Z</time>
      </trkpt>
      <trkpt lat="48.4063" lon="2.51739">
        <ele>137.67</ele>
        <time>2017-11-29T12:10:32Z</time>
      </trkpt>
      <trkpt lat="48.40639" lon="2.51719">
        <ele>137.631</ele>
        <time>2017-11-29T12:10:48Z</time>
      </trkpt>
      <trkpt lat="48.40643" lon="2.51701">
        <ele>137.416</ele>
        <time>2017-11-29T12:11:00Z</time>
      </trkpt>
      <trkpt lat="48.40651" lon="2.51658">
        <ele>136.87</ele>
        <time>2017-11-29T12:11:16Z</time>
      </trkpt>
      <trkpt lat="48.40656" lon="2.51639">
        <ele>136.511</ele>
        <time>2017-11-29T12:11:27Z</time>
      </trkpt>
      <trkpt lat="48.4066" lon="2.5162">
        <ele>136.19</ele>
        <time>2017-11-29T12:11:38Z</time>
      </trkpt>
      <trkpt lat="48.40672" lon="2.51595">
        <ele>135.694</ele>
        <time>2017-11-29T12:11:58Z</time>
      </trkpt>
      <trkpt lat="48.4068" lon="2.51571">
        <ele>135.452</ele>
        <time>2017-11-29T12:12:12Z</time>
      </trkpt>
      <trkpt lat="48.40691" lon="2.51537">
        <ele>135.284</ele>
        <time>2017-11-29T12:12:32Z</time>
      </trkpt>
      <trkpt lat="48.40698" lon="2.51523">
        <ele>135.19</ele>
        <time>2017-11-29T12:12:41Z</time>
      </trkpt>
      <trkpt lat="48.4071" lon="2.515">
        <ele>134.997</ele>
        <time>2017-11-29T12:12:57Z</time>
      </trkpt>
      <trkpt lat="48.40721" lon="2.5148">
        <ele>134.89</ele>
        <time>2017-11-29T12:13:11Z</time>
      </trkpt>
      <trkpt lat="48.40734" lon="2.51468">
        <ele>134.848</ele>
        <time>2017-11-29T12:13:23Z</time>
      </trkpt>
      <trkpt lat="48.40748" lon="2.5145">
        <ele>134.851</ele>
        <time>2017-11-29T12:13:38Z</time>
      </trkpt>
      <trkpt lat="48.40764" lon="2.51431">
        <ele>134.89</ele>
        <time>2017-11-29T12:13:53Z</time>
      </trkpt>
      <trkpt lat="48.40774" lon="2.51416">
        <ele>135</ele>
        <time>2017-11-29T12:14:07Z</time>
      </trkpt>
      <trkpt lat="48.4079" lon="2.51387">
        <ele>135.128</ele>
        <time>2017-11-29T12:14:23Z</time>
      </trkpt>
      <trkpt lat="48.40803" lon="2.51367">
        <ele>135.004</ele>
        <time>2017-11-29T12:14:37Z</time>
      </trkpt>
      <trkpt lat="48.40814" lon="2.51352">
        <ele>134.795</ele>
        <time>2017-11-29T12:14:48Z</time>
      </trkpt>
      <trkpt lat="48.40825" lon="2.51337">
        <ele>134.582</ele>
        <time>2017-11-29T12:14:58Z</time>
      </trkpt>
      <trkpt lat="48.40829" lon="2.51323">
        <ele>134.334</ele>
        <time>2017-11-29T12:15:09Z</time>
      </trkpt>
      <trkpt lat="48.4084" lon="2.51292">
        <ele>133.928</ele>
        <time>2017-11-29T12:15:24Z</time>
      </trkpt>
      <trkpt lat="48.40845" lon="2.51272">
        <ele>133.71</ele>
        <time>2017-11-29T12:15:33Z</time>
      </trkpt>
      <trkpt lat="48.40851" lon="2.51255">
        <ele>133.451</ele>
        <time>2017-11-29T12:15:45Z</time>
      </trkpt>
      <trkpt lat="48.40859" lon="2.51239">
        <ele>133.242</ele>
        <time>2017-11-29T12:15:55Z</time>
      </trkpt>
      <trkpt lat="48.40866" lon="2.51224">
        <ele>133.033</ele>
        <time>2017-11-29T12:16:04Z</time>
      </trkpt>
      <trkpt lat="48.40872" lon="2.51205">
        <ele>132.836</ele>
        <time>2017-11-29T12:16:12Z</time>
      </trkpt>
      <trkpt lat="48.40872" lon="2.51205">
        <ele>132.836</ele>
        <time>2017-11-29T12:16:20Z</time>
      </trkpt>
      <trkpt lat="48.40872" lon="2.51205">
        <ele>77.9</ele>
        <time>2017-11-29T12:16:20Z</time>
      </trkpt>
      <trkpt lat="48.40872" lon="2.51205">
        <ele>77.9</ele>
        <time>2017-11-29T12:16:29Z</time>
      </trkpt>
      <trkpt lat="48.40879" lon="2.51183">
        <ele>132.59</ele>
        <time>2017-11-29T12:16:29Z</time>
      </trkpt>
      <trkpt lat="48.40885" lon="2.51168">
        <ele>132.212</ele>
        <time>2017-11-29T12:16:41Z</time>
      </trkpt>
      <trkpt lat="48.40888" lon="2.51129">
        <ele>131.65</ele>
        <time>2017-11-29T12:16:59Z</time>
      </trkpt>
      <trkpt lat="48.40892" lon="2.51113">
        <ele>131.241</ele>
        <time>2017-11-29T12:17:11Z</time>
      </trkpt>
      <trkpt lat="48.40895" lon="2.51084">
        <ele>130.769</ele>
        <time>2017-11-29T12:17:26Z</time>
      </trkpt>
      <trkpt lat="48.409" lon="2.51066">
        <ele>130.508</ele>
        <time>2017-11-29T12:17:38Z</time>
      </trkpt>
      <trkpt lat="48.40907" lon="2.51031">
        <ele>130.283</ele>
        <time>2017-11-29T12:17:56Z</time>
      </trkpt>
      <trkpt lat="48.40909" lon="2.5101">
        <ele>130.215</ele>
        <time>2017-11-29T12:18:05Z</time>
      </trkpt>
      <trkpt lat="48.4091" lon="2.50982">
        <ele>130.128</ele>
        <time>2017-11-29T12:18:20Z</time>
      </trkpt>
      <trkpt lat="48.40914" lon="2.50957">
        <ele>130.043</ele>
        <time>2017-11-29T12:18:34Z</time>
      </trkpt>
      <trkpt lat="48.40916" lon="2.50942">
        <ele>130.009</ele>
        <time>2017-11-29T12:18:42Z</time>
      </trkpt>
      <trkpt lat="48.4092" lon="2.50924">
        <ele>129.983</ele>
        <time>2017-11-29T12:18:53Z</time>
      </trkpt>
      <trkpt lat="48.40928" lon="2.50886">
        <ele>129.983</ele>
        <time>2017-11-29T12:19:10Z</time>
      </trkpt>
      <trkpt lat="48.40932" lon="2.5086">
        <ele>129.984</ele>
        <time>2017-11-29T12:19:23Z</time>
      </trkpt>
      <trkpt lat="48.40935" lon="2.50838">
        <ele>129.95</ele>
        <time>2017-11-29T12:19:37Z</time>
      </trkpt>
      <trkpt lat="48.4094" lon="2.50814">
        <ele>129.894</ele>
        <time>2017-11-29T12:19:48Z</time>
      </trkpt>
      <trkpt lat="48.40944" lon="2.50791">
        <ele>129.859</ele>
        <time>2017-11-29T12:20:01Z</time>
      </trkpt>
      <trkpt lat="48.4095" lon="2.50764">
        <ele>129.82</ele>
        <time>2017-11-29T12:20:16Z</time>
      </trkpt>
      <trkpt lat="48.40953" lon="2.5074">
        <ele>129.729</ele>
        <time>2017-11-29T12:20:30Z</time>
      </trkpt>
      <trkpt lat="48.40951" lon="2.50702">
        <ele>129.605</ele>
        <time>2017-11-29T12:20:47Z</time>
      </trkpt>
      <trkpt lat="48.40951" lon="2.5068">
        <ele>129.532</ele>
        <time>2017-11-29T12:20:57Z</time>
      </trkpt>
      <trkpt lat="48.40951" lon="2.50653">
        <ele>129.438</ele>
        <time>2017-11-29T12:21:12Z</time>
      </trkpt>
      <trkpt lat="48.40952" lon="2.50633">
        <ele>129.383</ele>
        <time>2017-11-29T12:21:24Z</time>
      </trkpt>
      <trkpt lat="48.40952" lon="2.50606">
        <ele>129.324</ele>
        <time>2017-11-29T12:21:38Z</time>
      </trkpt>
      <trkpt lat="48.40951" lon="2.50572">
        <ele>129.237</ele>
        <time>2017-11-29T12:21:55Z</time>
      </trkpt>
      <trkpt lat="48.4095" lon="2.50553">
        <ele>129.199</ele>
        <time>2017-11-29T12:22:03Z</time>
      </trkpt>
      <trkpt lat="48.40949" lon="2.50544">
        <ele>129.175</ele>
        <time>2017-11-29T12:22:08Z</time>
      </trkpt>
      <trkpt lat="48.40948" lon="2.50512">
        <ele>129.104</ele>
        <time>2017-11-29T12:22:24Z</time>
      </trkpt>
      <trkpt lat="48.40944" lon="2.50477">
        <ele>129.072</ele>
        <time>2017-11-29T12:22:41Z</time>
      </trkpt>
      <trkpt lat="48.40941" lon="2.50448">
        <ele>129.067</ele>
        <time>2017-11-29T12:22:55Z</time>
      </trkpt>
      <trkpt lat="48.40944" lon="2.5042">
        <ele>129.075</ele>
        <time>2017-11-29T12:23:10Z</time>
      </trkpt>
      <trkpt lat="48.40948" lon="2.50397">
        <ele>129.056</ele>
        <time>2017-11-29T12:23:22Z</time>
      </trkpt>
      <trkpt lat="48.4095" lon="2.50385">
        <ele>129.057</ele>
        <time>2017-11-29T12:23:28Z</time>
      </trkpt>
      <trkpt lat="48.4095" lon="2.50385">
        <ele>78.4</ele>
        <time>2017-11-29T12:23:35Z</time>
      </trkpt>
      <trkpt lat="48.4095" lon="2.50385">
        <ele>78.4</ele>
        <time>2017-11-29T12:25:29Z</time>
      </trkpt>
      <trkpt lat="48.40968" lon="2.50353">
        <ele>127.906</ele>
        <time>2017-11-29T12:25:29Z</time>
      </trkpt>
      <trkpt lat="48.40996" lon="2.50333">
        <ele>127.408</ele>
        <time>2017-11-29T12:26:06Z</time>
      </trkpt>
      <trkpt lat="48.41017" lon="2.5032">
        <ele>127.274</ele>
        <time>2017-11-29T12:26:23Z</time>
      </trkpt>
      <trkpt lat="48.41028" lon="2.50311">
        <ele>127.216</ele>
        <time>2017-11-29T12:26:37Z</time>
      </trkpt>
      <trkpt lat="48.41047" lon="2.50304">
        <ele>127.187</ele>
        <time>2017-11-29T12:26:53Z</time>
      </trkpt>
      <trkpt lat="48.41059" lon="2.50289">
        <ele>127.193</ele>
        <time>2017-11-29T12:27:06Z</time>
      </trkpt>
      <trkpt lat="48.41059" lon="2.50289">
        <ele>84.6</ele>
        <time>2017-11-29T12:27:13Z</time>
      </trkpt>
      <trkpt lat="48.41059" lon="2.50289">
        <ele>84.6</ele>
        <time>2017-11-29T12:27:18Z</time>
      </trkpt>
      <trkpt lat="48.41067" lon="2.50288">
        <ele>127.233</ele>
        <time>2017-11-29T12:27:18Z</time>
      </trkpt>
      <trkpt lat="48.4108" lon="2.50293">
        <ele>127.317</ele>
        <time>2017-11-29T12:27:31Z</time>
      </trkpt>
      <trkpt lat="48.41096" lon="2.50299">
        <ele>127.384</ele>
        <time>2017-11-29T12:27:41Z</time>
      </trkpt>
      <trkpt lat="48.41111" lon="2.50306">
        <ele>127.464</ele>
        <time>2017-11-29T12:27:56Z</time>
      </trkpt>
      <trkpt lat="48.41118" lon="2.50314">
        <ele>127.549</ele>
        <time>2017-11-29T12:28:07Z</time>
      </trkpt>
      <trkpt lat="48.41118" lon="2.50314">
        <ele>89.9</ele>
        <time>2017-11-29T12:28:14Z</time>
      </trkpt>
      <trkpt lat="48.41118" lon="2.50314">
        <ele>89.9</ele>
        <time>2017-11-29T12:28:20Z</time>
      </trkpt>
      <trkpt lat="48.41126" lon="2.5032">
        <ele>127.636</ele>
        <time>2017-11-29T12:28:20Z</time>
      </trkpt>
      <trkpt lat="48.41148" lon="2.50319">
        <ele>127.705</ele>
        <time>2017-11-29T12:28:35Z</time>
      </trkpt>
      <trkpt lat="48.41165" lon="2.50317">
        <ele>127.739</ele>
        <time>2017-11-29T12:28:44Z</time>
      </trkpt>
      <trkpt lat="48.4118" lon="2.50309">
        <ele>127.816</ele>
        <time>2017-11-29T12:28:56Z</time>
      </trkpt>
      <trkpt lat="48.4118" lon="2.50309">
        <ele>127.816</ele>
        <time>2017-11-29T12:29:02Z</time>
      </trkpt>
      <trkpt lat="48.4118" lon="2.50309">
        <ele>92.7</ele>
        <time>2017-11-29T12:29:02Z</time>
      </trkpt>
      <trkpt lat="48.4118" lon="2.50309">
        <ele>92.7</ele>
        <time>2017-11-29T12:29:07Z</time>
      </trkpt>
      <trkpt lat="48.41188" lon="2.50302">
        <ele>127.933</ele>
        <time>2017-11-29T12:29:07Z</time>
      </trkpt>
      <trkpt lat="48.41203" lon="2.50289">
        <ele>128.16</ele>
        <time>2017-11-29T12:29:22Z</time>
      </trkpt>
      <trkpt lat="48.41214" lon="2.50276">
        <ele>128.35</ele>
        <time>2017-11-29T12:29:31Z</time>
      </trkpt>
      <trkpt lat="48.41235" lon="2.50262">
        <ele>128.696</ele>
        <time>2017-11-29T12:29:49Z</time>
      </trkpt>
      <trkpt lat="48.41254" lon="2.50256">
        <ele>128.972</ele>
        <time>2017-11-29T12:30:05Z</time>
      </trkpt>
      <trkpt lat="48.41269" lon="2.50249">
        <ele>129.157</ele>
        <time>2017-11-29T12:30:18Z</time>
      </trkpt>
      <trkpt lat="48.41284" lon="2.50228">
        <ele>129.402</ele>
        <time>2017-11-29T12:30:34Z</time>
      </trkpt>
      <trkpt lat="48.41294" lon="2.50208">
        <ele>129.579</ele>
        <time>2017-11-29T12:30:45Z</time>
      </trkpt>
      <trkpt lat="48.413" lon="2.50185">
        <ele>129.819</ele>
        <time>2017-11-29T12:31:00Z</time>
      </trkpt>
      <trkpt lat="48.41301" lon="2.50166">
        <ele>130.004</ele>
        <time>2017-11-29T12:31:12Z</time>
      </trkpt>
      <trkpt lat="48.41304" lon="2.50143">
        <ele>130.174</ele>
        <time>2017-11-29T12:31:23Z</time>
      </trkpt>
      <trkpt lat="48.41309" lon="2.50128">
        <ele>130.313</ele>
        <time>2017-11-29T12:31:33Z</time>
      </trkpt>
      <trkpt lat="48.41324" lon="2.50102">
        <ele>130.525</ele>
        <time>2017-11-29T12:31:51Z</time>
      </trkpt>
      <trkpt lat="48.41338" lon="2.50084">
        <ele>130.677</ele>
        <time>2017-11-29T12:32:06Z</time>
      </trkpt>
      <trkpt lat="48.41351" lon="2.50063">
        <ele>130.871</ele>
        <time>2017-11-29T12:32:21Z</time>
      </trkpt>
      <trkpt lat="48.41361" lon="2.50049">
        <ele>131.08</ele>
        <time>2017-11-29T12:32:34Z</time>
      </trkpt>
      <trkpt lat="48.41372" lon="2.50039">
        <ele>131.259</ele>
        <time>2017-11-29T12:32:47Z</time>
      </trkpt>
      <trkpt lat="48.41388" lon="2.50029">
        <ele>131.466</ele>
        <time>2017-11-29T12:33:04Z</time>
      </trkpt>
      <trkpt lat="48.414" lon="2.50028">
        <ele>131.544</ele>
        <time>2017-11-29T12:33:11Z</time>
      </trkpt>
      <trkpt lat="48.41411" lon="2.50031">
        <ele>131.645</ele>
        <time>2017-11-29T12:33:20Z</time>
      </trkpt>
      <trkpt lat="48.41432" lon="2.50039">
        <ele>131.871</ele>
        <time>2017-11-29T12:33:37Z</time>
      </trkpt>
      <trkpt lat="48.41451" lon="2.50048">
        <ele>132.18</ele>
        <time>2017-11-29T12:33:51Z</time>
      </trkpt>
      <trkpt lat="48.41466" lon="2.50054">
        <ele>132.496</ele>
        <time>2017-11-29T12:34:03Z</time>
      </trkpt>
      <trkpt lat="48.41481" lon="2.50058">
        <ele>132.867</ele>
        <time>2017-11-29T12:34:18Z</time>
      </trkpt>
      <trkpt lat="48.41485" lon="2.50058">
        <ele>132.983</ele>
        <time>2017-11-29T12:34:23Z</time>
      </trkpt>
      <trkpt lat="48.41485" lon="2.50058">
        <ele>89.5</ele>
        <time>2017-11-29T12:34:30Z</time>
      </trkpt>
      <trkpt lat="48.41485" lon="2.50058">
        <ele>89.5</ele>
        <time>2017-11-29T12:37:32Z</time>
      </trkpt>
      <trkpt lat="48.415" lon="2.50056">
        <ele>133.771</ele>
        <time>2017-11-29T12:37:32Z</time>
      </trkpt>
      <trkpt lat="48.41527" lon="2.50051">
        <ele>134.136</ele>
        <time>2017-11-29T12:38:08Z</time>
      </trkpt>
      <trkpt lat="48.41538" lon="2.50044">
        <ele>134.231</ele>
        <time>2017-11-29T12:38:20Z</time>
      </trkpt>
      <trkpt lat="48.41542" lon="2.5004">
        <ele>134.267</ele>
        <time>2017-11-29T12:38:25Z</time>
      </trkpt>
      <trkpt lat="48.41542" lon="2.5004">
        <ele>95.4</ele>
        <time>2017-11-29T12:38:33Z</time>
      </trkpt>
      <trkpt lat="48.41542" lon="2.5004">
        <ele>95.4</ele>
        <time>2017-11-29T12:39:26Z</time>
      </trkpt>
      <trkpt lat="48.41569" lon="2.50022">
        <ele>134.532</ele>
        <time>2017-11-29T12:39:26Z</time>
      </trkpt>
      <trkpt lat="48.41578" lon="2.50012">
        <ele>134.604</ele>
        <time>2017-11-29T12:39:38Z</time>
      </trkpt>
      <trkpt lat="48.41587" lon="2.5">
        <ele>134.727</ele>
        <time>2017-11-29T12:39:51Z</time>
      </trkpt>
      <trkpt lat="48.41601" lon="2.50009">
        <ele>134.863</ele>
        <time>2017-11-29T12:40:04Z</time>
      </trkpt>
      <trkpt lat="48.41606" lon="2.50007">
        <ele>134.93</ele>
        <time>2017-11-29T12:40:09Z</time>
      </trkpt>
      <trkpt lat="48.41606" lon="2.50007">
        <ele>104.6</ele>
        <time>2017-11-29T12:40:17Z</time>
      </trkpt>
      <trkpt lat="48.41606" lon="2.50007">
        <ele>104.6</ele>
        <time>2017-11-29T12:40:22Z</time>
      </trkpt>
      <trkpt lat="48.41614" lon="2.50008">
        <ele>135.161</ele>
        <time>2017-11-29T12:40:22Z</time>
      </trkpt>
      <trkpt lat="48.4163" lon="2.50011">
        <ele>135.561</ele>
        <time>2017-11-29T12:40:38Z</time>
      </trkpt>
      <trkpt lat="48.41642" lon="2.5002">
        <ele>136.018</ele>
        <time>2017-11-29T12:40:53Z</time>
      </trkpt>
      <trkpt lat="48.41654" lon="2.50029">
        <ele>136.657</ele>
        <time>2017-11-29T12:41:10Z</time>
      </trkpt>
      <trkpt lat="48.41666" lon="2.50041">
        <ele>137.286</ele>
        <time>2017-11-29T12:41:24Z</time>
      </trkpt>
      <trkpt lat="48.41675" lon="2.50053">
        <ele>137.842</ele>
        <time>2017-11-29T12:41:36Z</time>
      </trkpt>
      <trkpt lat="48.41688" lon="2.50086">
        <ele>139.472</ele>
        <time>2017-11-29T12:42:19Z</time>
      </trkpt>
      <trkpt lat="48.41696" lon="2.501">
        <ele>140.116</ele>
        <time>2017-11-29T12:42:37Z</time>
      </trkpt>
      <trkpt lat="48.41708" lon="2.50119">
        <ele>140.677</ele>
        <time>2017-11-29T12:42:54Z</time>
      </trkpt>
      <trkpt lat="48.41715" lon="2.50126">
        <ele>140.94</ele>
        <time>2017-11-29T12:43:02Z</time>
      </trkpt>
      <trkpt lat="48.4173" lon="2.5016">
        <ele>142</ele>
        <time>2017-11-29T12:43:36Z</time>
      </trkpt>
      <trkpt lat="48.4174" lon="2.50121">
        <ele>142.966</ele>
        <time>2017-11-29T12:44:17Z</time>
      </trkpt>
      <trkpt lat="48.41741" lon="2.50073">
        <ele>143.238</ele>
        <time>2017-11-29T12:44:36Z</time>
      </trkpt>
      <trkpt lat="48.41745" lon="2.50038">
        <ele>143.425</ele>
        <time>2017-11-29T12:44:52Z</time>
      </trkpt>
      <trkpt lat="48.41754" lon="2.50001">
        <ele>143.607</ele>
        <time>2017-11-29T12:45:09Z</time>
      </trkpt>
      <trkpt lat="48.41762" lon="2.4998">
        <ele>143.757</ele>
        <time>2017-11-29T12:45:20Z</time>
      </trkpt>
      <trkpt lat="48.41768" lon="2.49955">
        <ele>143.979</ele>
        <time>2017-11-29T12:45:35Z</time>
      </trkpt>
      <trkpt lat="48.41774" lon="2.49913">
        <ele>144.462</ele>
        <time>2017-11-29T12:46:08Z</time>
      </trkpt>
      <trkpt lat="48.41776" lon="2.49894">
        <ele>144.62</ele>
        <time>2017-11-29T12:46:18Z</time>
      </trkpt>
      <trkpt lat="48.41783" lon="2.49865">
        <ele>145.047</ele>
        <time>2017-11-29T12:46:36Z</time>
      </trkpt>
      <trkpt lat="48.41788" lon="2.49834">
        <ele>145.437</ele>
        <time>2017-11-29T12:46:52Z</time>
      </trkpt>
      <trkpt lat="48.41791" lon="2.49811">
        <ele>145.655</ele>
        <time>2017-11-29T12:47:05Z</time>
      </trkpt>
      <trkpt lat="48.41798" lon="2.49788">
        <ele>145.83</ele>
        <time>2017-11-29T12:47:21Z</time>
      </trkpt>
      <trkpt lat="48.41802" lon="2.4977">
        <ele>145.966</ele>
        <time>2017-11-29T12:47:33Z</time>
      </trkpt>
      <trkpt lat="48.41806" lon="2.49736">
        <ele>146.251</ele>
        <time>2017-11-29T12:47:52Z</time>
      </trkpt>
      <trkpt lat="48.41807" lon="2.49707">
        <ele>146.555</ele>
        <time>2017-11-29T12:48:11Z</time>
      </trkpt>
      <trkpt lat="48.41815" lon="2.49672">
        <ele>146.866</ele>
        <time>2017-11-29T12:48:30Z</time>
      </trkpt>
      <trkpt lat="48.41816" lon="2.49648">
        <ele>147.053</ele>
        <time>2017-11-29T12:48:45Z</time>
      </trkpt>
      <trkpt lat="48.41823" lon="2.49627">
        <ele>147.196</ele>
        <time>2017-11-29T12:49:01Z</time>
      </trkpt>
      <trkpt lat="48.41831" lon="2.496">
        <ele>147.268</ele>
        <time>2017-11-29T12:49:16Z</time>
      </trkpt>
      <trkpt lat="48.41836" lon="2.49582">
        <ele>147.283</ele>
        <time>2017-11-29T12:49:28Z</time>
      </trkpt>
      <trkpt lat="48.41838" lon="2.49563">
        <ele>147.293</ele>
        <time>2017-11-29T12:49:41Z</time>
      </trkpt>
      <trkpt lat="48.4184" lon="2.4953">
        <ele>147.286</ele>
        <time>2017-11-29T12:49:57Z</time>
      </trkpt>
      <trkpt lat="48.41843" lon="2.49498">
        <ele>147.247</ele>
        <time>2017-11-29T12:50:14Z</time>
      </trkpt>
      <trkpt lat="48.41847" lon="2.49471">
        <ele>147.156</ele>
        <time>2017-11-29T12:50:30Z</time>
      </trkpt>
      <trkpt lat="48.41855" lon="2.49443">
        <ele>147.052</ele>
        <time>2017-11-29T12:50:48Z</time>
      </trkpt>
      <trkpt lat="48.4186" lon="2.49414">
        <ele>146.939</ele>
        <time>2017-11-29T12:51:04Z</time>
      </trkpt>
      <trkpt lat="48.4187" lon="2.4939">
        <ele>146.806</ele>
        <time>2017-11-29T12:51:20Z</time>
      </trkpt>
      <trkpt lat="48.4188" lon="2.49374">
        <ele>146.649</ele>
        <time>2017-11-29T12:51:38Z</time>
      </trkpt>
      <trkpt lat="48.41898" lon="2.49368">
        <ele>146.565</ele>
        <time>2017-11-29T12:51:55Z</time>
      </trkpt>
      <trkpt lat="48.41915" lon="2.49369">
        <ele>146.574</ele>
        <time>2017-11-29T12:52:11Z</time>
      </trkpt>
      <trkpt lat="48.41933" lon="2.49361">
        <ele>146.637</ele>
        <time>2017-11-29T12:52:29Z</time>
      </trkpt>
      <trkpt lat="48.4195" lon="2.49359">
        <ele>146.756</ele>
        <time>2017-11-29T12:52:48Z</time>
      </trkpt>
      <trkpt lat="48.41955" lon="2.49354">
        <ele>146.779</ele>
        <time>2017-11-29T12:52:52Z</time>
      </trkpt>
      <trkpt lat="48.41955" lon="2.49354">
        <ele>112.3</ele>
        <time>2017-11-29T12:52:59Z</time>
      </trkpt>
      <trkpt lat="48.41955" lon="2.49354">
        <ele>112.3</ele>
        <time>2017-11-29T12:55:31Z</time>
      </trkpt>
      <trkpt lat="48.41976" lon="2.49335">
        <ele>147.479</ele>
        <time>2017-11-29T12:55:31Z</time>
      </trkpt>
      <trkpt lat="48.41986" lon="2.49296">
        <ele>148.032</ele>
        <time>2017-11-29T12:56:15Z</time>
      </trkpt>
      <trkpt lat="48.41987" lon="2.49258">
        <ele>149.571</ele>
        <time>2017-11-29T12:57:38Z</time>
      </trkpt>
      <trkpt lat="48.41995" lon="2.49248">
        <ele>149.807</ele>
        <time>2017-11-29T12:57:47Z</time>
      </trkpt>
      <trkpt lat="48.41995" lon="2.4923">
        <ele>150.115</ele>
        <time>2017-11-29T12:57:59Z</time>
      </trkpt>
      <trkpt lat="48.42" lon="2.49212">
        <ele>150.528</ele>
        <time>2017-11-29T12:58:16Z</time>
      </trkpt>
      <trkpt lat="48.42007" lon="2.49193">
        <ele>150.828</ele>
        <time>2017-11-29T12:58:32Z</time>
      </trkpt>
      <trkpt lat="48.42009" lon="2.49189">
        <ele>150.894</ele>
        <time>2017-11-29T12:58:36Z</time>
      </trkpt>
      <trkpt lat="48.42009" lon="2.49189">
        <ele>118.4</ele>
        <time>2017-11-29T12:58:44Z</time>
      </trkpt>
      <trkpt lat="48.42009" lon="2.49189">
        <ele>118.4</ele>
        <time>2017-11-29T12:59:39Z</time>
      </trkpt>
      <trkpt lat="48.42026" lon="2.49152">
        <ele>151.652</ele>
        <time>2017-11-29T12:59:39Z</time>
      </trkpt>
      <trkpt lat="48.42032" lon="2.49133">
        <ele>151.877</ele>
        <time>2017-11-29T12:59:55Z</time>
      </trkpt>
      <trkpt lat="48.42035" lon="2.49114">
        <ele>152.033</ele>
        <time>2017-11-29T13:00:09Z</time>
      </trkpt>
      <trkpt lat="48.42037" lon="2.49072">
        <ele>152.22</ele>
        <time>2017-11-29T13:00:43Z</time>
      </trkpt>
      <trkpt lat="48.42041" lon="2.49051">
        <ele>152.285</ele>
        <time>2017-11-29T13:00:57Z</time>
      </trkpt>
      <trkpt lat="48.4205" lon="2.49018">
        <ele>152.492</ele>
        <time>2017-11-29T13:01:19Z</time>
      </trkpt>
      <trkpt lat="48.42052" lon="2.49001">
        <ele>152.636</ele>
        <time>2017-11-29T13:01:32Z</time>
      </trkpt>
      <trkpt lat="48.42055" lon="2.48995">
        <ele>152.689</ele>
        <time>2017-11-29T13:01:37Z</time>
      </trkpt>
      <trkpt lat="48.42055" lon="2.48995">
        <ele>122</ele>
        <time>2017-11-29T13:01:44Z</time>
      </trkpt>
      <trkpt lat="48.42055" lon="2.48995">
        <ele>122</ele>
        <time>2017-11-29T13:01:49Z</time>
      </trkpt>
      <trkpt lat="48.42059" lon="2.48981">
        <ele>152.838</ele>
        <time>2017-11-29T13:01:49Z</time>
      </trkpt>
      <trkpt lat="48.42064" lon="2.4896">
        <ele>152.99</ele>
        <time>2017-11-29T13:02:02Z</time>
      </trkpt>
      <trkpt lat="48.42072" lon="2.48945">
        <ele>153.167</ele>
        <time>2017-11-29T13:02:18Z</time>
      </trkpt>
      <trkpt lat="48.42077" lon="2.48923">
        <ele>153.426</ele>
        <time>2017-11-29T13:02:38Z</time>
      </trkpt>
      <trkpt lat="48.4208" lon="2.48901">
        <ele>153.649</ele>
        <time>2017-11-29T13:02:55Z</time>
      </trkpt>
      <trkpt lat="48.42085" lon="2.48881">
        <ele>153.869</ele>
        <time>2017-11-29T13:03:12Z</time>
      </trkpt>
      <trkpt lat="48.42089" lon="2.48862">
        <ele>154.027</ele>
        <time>2017-11-29T13:03:26Z</time>
      </trkpt>
      <trkpt lat="48.42089" lon="2.48862">
        <ele>154.027</ele>
        <time>2017-11-29T13:03:34Z</time>
      </trkpt>
      <trkpt lat="48.42089" lon="2.48862">
        <ele>123</ele>
        <time>2017-11-29T13:03:34Z</time>
      </trkpt>
      <trkpt lat="48.42089" lon="2.48862">
        <ele>123</ele>
        <time>2017-11-29T13:03:43Z</time>
      </trkpt>
      <trkpt lat="48.42095" lon="2.48843">
        <ele>154.199</ele>
        <time>2017-11-29T13:03:43Z</time>
      </trkpt>
      <trkpt lat="48.42105" lon="2.48826">
        <ele>154.335</ele>
        <time>2017-11-29T13:03:59Z</time>
      </trkpt>
      <trkpt lat="48.42113" lon="2.48804">
        <ele>154.456</ele>
        <time>2017-11-29T13:04:15Z</time>
      </trkpt>
      <trkpt lat="48.4212" lon="2.4879">
        <ele>154.543</ele>
        <time>2017-11-29T13:04:25Z</time>
      </trkpt>
      <trkpt lat="48.4213" lon="2.48774">
        <ele>154.666</ele>
        <time>2017-11-29T13:04:41Z</time>
      </trkpt>
      <trkpt lat="48.42138" lon="2.48755">
        <ele>154.753</ele>
        <time>2017-11-29T13:04:57Z</time>
      </trkpt>
      <trkpt lat="48.4214" lon="2.48735">
        <ele>154.879</ele>
        <time>2017-11-29T13:05:13Z</time>
      </trkpt>
      <trkpt lat="48.42135" lon="2.48714">
        <ele>155.09</ele>
        <time>2017-11-29T13:05:26Z</time>
      </trkpt>
      <trkpt lat="48.4213" lon="2.48694">
        <ele>155.461</ele>
        <time>2017-11-29T13:05:44Z</time>
      </trkpt>
      <trkpt lat="48.42128" lon="2.48688">
        <ele>155.543</ele>
        <time>2017-11-29T13:05:48Z</time>
      </trkpt>
      <trkpt lat="48.42128" lon="2.48688">
        <ele>122</ele>
        <time>2017-11-29T13:05:55Z</time>
      </trkpt>
      <trkpt lat="48.42128" lon="2.48688">
        <ele>122</ele>
        <time>2017-11-29T13:06:27Z</time>
      </trkpt>
      <trkpt lat="48.42125" lon="2.48661">
        <ele>155.972</ele>
        <time>2017-11-29T13:06:27Z</time>
      </trkpt>
      <trkpt lat="48.42136" lon="2.4865">
        <ele>156.113</ele>
        <time>2017-11-29T13:06:44Z</time>
      </trkpt>
      <trkpt lat="48.42139" lon="2.4865">
        <ele>156.143</ele>
        <time>2017-11-29T13:06:48Z</time>
      </trkpt>
      <trkpt lat="48.42139" lon="2.4865">
        <ele>123.6</ele>
        <time>2017-11-29T13:06:56Z</time>
      </trkpt>
      <trkpt lat="48.42139" lon="2.4865">
        <ele>123.6</ele>
        <time>2017-11-29T13:07:33Z</time>
      </trkpt>
      <trkpt lat="48.42165" lon="2.48626">
        <ele>156.401</ele>
        <time>2017-11-29T13:07:33Z</time>
      </trkpt>
      <trkpt lat="48.42167" lon="2.48603">
        <ele>156.477</ele>
        <time>2017-11-29T13:07:45Z</time>
      </trkpt>
      <trkpt lat="48.42178" lon="2.48579">
        <ele>156.547</ele>
        <time>2017-11-29T13:08:01Z</time>
      </trkpt>
      <trkpt lat="48.42187" lon="2.48567">
        <ele>156.584</ele>
        <time>2017-11-29T13:08:14Z</time>
      </trkpt>
      <trkpt lat="48.42187" lon="2.48567">
        <ele>115.5</ele>
        <time>2017-11-29T13:08:21Z</time>
      </trkpt>
      <trkpt lat="48.42187" lon="2.48567">
        <ele>115.5</ele>
        <time>2017-11-29T13:08:45Z</time>
      </trkpt>
      <trkpt lat="48.42209" lon="2.48572">
        <ele>156.516</ele>
        <time>2017-11-29T13:08:45Z</time>
      </trkpt>
      <trkpt lat="48.42209" lon="2.48572">
        <ele>156.516</ele>
        <time>2017-11-29T13:08:53Z</time>
      </trkpt>
      <trkpt lat="48.42209" lon="2.48572">
        <ele>110</ele>
        <time>2017-11-29T13:08:53Z</time>
      </trkpt>
      <trkpt lat="48.42209" lon="2.48572">
        <ele>110</ele>
        <time>2017-11-29T13:09:29Z</time>
      </trkpt>
      <trkpt lat="48.42225" lon="2.48573">
        <ele>156.319</ele>
        <time>2017-11-29T13:09:29Z</time>
      </trkpt>
      <trkpt lat="48.42252" lon="2.4859">
        <ele>155.827</ele>
        <time>2017-11-29T13:10:32Z</time>
      </trkpt>
      <trkpt lat="48.4226" lon="2.48596">
        <ele>155.743</ele>
        <time>2017-11-29T13:10:39Z</time>
      </trkpt>
      <trkpt lat="48.4226" lon="2.48596">
        <ele>97.6</ele>
        <time>2017-11-29T13:10:44Z</time>
      </trkpt>
      <trkpt lat="48.4226" lon="2.48596">
        <ele>97.6</ele>
        <time>2017-11-29T13:10:49Z</time>
      </trkpt>
      <trkpt lat="48.42268" lon="2.48598">
        <ele>155.624</ele>
        <time>2017-11-29T13:10:49Z</time>
      </trkpt>
      <trkpt lat="48.42288" lon="2.48584">
        <ele>155.491</ele>
        <time>2017-11-29T13:10:59Z</time>
      </trkpt>
      <trkpt lat="48.42288" lon="2.48584">
        <ele>89.2</ele>
        <time>2017-11-29T13:11:07Z</time>
      </trkpt>
      <trkpt lat="48.42288" lon="2.48584">
        <ele>89.2</ele>
        <time>2017-11-29T13:11:39Z</time>
      </trkpt>
      <trkpt lat="48.42314" lon="2.48593">
        <ele>154.679</ele>
        <time>2017-11-29T13:11:39Z</time>
      </trkpt>
      <trkpt lat="48.42319" lon="2.48605">
        <ele>154.467</ele>
        <time>2017-11-29T13:11:47Z</time>
      </trkpt>
      <trkpt lat="48.4233" lon="2.48617">
        <ele>154.161</ele>
        <time>2017-11-29T13:11:59Z</time>
      </trkpt>
      <trkpt lat="48.42345" lon="2.48626">
        <ele>153.863</ele>
        <time>2017-11-29T13:12:11Z</time>
      </trkpt>
      <trkpt lat="48.42368" lon="2.48624">
        <ele>153.481</ele>
        <time>2017-11-29T13:12:25Z</time>
      </trkpt>
      <trkpt lat="48.42388" lon="2.48613">
        <ele>153.207</ele>
        <time>2017-11-29T13:12:34Z</time>
      </trkpt>
      <trkpt lat="48.4239" lon="2.48608">
        <ele>153.138</ele>
        <time>2017-11-29T13:12:37Z</time>
      </trkpt>
      <trkpt lat="48.4239" lon="2.48608">
        <ele>77.9</ele>
        <time>2017-11-29T13:12:45Z</time>
      </trkpt>
      <trkpt lat="48.4239" lon="2.48608">
        <ele>77.9</ele>
        <time>2017-11-29T13:12:54Z</time>
      </trkpt>
      <trkpt lat="48.42397" lon="2.486">
        <ele>152.62</ele>
        <time>2017-11-29T13:12:54Z</time>
      </trkpt>
      <trkpt lat="48.42397" lon="2.486">
        <ele>152.62</ele>
        <time>2017-11-29T13:14:57Z</time>
      </trkpt>
      <trkpt lat="48.42426" lon="2.48591">
        <ele>150.11</ele>
        <time>2017-11-29T13:15:07Z</time>
      </trkpt>
      <trkpt lat="48.42441" lon="2.4859">
        <ele>149.857</ele>
        <time>2017-11-29T13:15:18Z</time>
      </trkpt>
      <trkpt lat="48.42441" lon="2.4859">
        <ele>149.857</ele>
        <time>2017-11-29T13:15:23Z</time>
      </trkpt>
      <trkpt lat="48.42441" lon="2.4859">
        <ele>77</ele>
        <time>2017-11-29T13:15:23Z</time>
      </trkpt>
      <trkpt lat="48.42441" lon="2.4859">
        <ele>77</ele>
        <time>2017-11-29T13:15:36Z</time>
      </trkpt>
      <trkpt lat="48.42459" lon="2.48586">
        <ele>149.452</ele>
        <time>2017-11-29T13:15:36Z</time>
      </trkpt>
      <trkpt lat="48.42482" lon="2.48581">
        <ele>149.087</ele>
        <time>2017-11-29T13:15:50Z</time>
      </trkpt>
      <trkpt lat="48.42495" lon="2.4858">
        <ele>148.756</ele>
        <time>2017-11-29T13:16:01Z</time>
      </trkpt>
      <trkpt lat="48.42511" lon="2.48586">
        <ele>148.302</ele>
        <time>2017-11-29T13:16:14Z</time>
      </trkpt>
      <trkpt lat="48.42527" lon="2.48589">
        <ele>147.843</ele>
        <time>2017-11-29T13:16:27Z</time>
      </trkpt>
      <trkpt lat="48.42542" lon="2.48587">
        <ele>147.468</ele>
        <time>2017-11-29T13:16:38Z</time>
      </trkpt>
      <trkpt lat="48.42559" lon="2.48585">
        <ele>147.071</ele>
        <time>2017-11-29T13:16:51Z</time>
      </trkpt>
      <trkpt lat="48.4258" lon="2.48572">
        <ele>146.706</ele>
        <time>2017-11-29T13:17:05Z</time>
      </trkpt>
      <trkpt lat="48.4258" lon="2.48565">
        <ele>146.573</ele>
        <time>2017-11-29T13:17:10Z</time>
      </trkpt>
      <trkpt lat="48.4258" lon="2.48565">
        <ele>75.1</ele>
        <time>2017-11-29T13:17:17Z</time>
      </trkpt>
      <trkpt lat="48.4258" lon="2.48565">
        <ele>75.1</ele>
        <time>2017-11-29T13:21:45Z</time>
      </trkpt>
      <trkpt lat="48.42574" lon="2.48537">
        <ele>143.143</ele>
        <time>2017-11-29T13:21:45Z</time>
      </trkpt>
      <trkpt lat="48.4257" lon="2.48521">
        <ele>142.686</ele>
        <time>2017-11-29T13:21:56Z</time>
      </trkpt>
      <trkpt lat="48.42563" lon="2.48496">
        <ele>141.984</ele>
        <time>2017-11-29T13:22:15Z</time>
      </trkpt>
      <trkpt lat="48.42557" lon="2.48451">
        <ele>141.326</ele>
        <time>2017-11-29T13:22:35Z</time>
      </trkpt>
      <trkpt lat="48.42555" lon="2.48423">
        <ele>140.926</ele>
        <time>2017-11-29T13:22:49Z</time>
      </trkpt>
      <trkpt lat="48.4255" lon="2.48399">
        <ele>140.564</ele>
        <time>2017-11-29T13:23:04Z</time>
      </trkpt>
      <trkpt lat="48.42547" lon="2.48364">
        <ele>140.192</ele>
        <time>2017-11-29T13:23:20Z</time>
      </trkpt>
      <trkpt lat="48.42545" lon="2.48339">
        <ele>139.95</ele>
        <time>2017-11-29T13:23:32Z</time>
      </trkpt>
      <trkpt lat="48.42547" lon="2.48299">
        <ele>139.589</ele>
        <time>2017-11-29T13:23:53Z</time>
      </trkpt>
      <trkpt lat="48.42543" lon="2.48265">
        <ele>139.304</ele>
        <time>2017-11-29T13:24:08Z</time>
      </trkpt>
      <trkpt lat="48.42541" lon="2.48237">
        <ele>138.979</ele>
        <time>2017-11-29T13:24:22Z</time>
      </trkpt>
      <trkpt lat="48.42541" lon="2.4822">
        <ele>138.797</ele>
        <time>2017-11-29T13:24:29Z</time>
      </trkpt>
      <trkpt lat="48.42546" lon="2.48196">
        <ele>138.443</ele>
        <time>2017-11-29T13:24:43Z</time>
      </trkpt>
      <trkpt lat="48.42548" lon="2.48171">
        <ele>138.131</ele>
        <time>2017-11-29T13:24:55Z</time>
      </trkpt>
      <trkpt lat="48.4255" lon="2.48144">
        <ele>137.708</ele>
        <time>2017-11-29T13:25:11Z</time>
      </trkpt>
      <trkpt lat="48.42551" lon="2.48123">
        <ele>137.429</ele>
        <time>2017-11-29T13:25:23Z</time>
      </trkpt>
      <trkpt lat="48.4255" lon="2.48094">
        <ele>137.161</ele>
        <time>2017-11-29T13:25:35Z</time>
      </trkpt>
      <trkpt lat="48.42548" lon="2.48073">
        <ele>136.889</ele>
        <time>2017-11-29T13:25:48Z</time>
      </trkpt>
      <trkpt lat="48.42546" lon="2.48038">
        <ele>136.578</ele>
        <time>2017-11-29T13:26:04Z</time>
      </trkpt>
      <trkpt lat="48.42547" lon="2.48011">
        <ele>136.341</ele>
        <time>2017-11-29T13:26:16Z</time>
      </trkpt>
      <trkpt lat="48.42547" lon="2.47989">
        <ele>136.118</ele>
        <time>2017-11-29T13:26:27Z</time>
      </trkpt>
      <trkpt lat="48.42544" lon="2.47963">
        <ele>135.791</ele>
        <time>2017-11-29T13:26:42Z</time>
      </trkpt>
      <trkpt lat="48.42543" lon="2.47942">
        <ele>135.583</ele>
        <time>2017-11-29T13:26:50Z</time>
      </trkpt>
      <trkpt lat="48.42543" lon="2.47933">
        <ele>135.449</ele>
        <time>2017-11-29T13:26:55Z</time>
      </trkpt>
      <trkpt lat="48.42542" lon="2.4791">
        <ele>135.08</ele>
        <time>2017-11-29T13:27:10Z</time>
      </trkpt>
      <trkpt lat="48.42543" lon="2.47876">
        <ele>134.711</ele>
        <time>2017-11-29T13:27:26Z</time>
      </trkpt>
      <trkpt lat="48.4254" lon="2.47842">
        <ele>134.386</ele>
        <time>2017-11-29T13:27:42Z</time>
      </trkpt>
      <trkpt lat="48.42538" lon="2.47819">
        <ele>134.207</ele>
        <time>2017-11-29T13:27:52Z</time>
      </trkpt>
      <trkpt lat="48.42535" lon="2.47796">
        <ele>133.992</ele>
        <time>2017-11-29T13:28:04Z</time>
      </trkpt>
      <trkpt lat="48.42535" lon="2.47771">
        <ele>133.774</ele>
        <time>2017-11-29T13:28:17Z</time>
      </trkpt>
      <trkpt lat="48.42533" lon="2.47749">
        <ele>133.635</ele>
        <time>2017-11-29T13:28:28Z</time>
      </trkpt>
      <trkpt lat="48.42533" lon="2.47718">
        <ele>133.475</ele>
        <time>2017-11-29T13:28:43Z</time>
      </trkpt>
      <trkpt lat="48.42532" lon="2.47698">
        <ele>133.388</ele>
        <time>2017-11-29T13:28:54Z</time>
      </trkpt>
      <trkpt lat="48.42529" lon="2.47678">
        <ele>133.308</ele>
        <time>2017-11-29T13:29:07Z</time>
      </trkpt>
      <trkpt lat="48.42535" lon="2.47641">
        <ele>133.199</ele>
        <time>2017-11-29T13:29:25Z</time>
      </trkpt>
      <trkpt lat="48.42535" lon="2.47609">
        <ele>132.98</ele>
        <time>2017-11-29T13:29:43Z</time>
      </trkpt>
      <trkpt lat="48.42531" lon="2.47583">
        <ele>132.712</ele>
        <time>2017-11-29T13:29:58Z</time>
      </trkpt>
      <trkpt lat="48.42522" lon="2.47554">
        <ele>132.364</ele>
        <time>2017-11-29T13:30:15Z</time>
      </trkpt>
      <trkpt lat="48.42519" lon="2.47534">
        <ele>132.145</ele>
        <time>2017-11-29T13:30:26Z</time>
      </trkpt>
      <trkpt lat="48.42519" lon="2.47497">
        <ele>131.791</ele>
        <time>2017-11-29T13:30:43Z</time>
      </trkpt>
      <trkpt lat="48.42514" lon="2.4747">
        <ele>131.504</ele>
        <time>2017-11-29T13:30:57Z</time>
      </trkpt>
      <trkpt lat="48.42516" lon="2.47449">
        <ele>131.235</ele>
        <time>2017-11-29T13:31:10Z</time>
      </trkpt>
      <trkpt lat="48.4252" lon="2.4742">
        <ele>130.912</ele>
        <time>2017-11-29T13:31:26Z</time>
      </trkpt>
      <trkpt lat="48.42519" lon="2.4739">
        <ele>130.616</ele>
        <time>2017-11-29T13:31:42Z</time>
      </trkpt>
      <trkpt lat="48.42521" lon="2.4736">
        <ele>130.388</ele>
        <time>2017-11-29T13:32:00Z</time>
      </trkpt>
      <trkpt lat="48.42526" lon="2.47338">
        <ele>130.296</ele>
        <time>2017-11-29T13:32:14Z</time>
      </trkpt>
      <trkpt lat="48.42532" lon="2.47311">
        <ele>130.196</ele>
        <time>2017-11-29T13:32:28Z</time>
      </trkpt>
      <trkpt lat="48.42537" lon="2.47288">
        <ele>130.065</ele>
        <time>2017-11-29T13:32:46Z</time>
      </trkpt>
      <trkpt lat="48.42541" lon="2.47258">
        <ele>129.896</ele>
        <time>2017-11-29T13:33:08Z</time>
      </trkpt>
      <trkpt lat="48.42546" lon="2.4724">
        <ele>129.847</ele>
        <time>2017-11-29T13:33:16Z</time>
      </trkpt>
      <trkpt lat="48.4255" lon="2.47214">
        <ele>129.719</ele>
        <time>2017-11-29T13:33:32Z</time>
      </trkpt>
      <trkpt lat="48.42558" lon="2.47196">
        <ele>129.433</ele>
        <time>2017-11-29T13:33:52Z</time>
      </trkpt>
      <trkpt lat="48.42567" lon="2.47184">
        <ele>129.182</ele>
        <time>2017-11-29T13:34:04Z</time>
      </trkpt>
      <trkpt lat="48.42585" lon="2.47165">
        <ele>128.823</ele>
        <time>2017-11-29T13:34:21Z</time>
      </trkpt>
      <trkpt lat="48.42601" lon="2.47152">
        <ele>128.563</ele>
        <time>2017-11-29T13:34:34Z</time>
      </trkpt>
      <trkpt lat="48.42601" lon="2.47152">
        <ele>76.8</ele>
        <time>2017-11-29T13:34:41Z</time>
      </trkpt>
      <trkpt lat="48.42601" lon="2.47152">
        <ele>76.8</ele>
        <time>2017-11-29T13:34:48Z</time>
      </trkpt>
      <trkpt lat="48.426" lon="2.47137">
        <ele>128.276</ele>
        <time>2017-11-29T13:34:48Z</time>
      </trkpt>
      <trkpt lat="48.426" lon="2.47137">
        <ele>128.276</ele>
        <time>2017-11-29T13:34:55Z</time>
      </trkpt>
      <trkpt lat="48.426" lon="2.47137">
        <ele>77.9</ele>
        <time>2017-11-29T13:34:55Z</time>
      </trkpt>
      <trkpt lat="48.426" lon="2.47137">
        <ele>77.9</ele>
        <time>2017-11-29T13:35:25Z</time>
      </trkpt>
      <trkpt lat="48.42621" lon="2.47104">
        <ele>127.507</ele>
        <time>2017-11-29T13:35:25Z</time>
      </trkpt>
      <trkpt lat="48.42633" lon="2.47088">
        <ele>127.191</ele>
        <time>2017-11-29T13:35:44Z</time>
      </trkpt>
      <trkpt lat="48.4264" lon="2.47065">
        <ele>126.937</ele>
        <time>2017-11-29T13:35:57Z</time>
      </trkpt>
      <trkpt lat="48.42645" lon="2.47051">
        <ele>126.733</ele>
        <time>2017-11-29T13:36:08Z</time>
      </trkpt>
      <trkpt lat="48.42655" lon="2.47021">
        <ele>126.427</ele>
        <time>2017-11-29T13:36:25Z</time>
      </trkpt>
      <trkpt lat="48.42658" lon="2.4701">
        <ele>126.3</ele>
        <time>2017-11-29T13:36:32Z</time>
      </trkpt>
      <trkpt lat="48.42665" lon="2.46975">
        <ele>126.01</ele>
        <time>2017-11-29T13:36:48Z</time>
      </trkpt>
      <trkpt lat="48.42665" lon="2.46975">
        <ele>126.01</ele>
        <time>2017-11-29T13:36:56Z</time>
      </trkpt>
      <trkpt lat="48.42665" lon="2.46975">
        <ele>81.4</ele>
        <time>2017-11-29T13:36:56Z</time>
      </trkpt>
      <trkpt lat="48.42665" lon="2.46975">
        <ele>81.4</ele>
        <time>2017-11-29T13:37:07Z</time>
      </trkpt>
      <trkpt lat="48.42665" lon="2.46956">
        <ele>125.759</ele>
        <time>2017-11-29T13:37:07Z</time>
      </trkpt>
      <trkpt lat="48.42666" lon="2.46948">
        <ele>125.668</ele>
        <time>2017-11-29T13:37:12Z</time>
      </trkpt>
      <trkpt lat="48.42666" lon="2.46948">
        <ele>79.4</ele>
        <time>2017-11-29T13:37:19Z</time>
      </trkpt>
      <trkpt lat="48.42666" lon="2.46948">
        <ele>79.4</ele>
        <time>2017-11-29T13:38:22Z</time>
      </trkpt>
      <trkpt lat="48.42675" lon="2.46909">
        <ele>124.846</ele>
        <time>2017-11-29T13:38:22Z</time>
      </trkpt>
      <trkpt lat="48.42674" lon="2.46869">
        <ele>124.258</ele>
        <time>2017-11-29T13:39:11Z</time>
      </trkpt>
      <trkpt lat="48.42671" lon="2.46859">
        <ele>124.109</ele>
        <time>2017-11-29T13:39:20Z</time>
      </trkpt>
      <trkpt lat="48.42662" lon="2.46828">
        <ele>123.896</ele>
        <time>2017-11-29T13:39:33Z</time>
      </trkpt>
      <trkpt lat="48.42663" lon="2.46811">
        <ele>123.717</ele>
        <time>2017-11-29T13:39:45Z</time>
      </trkpt>
      <trkpt lat="48.4266" lon="2.46785">
        <ele>123.482</ele>
        <time>2017-11-29T13:39:59Z</time>
      </trkpt>
      <trkpt lat="48.4266" lon="2.46763">
        <ele>123.242</ele>
        <time>2017-11-29T13:40:15Z</time>
      </trkpt>
      <trkpt lat="48.42662" lon="2.46737">
        <ele>123.04</ele>
        <time>2017-11-29T13:40:28Z</time>
      </trkpt>
      <trkpt lat="48.42664" lon="2.46699">
        <ele>122.704</ele>
        <time>2017-11-29T13:40:51Z</time>
      </trkpt>
      <trkpt lat="48.42666" lon="2.46683">
        <ele>122.623</ele>
        <time>2017-11-29T13:40:57Z</time>
      </trkpt>
      <trkpt lat="48.42671" lon="2.46664">
        <ele>122.463</ele>
        <time>2017-11-29T13:41:10Z</time>
      </trkpt>
      <trkpt lat="48.42681" lon="2.46647">
        <ele>122.382</ele>
        <time>2017-11-29T13:41:17Z</time>
      </trkpt>
      <trkpt lat="48.42686" lon="2.46629">
        <ele>122.29</ele>
        <time>2017-11-29T13:41:25Z</time>
      </trkpt>
      <trkpt lat="48.42684" lon="2.46604">
        <ele>122.138</ele>
        <time>2017-11-29T13:41:39Z</time>
      </trkpt>
      <trkpt lat="48.42678" lon="2.46571">
        <ele>121.988</ele>
        <time>2017-11-29T13:41:56Z</time>
      </trkpt>
      <trkpt lat="48.42677" lon="2.46547">
        <ele>121.855</ele>
        <time>2017-11-29T13:42:11Z</time>
      </trkpt>
      <trkpt lat="48.42677" lon="2.46523">
        <ele>121.739</ele>
        <time>2017-11-29T13:42:22Z</time>
      </trkpt>
      <trkpt lat="48.42677" lon="2.46523">
        <ele>64.5</ele>
        <time>2017-11-29T13:42:29Z</time>
      </trkpt>
      <trkpt lat="48.42677" lon="2.46523">
        <ele>64.5</ele>
        <time>2017-11-29T13:43:24Z</time>
      </trkpt>
      <trkpt lat="48.42698" lon="2.46523">
        <ele>121.59</ele>
        <time>2017-11-29T13:43:24Z</time>
      </trkpt>
      <trkpt lat="48.42708" lon="2.46506">
        <ele>121.51</ele>
        <time>2017-11-29T13:43:37Z</time>
      </trkpt>
      <trkpt lat="48.4272" lon="2.46489">
        <ele>121.357</ele>
        <time>2017-11-29T13:43:50Z</time>
      </trkpt>
      <trkpt lat="48.42729" lon="2.46477">
        <ele>121.168</ele>
        <time>2017-11-29T13:44:06Z</time>
      </trkpt>
      <trkpt lat="48.42743" lon="2.46457">
        <ele>120.981</ele>
        <time>2017-11-29T13:44:21Z</time>
      </trkpt>
      <trkpt lat="48.42751" lon="2.46439">
        <ele>120.859</ele>
        <time>2017-11-29T13:44:31Z</time>
      </trkpt>
      <trkpt lat="48.42754" lon="2.4641">
        <ele>120.618</ele>
        <time>2017-11-29T13:44:49Z</time>
      </trkpt>
      <trkpt lat="48.42764" lon="2.4638">
        <ele>120.372</ele>
        <time>2017-11-29T13:45:05Z</time>
      </trkpt>
      <trkpt lat="48.42767" lon="2.46347">
        <ele>120.093</ele>
        <time>2017-11-29T13:45:23Z</time>
      </trkpt>
      <trkpt lat="48.42776" lon="2.4633">
        <ele>119.727</ele>
        <time>2017-11-29T13:45:36Z</time>
      </trkpt>
      <trkpt lat="48.42784" lon="2.46314">
        <ele>119.443</ele>
        <time>2017-11-29T13:45:44Z</time>
      </trkpt>
      <trkpt lat="48.42784" lon="2.46296">
        <ele>118.968</ele>
        <time>2017-11-29T13:45:58Z</time>
      </trkpt>
      <trkpt lat="48.42806" lon="2.4627">
        <ele>117.598</ele>
        <time>2017-11-29T13:46:40Z</time>
      </trkpt>
      <trkpt lat="48.42816" lon="2.4625">
        <ele>116.894</ele>
        <time>2017-11-29T13:46:58Z</time>
      </trkpt>
      <trkpt lat="48.42824" lon="2.46237">
        <ele>116.574</ele>
        <time>2017-11-29T13:47:06Z</time>
      </trkpt>
      <trkpt lat="48.42824" lon="2.46237">
        <ele>60</ele>
        <time>2017-11-29T13:47:13Z</time>
      </trkpt>
      <trkpt lat="48.42824" lon="2.46237">
        <ele>60</ele>
        <time>2017-11-29T13:47:16Z</time>
      </trkpt>
      <trkpt lat="48.42826" lon="2.4623">
        <ele>116.219</ele>
        <time>2017-11-29T13:47:16Z</time>
      </trkpt>
      <trkpt lat="48.4283" lon="2.46217">
        <ele>115.876</ele>
        <time>2017-11-29T13:47:24Z</time>
      </trkpt>
      <trkpt lat="48.42839" lon="2.46203">
        <ele>115.238</ele>
        <time>2017-11-29T13:47:37Z</time>
      </trkpt>
      <trkpt lat="48.42855" lon="2.4617">
        <ele>114.327</ele>
        <time>2017-11-29T13:47:55Z</time>
      </trkpt>
      <trkpt lat="48.42861" lon="2.46154">
        <ele>113.825</ele>
        <time>2017-11-29T13:48:06Z</time>
      </trkpt>
      <trkpt lat="48.42864" lon="2.46133">
        <ele>113.197</ele>
        <time>2017-11-29T13:48:21Z</time>
      </trkpt>
      <trkpt lat="48.42867" lon="2.4611">
        <ele>112.585</ele>
        <time>2017-11-29T13:48:37Z</time>
      </trkpt>
      <trkpt lat="48.4286" lon="2.46084">
        <ele>112.062</ele>
        <time>2017-11-29T13:48:53Z</time>
      </trkpt>
      <trkpt lat="48.4286" lon="2.46084">
        <ele>112.062</ele>
        <time>2017-11-29T13:49:01Z</time>
      </trkpt>
      <trkpt lat="48.4286" lon="2.46084">
        <ele>59</ele>
        <time>2017-11-29T13:49:01Z</time>
      </trkpt>
      <trkpt lat="48.4286" lon="2.46084">
        <ele>59</ele>
        <time>2017-11-29T13:51:25Z</time>
      </trkpt>
      <trkpt lat="48.42875" lon="2.46098">
        <ele>109.657</ele>
        <time>2017-11-29T13:51:25Z</time>
      </trkpt>
      <trkpt lat="48.42875" lon="2.46098">
        <ele>109.657</ele>
        <time>2017-11-29T13:51:31Z</time>
      </trkpt>
      <trkpt lat="48.42875" lon="2.46098">
        <ele>59.5</ele>
        <time>2017-11-29T13:51:31Z</time>
      </trkpt>
      <trkpt lat="48.42875" lon="2.46098">
        <ele>59.5</ele>
        <time>2017-11-29T13:53:42Z</time>
      </trkpt>
      <trkpt lat="48.42871" lon="2.46058">
        <ele>108.372</ele>
        <time>2017-11-29T13:53:42Z</time>
      </trkpt>
      <trkpt lat="48.42874" lon="2.46034">
        <ele>108.235</ele>
        <time>2017-11-29T13:53:55Z</time>
      </trkpt>
      <trkpt lat="48.42874" lon="2.46034">
        <ele>60</ele>
        <time>2017-11-29T13:54:03Z</time>
      </trkpt>
      <trkpt lat="48.42874" lon="2.46034">
        <ele>60</ele>
        <time>2017-11-29T13:54:06Z</time>
      </trkpt>
      <trkpt lat="48.42874" lon="2.46026">
        <ele>108.155</ele>
        <time>2017-11-29T13:54:06Z</time>
      </trkpt>
      <trkpt lat="48.42874" lon="2.46026">
        <ele>108.155</ele>
        <time>2017-11-29T13:54:14Z</time>
      </trkpt>
      <trkpt lat="48.42874" lon="2.46026">
        <ele>60</ele>
        <time>2017-11-29T13:54:14Z</time>
      </trkpt>
      <trkpt lat="48.42874" lon="2.46026">
        <ele>60</ele>
        <time>2017-11-29T13:54:30Z</time>
      </trkpt>
      <trkpt lat="48.42877" lon="2.46005">
        <ele>107.961</ele>
        <time>2017-11-29T13:54:30Z</time>
      </trkpt>
      <trkpt lat="48.42879" lon="2.45978">
        <ele>107.891</ele>
        <time>2017-11-29T13:54:43Z</time>
      </trkpt>
      <trkpt lat="48.42881" lon="2.45953">
        <ele>107.824</ele>
        <time>2017-11-29T13:54:58Z</time>
      </trkpt>
      <trkpt lat="48.42895" lon="2.45938">
        <ele>107.754</ele>
        <time>2017-11-29T13:55:15Z</time>
      </trkpt>
      <trkpt lat="48.42909" lon="2.45927">
        <ele>107.698</ele>
        <time>2017-11-29T13:55:28Z</time>
      </trkpt>
      <trkpt lat="48.42913" lon="2.45925">
        <ele>107.68</ele>
        <time>2017-11-29T13:55:31Z</time>
      </trkpt>
      <trkpt lat="48.42913" lon="2.45925">
        <ele>61</ele>
        <time>2017-11-29T13:55:39Z</time>
      </trkpt>
      <trkpt lat="48.42913" lon="2.45925">
        <ele>61</ele>
        <time>2017-11-29T13:56:17Z</time>
      </trkpt>
      <trkpt lat="48.42932" lon="2.45955">
        <ele>107.299</ele>
        <time>2017-11-29T13:56:17Z</time>
      </trkpt>
      <trkpt lat="48.42939" lon="2.45981">
        <ele>107.186</ele>
        <time>2017-11-29T13:56:32Z</time>
      </trkpt>
      <trkpt lat="48.42944" lon="2.46014">
        <ele>107.04</ele>
        <time>2017-11-29T13:56:48Z</time>
      </trkpt>
      <trkpt lat="48.4295" lon="2.46038">
        <ele>106.899</ele>
        <time>2017-11-29T13:57:04Z</time>
      </trkpt>
      <trkpt lat="48.42963" lon="2.46033">
        <ele>106.812</ele>
        <time>2017-11-29T13:57:20Z</time>
      </trkpt>
      <trkpt lat="48.42974" lon="2.4603">
        <ele>106.695</ele>
        <time>2017-11-29T13:57:29Z</time>
      </trkpt>
      <trkpt lat="48.4299" lon="2.46025">
        <ele>106.415</ele>
        <time>2017-11-29T13:57:45Z</time>
      </trkpt>
      <trkpt lat="48.43006" lon="2.46021">
        <ele>106.097</ele>
        <time>2017-11-29T13:58:00Z</time>
      </trkpt>
      <trkpt lat="48.43022" lon="2.46019">
        <ele>105.796</ele>
        <time>2017-11-29T13:58:14Z</time>
      </trkpt>
      <trkpt lat="48.43042" lon="2.46018">
        <ele>105.684</ele>
        <time>2017-11-29T13:58:20Z</time>
      </trkpt>
      <trkpt lat="48.43042" lon="2.46018">
        <ele>59.2</ele>
        <time>2017-11-29T13:58:26Z</time>
      </trkpt>
      <trkpt lat="48.43042" lon="2.46018">
        <ele>59.2</ele>
        <time>2017-11-29T13:58:35Z</time>
      </trkpt>
      <trkpt lat="48.43053" lon="2.46021">
        <ele>105.51</ele>
        <time>2017-11-29T13:58:35Z</time>
      </trkpt>
      <trkpt lat="48.43067" lon="2.46014">
        <ele>105.314</ele>
        <time>2017-11-29T13:58:52Z</time>
      </trkpt>
      <trkpt lat="48.4308" lon="2.46004">
        <ele>105.224</ele>
        <time>2017-11-29T13:59:02Z</time>
      </trkpt>
      <trkpt lat="48.4308" lon="2.46004">
        <ele>105.224</ele>
        <time>2017-11-29T13:59:10Z</time>
      </trkpt>
      <trkpt lat="48.4308" lon="2.46004">
        <ele>59</ele>
        <time>2017-11-29T13:59:10Z</time>
      </trkpt>
      <trkpt lat="48.4308" lon="2.46004">
        <ele>59</ele>
        <time>2017-11-29T13:59:15Z</time>
      </trkpt>
      <trkpt lat="48.43088" lon="2.45998">
        <ele>105.14</ele>
        <time>2017-11-29T13:59:15Z</time>
      </trkpt>
      <trkpt lat="48.431" lon="2.45985">
        <ele>105.036</ele>
        <time>2017-11-29T13:59:28Z</time>
      </trkpt>
      <trkpt lat="48.4311" lon="2.45979">
        <ele>104.958</ele>
        <time>2017-11-29T13:59:38Z</time>
      </trkpt>
      <trkpt lat="48.43128" lon="2.4598">
        <ele>104.801</ele>
        <time>2017-11-29T13:59:56Z</time>
      </trkpt>
      <trkpt lat="48.4314" lon="2.4597">
        <ele>104.699</ele>
        <time>2017-11-29T14:00:07Z</time>
      </trkpt>
      <trkpt lat="48.43145" lon="2.45957">
        <ele>104.582</ele>
        <time>2017-11-29T14:00:19Z</time>
      </trkpt>
      <trkpt lat="48.43145" lon="2.45957">
        <ele>59.8</ele>
        <time>2017-11-29T14:00:26Z</time>
      </trkpt>
      <trkpt lat="48.43145" lon="2.45957">
        <ele>59.8</ele>
        <time>2017-11-29T14:01:10Z</time>
      </trkpt>
      <trkpt lat="48.43171" lon="2.45946">
        <ele>104.192</ele>
        <time>2017-11-29T14:01:10Z</time>
      </trkpt>
      <trkpt lat="48.43171" lon="2.45946">
        <ele>104.192</ele>
        <time>2017-11-29T14:01:16Z</time>
      </trkpt>
      <trkpt lat="48.43171" lon="2.45946">
        <ele>59</ele>
        <time>2017-11-29T14:01:16Z</time>
      </trkpt>
      <trkpt lat="48.43171" lon="2.45946">
        <ele>59</ele>
        <time>2017-11-29T14:01:22Z</time>
      </trkpt>
      <trkpt lat="48.43182" lon="2.4594">
        <ele>104.097</ele>
        <time>2017-11-29T14:01:22Z</time>
      </trkpt>
      <trkpt lat="48.43193" lon="2.45938">
        <ele>104.023</ele>
        <time>2017-11-29T14:01:32Z</time>
      </trkpt>
      <trkpt lat="48.43218" lon="2.45932">
        <ele>103.965</ele>
        <time>2017-11-29T14:01:43Z</time>
      </trkpt>
      <trkpt lat="48.43239" lon="2.45933">
        <ele>103.913</ele>
        <time>2017-11-29T14:01:56Z</time>
      </trkpt>
      <trkpt lat="48.43275" lon="2.45922">
        <ele>103.815</ele>
        <time>2017-11-29T14:02:12Z</time>
      </trkpt>
      <trkpt lat="48.43289" lon="2.4591">
        <ele>103.754</ele>
        <time>2017-11-29T14:02:20Z</time>
      </trkpt>
      <trkpt lat="48.4329" lon="2.45895">
        <ele>103.672</ele>
        <time>2017-11-29T14:02:30Z</time>
      </trkpt>
      <trkpt lat="48.43297" lon="2.45862">
        <ele>103.521</ele>
        <time>2017-11-29T14:02:50Z</time>
      </trkpt>
      <trkpt lat="48.43297" lon="2.45853">
        <ele>103.482</ele>
        <time>2017-11-29T14:02:57Z</time>
      </trkpt>
      <trkpt lat="48.43297" lon="2.45853">
        <ele>60.3</ele>
        <time>2017-11-29T14:03:05Z</time>
      </trkpt>
      <trkpt lat="48.43297" lon="2.45853">
        <ele>60.3</ele>
        <time>2017-11-29T14:03:44Z</time>
      </trkpt>
      <trkpt lat="48.43284" lon="2.45807">
        <ele>103.272</ele>
        <time>2017-11-29T14:03:44Z</time>
      </trkpt>
      <trkpt lat="48.43283" lon="2.45779">
        <ele>103.241</ele>
        <time>2017-11-29T14:04:02Z</time>
      </trkpt>
      <trkpt lat="48.43297" lon="2.45768">
        <ele>103.214</ele>
        <time>2017-11-29T14:04:17Z</time>
      </trkpt>
      <trkpt lat="48.43306" lon="2.45759">
        <ele>103.169</ele>
        <time>2017-11-29T14:04:29Z</time>
      </trkpt>
      <trkpt lat="48.43329" lon="2.45746">
        <ele>103.065</ele>
        <time>2017-11-29T14:04:48Z</time>
      </trkpt>
      <trkpt lat="48.43345" lon="2.45735">
        <ele>102.996</ele>
        <time>2017-11-29T14:05:05Z</time>
      </trkpt>
      <trkpt lat="48.43358" lon="2.45728">
        <ele>102.962</ele>
        <time>2017-11-29T14:05:17Z</time>
      </trkpt>
      <trkpt lat="48.43358" lon="2.45728">
        <ele>62.8</ele>
        <time>2017-11-29T14:05:24Z</time>
      </trkpt>
      <trkpt lat="48.43358" lon="2.45728">
        <ele>62.8</ele>
        <time>2017-11-29T14:06:05Z</time>
      </trkpt>
      <trkpt lat="48.43368" lon="2.45737">
        <ele>102.804</ele>
        <time>2017-11-29T14:06:05Z</time>
      </trkpt>
      <trkpt lat="48.43374" lon="2.45757">
        <ele>102.73</ele>
        <time>2017-11-29T14:06:19Z</time>
      </trkpt>
      <trkpt lat="48.43374" lon="2.45757">
        <ele>102.73</ele>
        <time>2017-11-29T14:06:25Z</time>
      </trkpt>
      <trkpt lat="48.43374" lon="2.45757">
        <ele>61.8</ele>
        <time>2017-11-29T14:06:25Z</time>
      </trkpt>
      <trkpt lat="48.43374" lon="2.45757">
        <ele>61.8</ele>
        <time>2017-11-29T14:06:44Z</time>
      </trkpt>
      <trkpt lat="48.43377" lon="2.4578">
        <ele>102.604</ele>
        <time>2017-11-29T14:06:44Z</time>
      </trkpt>
      <trkpt lat="48.43379" lon="2.45796">
        <ele>102.45</ele>
        <time>2017-11-29T14:06:56Z</time>
      </trkpt>
      <trkpt lat="48.43379" lon="2.45827">
        <ele>102.034</ele>
        <time>2017-11-29T14:07:17Z</time>
      </trkpt>
      <trkpt lat="48.43376" lon="2.45856">
        <ele>101.852</ele>
        <time>2017-11-29T14:07:30Z</time>
      </trkpt>
      <trkpt lat="48.43378" lon="2.45878">
        <ele>101.805</ele>
        <time>2017-11-29T14:07:38Z</time>
      </trkpt>
      <trkpt lat="48.43374" lon="2.45903">
        <ele>101.797</ele>
        <time>2017-11-29T14:07:50Z</time>
      </trkpt>
      <trkpt lat="48.43369" lon="2.45948">
        <ele>101.833</ele>
        <time>2017-11-29T14:08:05Z</time>
      </trkpt>
      <trkpt lat="48.43364" lon="2.45974">
        <ele>101.842</ele>
        <time>2017-11-29T14:08:14Z</time>
      </trkpt>
      <trkpt lat="48.43364" lon="2.45995">
        <ele>101.844</ele>
        <time>2017-11-29T14:08:25Z</time>
      </trkpt>
      <trkpt lat="48.43365" lon="2.46015">
        <ele>101.856</ele>
        <time>2017-11-29T14:08:36Z</time>
      </trkpt>
      <trkpt lat="48.43361" lon="2.46053">
        <ele>101.883</ele>
        <time>2017-11-29T14:08:51Z</time>
      </trkpt>
      <trkpt lat="48.4336" lon="2.46076">
        <ele>101.876</ele>
        <time>2017-11-29T14:09:02Z</time>
      </trkpt>
      <trkpt lat="48.43359" lon="2.46096">
        <ele>101.866</ele>
        <time>2017-11-29T14:09:15Z</time>
      </trkpt>
      <trkpt lat="48.43359" lon="2.46112">
        <ele>101.85</ele>
        <time>2017-11-29T14:09:24Z</time>
      </trkpt>
      <trkpt lat="48.43359" lon="2.46112">
        <ele>57.1</ele>
        <time>2017-11-29T14:09:31Z</time>
      </trkpt>
      <trkpt lat="48.43359" lon="2.46112">
        <ele>57.1</ele>
        <time>2017-11-29T14:09:40Z</time>
      </trkpt>
      <trkpt lat="48.43357" lon="2.4612">
        <ele>101.794</ele>
        <time>2017-11-29T14:09:40Z</time>
      </trkpt>
      <trkpt lat="48.43357" lon="2.46164">
        <ele>101.58</ele>
        <time>2017-11-29T14:10:17Z</time>
      </trkpt>
      <trkpt lat="48.43348" lon="2.46196">
        <ele>101.546</ele>
        <time>2017-11-29T14:10:32Z</time>
      </trkpt>
      <trkpt lat="48.43346" lon="2.46211">
        <ele>101.533</ele>
        <time>2017-11-29T14:10:39Z</time>
      </trkpt>
      <trkpt lat="48.43341" lon="2.4624">
        <ele>101.484</ele>
        <time>2017-11-29T14:10:51Z</time>
      </trkpt>
      <trkpt lat="48.43338" lon="2.46268">
        <ele>101.41</ele>
        <time>2017-11-29T14:11:04Z</time>
      </trkpt>
      <trkpt lat="48.43335" lon="2.46292">
        <ele>101.351</ele>
        <time>2017-11-29T14:11:16Z</time>
      </trkpt>
      <trkpt lat="48.43334" lon="2.46327">
        <ele>101.301</ele>
        <time>2017-11-29T14:11:31Z</time>
      </trkpt>
      <trkpt lat="48.43329" lon="2.46353">
        <ele>101.276</ele>
        <time>2017-11-29T14:11:41Z</time>
      </trkpt>
      <trkpt lat="48.43325" lon="2.46376">
        <ele>101.254</ele>
        <time>2017-11-29T14:11:50Z</time>
      </trkpt>
      <trkpt lat="48.43323" lon="2.46396">
        <ele>101.201</ele>
        <time>2017-11-29T14:12:00Z</time>
      </trkpt>
      <trkpt lat="48.43321" lon="2.46419">
        <ele>101.138</ele>
        <time>2017-11-29T14:12:12Z</time>
      </trkpt>
      <trkpt lat="48.43319" lon="2.46431">
        <ele>101.117</ele>
        <time>2017-11-29T14:12:18Z</time>
      </trkpt>
      <trkpt lat="48.43319" lon="2.46431">
        <ele>67.5</ele>
        <time>2017-11-29T14:12:25Z</time>
      </trkpt>
      <trkpt lat="48.43319" lon="2.46431">
        <ele>67.5</ele>
        <time>2017-11-29T14:12:31Z</time>
      </trkpt>
      <trkpt lat="48.43319" lon="2.46444">
        <ele>101.095</ele>
        <time>2017-11-29T14:12:31Z</time>
      </trkpt>
      <trkpt lat="48.43318" lon="2.4647">
        <ele>101.071</ele>
        <time>2017-11-29T14:12:48Z</time>
      </trkpt>
      <trkpt lat="48.43317" lon="2.46492">
        <ele>101.081</ele>
        <time>2017-11-29T14:13:03Z</time>
      </trkpt>
      <trkpt lat="48.43312" lon="2.46514">
        <ele>101.14</ele>
        <time>2017-11-29T14:13:18Z</time>
      </trkpt>
      <trkpt lat="48.4331" lon="2.46534">
        <ele>101.228</ele>
        <time>2017-11-29T14:13:30Z</time>
      </trkpt>
      <trkpt lat="48.43307" lon="2.46559">
        <ele>101.396</ele>
        <time>2017-11-29T14:13:49Z</time>
      </trkpt>
      <trkpt lat="48.43307" lon="2.46578">
        <ele>101.534</ele>
        <time>2017-11-29T14:14:02Z</time>
      </trkpt>
      <trkpt lat="48.43303" lon="2.46603">
        <ele>101.686</ele>
        <time>2017-11-29T14:14:22Z</time>
      </trkpt>
      <trkpt lat="48.43302" lon="2.4662">
        <ele>101.751</ele>
        <time>2017-11-29T14:14:31Z</time>
      </trkpt>
      <trkpt lat="48.43295" lon="2.46652">
        <ele>101.874</ele>
        <time>2017-11-29T14:14:44Z</time>
      </trkpt>
      <trkpt lat="48.43293" lon="2.46672">
        <ele>102.121</ele>
        <time>2017-11-29T14:15:04Z</time>
      </trkpt>
      <trkpt lat="48.4329" lon="2.46714">
        <ele>102.551</ele>
        <time>2017-11-29T14:15:59Z</time>
      </trkpt>
      <trkpt lat="48.43284" lon="2.46755">
        <ele>102.912</ele>
        <time>2017-11-29T14:17:10Z</time>
      </trkpt>
      <trkpt lat="48.43283" lon="2.46779">
        <ele>103.166</ele>
        <time>2017-11-29T14:17:27Z</time>
      </trkpt>
      <trkpt lat="48.4328" lon="2.46804">
        <ele>103.357</ele>
        <time>2017-11-29T14:17:45Z</time>
      </trkpt>
      <trkpt lat="48.43275" lon="2.46818">
        <ele>103.443</ele>
        <time>2017-11-29T14:17:54Z</time>
      </trkpt>
      <trkpt lat="48.43274" lon="2.46839">
        <ele>103.526</ele>
        <time>2017-11-29T14:18:04Z</time>
      </trkpt>
      <trkpt lat="48.43274" lon="2.46839">
        <ele>103.526</ele>
        <time>2017-11-29T14:18:11Z</time>
      </trkpt>
      <trkpt lat="48.43274" lon="2.46839">
        <ele>71.9</ele>
        <time>2017-11-29T14:18:11Z</time>
      </trkpt>
      <trkpt lat="48.43274" lon="2.46839">
        <ele>71.9</ele>
        <time>2017-11-29T14:19:26Z</time>
      </trkpt>
      <trkpt lat="48.43287" lon="2.46849">
        <ele>103.629</ele>
        <time>2017-11-29T14:19:26Z</time>
      </trkpt>
      <trkpt lat="48.43299" lon="2.46856">
        <ele>103.706</ele>
        <time>2017-11-29T14:19:38Z</time>
      </trkpt>
      <trkpt lat="48.43316" lon="2.46867">
        <ele>103.843</ele>
        <time>2017-11-29T14:19:57Z</time>
      </trkpt>
      <trkpt lat="48.43334" lon="2.4688">
        <ele>104.031</ele>
        <time>2017-11-29T14:20:17Z</time>
      </trkpt>
      <trkpt lat="48.43348" lon="2.46888">
        <ele>104.113</ele>
        <time>2017-11-29T14:20:27Z</time>
      </trkpt>
      <trkpt lat="48.43353" lon="2.46907">
        <ele>104.195</ele>
        <time>2017-11-29T14:20:35Z</time>
      </trkpt>
      <trkpt lat="48.43357" lon="2.46918">
        <ele>104.253</ele>
        <time>2017-11-29T14:20:40Z</time>
      </trkpt>
      <trkpt lat="48.43372" lon="2.46929">
        <ele>104.409</ele>
        <time>2017-11-29T14:20:57Z</time>
      </trkpt>
      <trkpt lat="48.43402" lon="2.46954">
        <ele>104.541</ele>
        <time>2017-11-29T14:21:17Z</time>
      </trkpt>
      <trkpt lat="48.43415" lon="2.46962">
        <ele>104.596</ele>
        <time>2017-11-29T14:21:28Z</time>
      </trkpt>
      <trkpt lat="48.43424" lon="2.46966">
        <ele>104.626</ele>
        <time>2017-11-29T14:21:34Z</time>
      </trkpt>
      <trkpt lat="48.43438" lon="2.46974">
        <ele>104.681</ele>
        <time>2017-11-29T14:21:44Z</time>
      </trkpt>
      <trkpt lat="48.43452" lon="2.4698">
        <ele>104.755</ele>
        <time>2017-11-29T14:21:56Z</time>
      </trkpt>
      <trkpt lat="48.43472" lon="2.46997">
        <ele>104.888</ele>
        <time>2017-11-29T14:22:13Z</time>
      </trkpt>
      <trkpt lat="48.43493" lon="2.47016">
        <ele>105.113</ele>
        <time>2017-11-29T14:22:31Z</time>
      </trkpt>
      <trkpt lat="48.43507" lon="2.47028">
        <ele>105.302</ele>
        <time>2017-11-29T14:22:45Z</time>
      </trkpt>
      <trkpt lat="48.43523" lon="2.47041">
        <ele>105.494</ele>
        <time>2017-11-29T14:22:58Z</time>
      </trkpt>
      <trkpt lat="48.43542" lon="2.47055">
        <ele>105.695</ele>
        <time>2017-11-29T14:23:13Z</time>
      </trkpt>
      <trkpt lat="48.43551" lon="2.47065">
        <ele>105.809</ele>
        <time>2017-11-29T14:23:22Z</time>
      </trkpt>
      <trkpt lat="48.43569" lon="2.47076">
        <ele>105.963</ele>
        <time>2017-11-29T14:23:39Z</time>
      </trkpt>
      <trkpt lat="48.43588" lon="2.47089">
        <ele>106.049</ele>
        <time>2017-11-29T14:23:57Z</time>
      </trkpt>
      <trkpt lat="48.43605" lon="2.47105">
        <ele>106.1</ele>
        <time>2017-11-29T14:24:13Z</time>
      </trkpt>
      <trkpt lat="48.43621" lon="2.47121">
        <ele>106.159</ele>
        <time>2017-11-29T14:24:28Z</time>
      </trkpt>
      <trkpt lat="48.43638" lon="2.47132">
        <ele>106.2</ele>
        <time>2017-11-29T14:24:42Z</time>
      </trkpt>
      <trkpt lat="48.4366" lon="2.4715">
        <ele>106.256</ele>
        <time>2017-11-29T14:25:01Z</time>
      </trkpt>
      <trkpt lat="48.43671" lon="2.47159">
        <ele>106.32</ele>
        <time>2017-11-29T14:25:14Z</time>
      </trkpt>
      <trkpt lat="48.43689" lon="2.47173">
        <ele>106.361</ele>
        <time>2017-11-29T14:25:30Z</time>
      </trkpt>
      <trkpt lat="48.43704" lon="2.47186">
        <ele>106.373</ele>
        <time>2017-11-29T14:25:44Z</time>
      </trkpt>
      <trkpt lat="48.43723" lon="2.47201">
        <ele>106.347</ele>
        <time>2017-11-29T14:26:02Z</time>
      </trkpt>
      <trkpt lat="48.43733" lon="2.47171">
        <ele>106.286</ele>
        <time>2017-11-29T14:26:21Z</time>
      </trkpt>
      <trkpt lat="48.43738" lon="2.47156">
        <ele>106.263</ele>
        <time>2017-11-29T14:26:29Z</time>
      </trkpt>
      <trkpt lat="48.43741" lon="2.47144">
        <ele>106.236</ele>
        <time>2017-11-29T14:26:40Z</time>
      </trkpt>
      <trkpt lat="48.4374" lon="2.47137">
        <ele>106.225</ele>
        <time>2017-11-29T14:26:46Z</time>
      </trkpt>
      <trkpt lat="48.4374" lon="2.47137">
        <ele>67.4</ele>
        <time>2017-11-29T14:26:53Z</time>
      </trkpt>
      <trkpt lat="48.4374" lon="2.47137">
        <ele>67.4</ele>
        <time>2017-11-29T14:26:56Z</time>
      </trkpt>
      <trkpt lat="48.43744" lon="2.47123">
        <ele>106.207</ele>
        <time>2017-11-29T14:26:56Z</time>
      </trkpt>
      <trkpt lat="48.4375" lon="2.47096">
        <ele>106.169</ele>
        <time>2017-11-29T14:27:08Z</time>
      </trkpt>
      <trkpt lat="48.4376" lon="2.47069">
        <ele>106.127</ele>
        <time>2017-11-29T14:27:22Z</time>
      </trkpt>
      <trkpt lat="48.4376" lon="2.47069">
        <ele>66.7</ele>
        <time>2017-11-29T14:27:29Z</time>
      </trkpt>
      <trkpt lat="48.4376" lon="2.47069">
        <ele>66.7</ele>
        <time>2017-11-29T14:27:35Z</time>
      </trkpt>
      <trkpt lat="48.43768" lon="2.47066">
        <ele>106.065</ele>
        <time>2017-11-29T14:27:35Z</time>
      </trkpt>
      <trkpt lat="48.43783" lon="2.47077">
        <ele>106</ele>
        <time>2017-11-29T14:27:49Z</time>
      </trkpt>
      <trkpt lat="48.43788" lon="2.47092">
        <ele>105.975</ele>
        <time>2017-11-29T14:27:58Z</time>
      </trkpt>
      <trkpt lat="48.43795" lon="2.47117">
        <ele>105.936</ele>
        <time>2017-11-29T14:28:15Z</time>
      </trkpt>
      <trkpt lat="48.43808" lon="2.47136">
        <ele>105.924</ele>
        <time>2017-11-29T14:28:25Z</time>
      </trkpt>
      <trkpt lat="48.43814" lon="2.47146">
        <ele>105.929</ele>
        <time>2017-11-29T14:28:37Z</time>
      </trkpt>
      <trkpt lat="48.43819" lon="2.47163">
        <ele>105.931</ele>
        <time>2017-11-29T14:28:48Z</time>
      </trkpt>
      <trkpt lat="48.43839" lon="2.47189">
        <ele>105.931</ele>
        <time>2017-11-29T14:29:05Z</time>
      </trkpt>
      <trkpt lat="48.43846" lon="2.47199">
        <ele>105.93</ele>
        <time>2017-11-29T14:29:14Z</time>
      </trkpt>
      <trkpt lat="48.43864" lon="2.4722">
        <ele>105.928</ele>
        <time>2017-11-29T14:29:32Z</time>
      </trkpt>
      <trkpt lat="48.43876" lon="2.47246">
        <ele>105.91</ele>
        <time>2017-11-29T14:29:49Z</time>
      </trkpt>
      <trkpt lat="48.43886" lon="2.47268">
        <ele>105.874</ele>
        <time>2017-11-29T14:30:03Z</time>
      </trkpt>
      <trkpt lat="48.43896" lon="2.47294">
        <ele>105.824</ele>
        <time>2017-11-29T14:30:16Z</time>
      </trkpt>
      <trkpt lat="48.43904" lon="2.47315">
        <ele>105.776</ele>
        <time>2017-11-29T14:30:28Z</time>
      </trkpt>
      <trkpt lat="48.43912" lon="2.47341">
        <ele>105.716</ele>
        <time>2017-11-29T14:30:43Z</time>
      </trkpt>
      <trkpt lat="48.43925" lon="2.47362">
        <ele>105.67</ele>
        <time>2017-11-29T14:30:58Z</time>
      </trkpt>
      <trkpt lat="48.43939" lon="2.47375">
        <ele>105.634</ele>
        <time>2017-11-29T14:31:14Z</time>
      </trkpt>
      <trkpt lat="48.43953" lon="2.47386">
        <ele>105.607</ele>
        <time>2017-11-29T14:31:32Z</time>
      </trkpt>
      <trkpt lat="48.43974" lon="2.47392">
        <ele>105.607</ele>
        <time>2017-11-29T14:31:45Z</time>
      </trkpt>
      <trkpt lat="48.43996" lon="2.47397">
        <ele>105.596</ele>
        <time>2017-11-29T14:32:00Z</time>
      </trkpt>
      <trkpt lat="48.44007" lon="2.47405">
        <ele>105.579</ele>
        <time>2017-11-29T14:32:12Z</time>
      </trkpt>
      <trkpt lat="48.44011" lon="2.47407">
        <ele>105.57</ele>
        <time>2017-11-29T14:32:17Z</time>
      </trkpt>
      <trkpt lat="48.44011" lon="2.47407">
        <ele>64.9</ele>
        <time>2017-11-29T14:32:24Z</time>
      </trkpt>
      <trkpt lat="48.44011" lon="2.47407">
        <ele>64.9</ele>
        <time>2017-11-29T14:32:33Z</time>
      </trkpt>
      <trkpt lat="48.44019" lon="2.4741">
        <ele>105.544</ele>
        <time>2017-11-29T14:32:33Z</time>
      </trkpt>
      <trkpt lat="48.44028" lon="2.47418">
        <ele>105.52</ele>
        <time>2017-11-29T14:32:41Z</time>
      </trkpt>
      <trkpt lat="48.44032" lon="2.47421">
        <ele>105.508</ele>
        <time>2017-11-29T14:32:44Z</time>
      </trkpt>
      <trkpt lat="48.44032" lon="2.47421">
        <ele>66.1</ele>
        <time>2017-11-29T14:32:52Z</time>
      </trkpt>
      <trkpt lat="48.44032" lon="2.47421">
        <ele>66.1</ele>
        <time>2017-11-29T14:32:57Z</time>
      </trkpt>
      <trkpt lat="48.44041" lon="2.4741">
        <ele>105.458</ele>
        <time>2017-11-29T14:32:57Z</time>
      </trkpt>
      <trkpt lat="48.44051" lon="2.47394">
        <ele>105.403</ele>
        <time>2017-11-29T14:33:08Z</time>
      </trkpt>
      <trkpt lat="48.44064" lon="2.47383">
        <ele>105.301</ele>
        <time>2017-11-29T14:33:19Z</time>
      </trkpt>
      <trkpt lat="48.4407" lon="2.47367">
        <ele>105.067</ele>
        <time>2017-11-29T14:33:29Z</time>
      </trkpt>
      <trkpt lat="48.4407" lon="2.47367">
        <ele>63.8</ele>
        <time>2017-11-29T14:33:36Z</time>
      </trkpt>
      <trkpt lat="48.4407" lon="2.47367">
        <ele>63.8</ele>
        <time>2017-11-29T14:36:50Z</time>
      </trkpt>
      <trkpt lat="48.4407" lon="2.47367">
        <ele>63.8</ele>
        <time>2017-11-29T14:36:55Z</time>
      </trkpt>
    </trkseg>
  </trk>
</gpx>